PWSweather.com
Personal Weather Stations
Station Observations
KNMFARMI31
Near Jackson Lake, Farmington, NM 87401

Near Jackson LakeFarmington, NM 87401

Lat: 36.821, Lon: -108.225

Elevation: 5482

Station Type: Davis Vantange Vue

High Low Average
Temperature 85.9°F29.9°C 49.0°F9.4°C 69.2°F20.7°C
Dew Point 48.7°F9.3°C 26.8°F-2.9°C 35.5°F1.9°C
Winds 23.0 mph 37.0 kmh Calm Calm 5.0 mph W8.0 kmh W
Wind Gusts 23.0 mph37.0 kmh -- 9.0 mph14.5 kmh
Humidity 66% 13% 34%
Pressure 29.35 in993.9 mb 29.19 in988.5 mb -
Precipitation 0.00 in0.0 mm - -
Hour Temp Dew Point Humidity Winds Wind Gusts Pressure Precip Precip Rate Daily Precip Total
12:00 AM 56.8°F13.8°C 36.2°F2.3°C 46% 3.0 mph NW4.8 kmh NW 5.0 mph8.0 kmh 29.33 in993.2 mb 0.00 in0.0 mm 0.00 in0.0 mm 0.00 in0.0 mm
12:01 AM 56.7°F13.7°C 36.2°F2.3°C 46% 3.0 mph NW4.8 kmh NW 5.0 mph8.0 kmh 29.33 in993.2 mb 0.00 in0.0 mm 0.00 in0.0 mm 0.00 in0.0 mm
12:02 AM 56.7°F13.7°C 36.7°F2.6°C 47% 3.0 mph NW4.8 kmh NW 5.0 mph8.0 kmh 29.33 in993.2 mb 0.00 in0.0 mm 0.00 in0.0 mm 0.00 in0.0 mm
12:03 AM 56.6°F13.7°C 37.1°F2.8°C 48% 6.0 mph NNW9.7 kmh NNW 6.0 mph9.7 kmh 29.33 in993.2 mb 0.00 in0.0 mm 0.00 in0.0 mm 0.00 in0.0 mm
12:04 AM 56.6°F13.7°C 37.1°F2.8°C 48% 4.0 mph WNW6.4 kmh WNW 6.0 mph9.7 kmh 29.33 in993.2 mb 0.00 in0.0 mm 0.00 in0.0 mm 0.00 in0.0 mm
12:05 AM 56.5°F13.6°C 37.0°F2.8°C 48% 4.0 mph NW6.4 kmh NW 6.0 mph9.7 kmh 29.33 in993.2 mb 0.00 in0.0 mm 0.00 in0.0 mm 0.00 in0.0 mm
12:06 AM 56.5°F13.6°C 37.6°F3.1°C 49% 4.0 mph NW6.4 kmh NW 6.0 mph9.7 kmh 29.33 in993.2 mb 0.00 in0.0 mm 0.00 in0.0 mm 0.00 in0.0 mm
12:07 AM 56.4°F13.6°C 37.5°F3.1°C 49% 2.0 mph NW3.2 kmh NW 6.0 mph9.7 kmh 29.33 in993.2 mb 0.00 in0.0 mm 0.00 in0.0 mm 0.00 in0.0 mm
12:08 AM 56.4°F13.6°C 37.5°F3.1°C 49% 5.0 mph NW8.0 kmh NW 6.0 mph9.7 kmh 29.33 in993.2 mb 0.00 in0.0 mm 0.00 in0.0 mm 0.00 in0.0 mm
12:09 AM 56.3°F13.5°C 37.9°F3.3°C 50% 3.0 mph NW4.8 kmh NW 6.0 mph9.7 kmh 29.33 in993.2 mb 0.00 in0.0 mm 0.00 in0.0 mm 0.00 in0.0 mm
12:10 AM 56.3°F13.5°C 37.9°F3.3°C 50% 3.0 mph NW4.8 kmh NW 6.0 mph9.7 kmh 29.33 in993.2 mb 0.00 in0.0 mm 0.00 in0.0 mm 0.00 in0.0 mm
12:11 AM 56.3°F13.5°C 37.9°F3.3°C 50% 3.0 mph NW4.8 kmh NW 6.0 mph9.7 kmh 29.33 in993.2 mb 0.00 in0.0 mm 0.00 in0.0 mm 0.00 in0.0 mm
12:12 AM 56.3°F13.5°C 37.9°F3.3°C 50% 3.0 mph NW4.8 kmh NW 6.0 mph9.7 kmh 29.33 in993.2 mb 0.00 in0.0 mm 0.00 in0.0 mm 0.00 in0.0 mm
12:13 AM 56.3°F13.5°C 37.9°F3.3°C 50% 3.0 mph NW4.8 kmh NW 6.0 mph9.7 kmh 29.33 in993.2 mb 0.00 in0.0 mm 0.00 in0.0 mm 0.00 in0.0 mm
12:14 AM 56.3°F13.5°C 37.9°F3.3°C 50% 3.0 mph NW4.8 kmh NW 6.0 mph9.7 kmh 29.33 in993.2 mb 0.00 in0.0 mm 0.00 in0.0 mm 0.00 in0.0 mm
12:15 AM 56.3°F13.5°C 38.4°F3.6°C 51% 3.0 mph NW4.8 kmh NW 6.0 mph9.7 kmh 29.33 in993.2 mb 0.00 in0.0 mm 0.00 in0.0 mm 0.00 in0.0 mm
12:16 AM 56.3°F13.5°C 38.4°F3.6°C 51% 3.0 mph NW4.8 kmh NW 6.0 mph9.7 kmh 29.33 in993.2 mb 0.00 in0.0 mm 0.00 in0.0 mm 0.00 in0.0 mm
12:17 AM 56.4°F13.6°C 38.5°F3.6°C 51% 3.0 mph NW4.8 kmh NW 6.0 mph9.7 kmh 29.33 in993.2 mb 0.00 in0.0 mm 0.00 in0.0 mm 0.00 in0.0 mm
12:18 AM 56.4°F13.6°C 38.5°F3.6°C 51% 3.0 mph NW4.8 kmh NW 6.0 mph9.7 kmh 29.33 in993.2 mb 0.00 in0.0 mm 0.00 in0.0 mm 0.00 in0.0 mm
12:19 AM 56.4°F13.6°C 38.5°F3.6°C 51% 3.0 mph NW4.8 kmh NW 5.0 mph8.0 kmh 29.33 in993.2 mb 0.00 in0.0 mm 0.00 in0.0 mm 0.00 in0.0 mm
12:20 AM 56.4°F13.6°C 38.5°F3.6°C 51% 4.0 mph NW6.4 kmh NW 5.0 mph8.0 kmh 29.33 in993.2 mb 0.00 in0.0 mm 0.00 in0.0 mm 0.00 in0.0 mm
12:21 AM 56.5°F13.6°C 38.6°F3.7°C 51% 4.0 mph WNW6.4 kmh WNW 6.0 mph9.7 kmh 29.33 in993.2 mb 0.00 in0.0 mm 0.00 in0.0 mm 0.00 in0.0 mm
12:22 AM 56.6°F13.7°C 38.7°F3.7°C 51% 6.0 mph NW9.7 kmh NW 7.0 mph11.3 kmh 29.33 in993.2 mb 0.00 in0.0 mm 0.00 in0.0 mm 0.00 in0.0 mm
12:23 AM 56.7°F13.7°C 38.8°F3.8°C 51% 6.0 mph NW9.7 kmh NW 7.0 mph11.3 kmh 29.33 in993.2 mb 0.00 in0.0 mm 0.00 in0.0 mm 0.00 in0.0 mm
12:24 AM 56.7°F13.7°C 38.3°F3.5°C 50% 4.0 mph WNW6.4 kmh WNW 7.0 mph11.3 kmh 29.33 in993.2 mb 0.00 in0.0 mm 0.00 in0.0 mm 0.00 in0.0 mm
12:25 AM 56.6°F13.7°C 38.2°F3.4°C 50% 5.0 mph NW8.0 kmh NW 7.0 mph11.3 kmh 29.33 in993.2 mb 0.00 in0.0 mm 0.00 in0.0 mm 0.00 in0.0 mm
12:26 AM 56.6°F13.7°C 38.2°F3.4°C 50% 4.0 mph NW6.4 kmh NW 7.0 mph11.3 kmh 29.33 in993.2 mb 0.00 in0.0 mm 0.00 in0.0 mm 0.00 in0.0 mm
12:27 AM 56.6°F13.7°C 38.2°F3.4°C 50% 3.0 mph NW4.8 kmh NW 7.0 mph11.3 kmh 29.33 in993.2 mb 0.00 in0.0 mm 0.00 in0.0 mm 0.00 in0.0 mm
12:28 AM 56.5°F13.6°C 38.1°F3.4°C 50% 6.0 mph NW9.7 kmh NW 7.0 mph11.3 kmh 29.33 in993.2 mb 0.00 in0.0 mm 0.00 in0.0 mm 0.00 in0.0 mm
12:29 AM 56.4°F13.6°C 38.5°F3.6°C 51% 6.0 mph NW9.7 kmh NW 7.0 mph11.3 kmh 29.33 in993.2 mb 0.00 in0.0 mm 0.00 in0.0 mm 0.00 in0.0 mm
12:30 AM 56.3°F13.5°C 38.4°F3.6°C 51% 5.0 mph NW8.0 kmh NW 7.0 mph11.3 kmh 29.33 in993.2 mb 0.00 in0.0 mm 0.00 in0.0 mm 0.00 in0.0 mm
12:31 AM 56.2°F13.4°C 38.3°F3.5°C 51% 5.0 mph NW8.0 kmh NW 7.0 mph11.3 kmh 29.33 in993.2 mb 0.00 in0.0 mm 0.00 in0.0 mm 0.00 in0.0 mm
12:32 AM 56.2°F13.4°C 38.3°F3.5°C 51% 4.0 mph NW6.4 kmh NW 7.0 mph11.3 kmh 29.33 in993.2 mb 0.00 in0.0 mm 0.00 in0.0 mm 0.00 in0.0 mm
12:33 AM 56.2°F13.4°C 38.3°F3.5°C 51% 5.0 mph NW8.0 kmh NW 7.0 mph11.3 kmh 29.33 in993.2 mb 0.00 in0.0 mm 0.00 in0.0 mm 0.00 in0.0 mm
12:34 AM 56.2°F13.4°C 38.3°F3.5°C 51% 5.0 mph NW8.0 kmh NW 7.0 mph11.3 kmh 29.33 in993.2 mb 0.00 in0.0 mm 0.00 in0.0 mm 0.00 in0.0 mm
12:35 AM 56.2°F13.4°C 38.3°F3.5°C 51% 3.0 mph WNW4.8 kmh WNW 7.0 mph11.3 kmh 29.33 in993.2 mb 0.00 in0.0 mm 0.00 in0.0 mm 0.00 in0.0 mm
12:36 AM 56.2°F13.4°C 38.3°F3.5°C 51% 4.0 mph NW6.4 kmh NW 7.0 mph11.3 kmh 29.33 in993.2 mb 0.00 in0.0 mm 0.00 in0.0 mm 0.00 in0.0 mm
12:37 AM 56.2°F13.4°C 38.3°F3.5°C 51% 4.0 mph WNW6.4 kmh WNW 7.0 mph11.3 kmh 29.33 in993.2 mb 0.00 in0.0 mm 0.00 in0.0 mm 0.00 in0.0 mm
12:38 AM 56.1°F13.4°C 38.2°F3.4°C 51% 6.0 mph WNW9.7 kmh WNW 7.0 mph11.3 kmh 29.33 in993.2 mb 0.00 in0.0 mm 0.00 in0.0 mm 0.00 in0.0 mm
12:39 AM 56.1°F13.4°C 38.2°F3.4°C 51% 6.0 mph W9.7 kmh W 7.0 mph11.3 kmh 29.33 in993.2 mb 0.00 in0.0 mm 0.00 in0.0 mm 0.00 in0.0 mm
12:40 AM 56.1°F13.4°C 38.2°F3.4°C 51% 6.0 mph NW9.7 kmh NW 7.0 mph11.3 kmh 29.33 in993.2 mb 0.00 in0.0 mm 0.00 in0.0 mm 0.00 in0.0 mm
12:41 AM 56.1°F13.4°C 38.2°F3.4°C 51% 4.0 mph NW6.4 kmh NW 7.0 mph11.3 kmh 29.33 in993.2 mb 0.00 in0.0 mm 0.00 in0.0 mm 0.00 in0.0 mm
12:42 AM 56.1°F13.4°C 38.2°F3.4°C 51% 4.0 mph NW6.4 kmh NW 7.0 mph11.3 kmh 29.33 in993.2 mb 0.00 in0.0 mm 0.00 in0.0 mm 0.00 in0.0 mm
12:43 AM 56.1°F13.4°C 38.7°F3.7°C 52% 4.0 mph NW6.4 kmh NW 7.0 mph11.3 kmh 29.33 in993.2 mb 0.00 in0.0 mm 0.00 in0.0 mm 0.00 in0.0 mm
12:44 AM 56.0°F13.3°C 38.6°F3.7°C 52% 6.0 mph NW9.7 kmh NW 7.0 mph11.3 kmh 29.33 in993.2 mb 0.00 in0.0 mm 0.00 in0.0 mm 0.00 in0.0 mm
12:45 AM 56.0°F13.3°C 38.6°F3.7°C 52% 6.0 mph NW9.7 kmh NW 7.0 mph11.3 kmh 29.33 in993.2 mb 0.00 in0.0 mm 0.00 in0.0 mm 0.00 in0.0 mm
12:46 AM 55.9°F13.3°C 38.5°F3.6°C 52% 5.0 mph NW8.0 kmh NW 7.0 mph11.3 kmh 29.33 in993.2 mb 0.00 in0.0 mm 0.00 in0.0 mm 0.00 in0.0 mm
12:47 AM 55.8°F13.2°C 38.4°F3.6°C 52% 4.0 mph NW6.4 kmh NW 7.0 mph11.3 kmh 29.33 in993.2 mb 0.00 in0.0 mm 0.00 in0.0 mm 0.00 in0.0 mm
12:48 AM 55.8°F13.2°C 38.4°F3.6°C 52% 5.0 mph NW8.0 kmh NW 7.0 mph11.3 kmh 29.33 in993.2 mb 0.00 in0.0 mm 0.00 in0.0 mm 0.00 in0.0 mm
12:49 AM 55.7°F13.2°C 38.3°F3.5°C 52% 4.0 mph NW6.4 kmh NW 7.0 mph11.3 kmh 29.33 in993.2 mb 0.00 in0.0 mm 0.00 in0.0 mm 0.00 in0.0 mm
12:50 AM 55.6°F13.1°C 38.7°F3.7°C 53% 4.0 mph W6.4 kmh W 7.0 mph11.3 kmh 29.33 in993.2 mb 0.00 in0.0 mm 0.00 in0.0 mm 0.00 in0.0 mm
12:51 AM 55.5°F13.1°C 38.7°F3.7°C 53% 5.0 mph WNW8.0 kmh WNW 7.0 mph11.3 kmh 29.33 in993.2 mb 0.00 in0.0 mm 0.00 in0.0 mm 0.00 in0.0 mm
12:52 AM 55.5°F13.1°C 38.7°F3.7°C 53% 5.0 mph NW8.0 kmh NW 7.0 mph11.3 kmh 29.33 in993.2 mb 0.00 in0.0 mm 0.00 in0.0 mm 0.00 in0.0 mm
12:53 AM 55.3°F12.9°C 38.5°F3.6°C 53% 5.0 mph NW8.0 kmh NW 7.0 mph11.3 kmh 29.33 in993.2 mb 0.00 in0.0 mm 0.00 in0.0 mm 0.00 in0.0 mm
12:54 AM 55.3°F12.9°C 38.5°F3.6°C 53% 5.0 mph NW8.0 kmh NW 7.0 mph11.3 kmh 29.33 in993.2 mb 0.00 in0.0 mm 0.00 in0.0 mm 0.00 in0.0 mm
12:55 AM 55.2°F12.9°C 38.4°F3.6°C 53% 6.0 mph NW9.7 kmh NW 7.0 mph11.3 kmh 29.33 in993.2 mb 0.00 in0.0 mm 0.00 in0.0 mm 0.00 in0.0 mm
12:56 AM 55.1°F12.8°C 38.3°F3.5°C 53% 5.0 mph NW8.0 kmh NW 7.0 mph11.3 kmh 29.33 in993.2 mb 0.00 in0.0 mm 0.00 in0.0 mm 0.00 in0.0 mm
12:57 AM 55.0°F12.8°C 38.2°F3.4°C 53% 5.0 mph NW8.0 kmh NW 7.0 mph11.3 kmh 29.33 in993.2 mb 0.00 in0.0 mm 0.00 in0.0 mm 0.00 in0.0 mm
12:58 AM 55.0°F12.8°C 38.2°F3.4°C 53% 5.0 mph NW8.0 kmh NW 7.0 mph11.3 kmh 29.33 in993.2 mb 0.00 in0.0 mm 0.00 in0.0 mm 0.00 in0.0 mm
12:59 AM 54.9°F12.7°C 38.1°F3.4°C 53% 3.0 mph NW4.8 kmh NW 7.0 mph11.3 kmh 29.33 in993.2 mb 0.00 in0.0 mm 0.00 in0.0 mm 0.00 in0.0 mm
01:00 AM 54.9°F12.7°C 38.6°F3.7°C 54% 4.0 mph WNW6.4 kmh WNW 7.0 mph11.3 kmh 29.33 in993.2 mb 0.00 in0.0 mm 0.00 in0.0 mm 0.00 in0.0 mm
01:01 AM 54.8°F12.7°C 38.0°F3.3°C 53% 5.0 mph WNW8.0 kmh WNW 7.0 mph11.3 kmh 29.33 in993.2 mb 0.00 in0.0 mm 0.00 in0.0 mm 0.00 in0.0 mm
01:02 AM 54.8°F12.7°C 38.0°F3.3°C 53% 4.0 mph NW6.4 kmh NW 7.0 mph11.3 kmh 29.33 in993.2 mb 0.00 in0.0 mm 0.00 in0.0 mm 0.00 in0.0 mm
01:03 AM 54.7°F12.6°C 38.4°F3.6°C 54% 5.0 mph NW8.0 kmh NW 7.0 mph11.3 kmh 29.33 in993.2 mb 0.00 in0.0 mm 0.00 in0.0 mm 0.00 in0.0 mm
01:04 AM 54.7°F12.6°C 38.4°F3.6°C 54% 5.0 mph WNW8.0 kmh WNW 7.0 mph11.3 kmh 29.33 in993.2 mb 0.00 in0.0 mm 0.00 in0.0 mm 0.00 in0.0 mm
01:05 AM 54.6°F12.6°C 38.3°F3.5°C 54% 4.0 mph WNW6.4 kmh WNW 7.0 mph11.3 kmh 29.33 in993.2 mb 0.00 in0.0 mm 0.00 in0.0 mm 0.00 in0.0 mm
01:06 AM 54.6°F12.6°C 38.3°F3.5°C 54% 5.0 mph WNW8.0 kmh WNW 7.0 mph11.3 kmh 29.33 in993.2 mb 0.00 in0.0 mm 0.00 in0.0 mm 0.00 in0.0 mm
01:07 AM 54.5°F12.5°C 38.2°F3.4°C 54% 4.0 mph NW6.4 kmh NW 7.0 mph11.3 kmh 29.33 in993.2 mb 0.00 in0.0 mm 0.00 in0.0 mm 0.00 in0.0 mm
01:08 AM 54.4°F12.4°C 38.1°F3.4°C 54% 5.0 mph WNW8.0 kmh WNW 7.0 mph11.3 kmh 29.33 in993.2 mb 0.00 in0.0 mm 0.00 in0.0 mm 0.00 in0.0 mm
01:09 AM 54.4°F12.4°C 38.1°F3.4°C 54% 4.0 mph NW6.4 kmh NW 7.0 mph11.3 kmh 29.33 in993.2 mb 0.00 in0.0 mm 0.00 in0.0 mm 0.00 in0.0 mm
01:10 AM 54.3°F12.4°C 38.0°F3.3°C 54% 3.0 mph NW4.8 kmh NW 7.0 mph11.3 kmh 29.33 in993.2 mb 0.00 in0.0 mm 0.00 in0.0 mm 0.00 in0.0 mm
01:11 AM 54.3°F12.4°C 38.0°F3.3°C 54% 4.0 mph NW6.4 kmh NW 7.0 mph11.3 kmh 29.33 in993.2 mb 0.00 in0.0 mm 0.00 in0.0 mm 0.00 in0.0 mm
01:12 AM 54.2°F12.3°C 37.9°F3.3°C 54% 4.0 mph WNW6.4 kmh WNW 7.0 mph11.3 kmh 29.33 in993.2 mb 0.00 in0.0 mm 0.00 in0.0 mm 0.00 in0.0 mm
01:13 AM 54.2°F12.3°C 37.9°F3.3°C 54% 4.0 mph WNW6.4 kmh WNW 7.0 mph11.3 kmh 29.33 in993.2 mb 0.00 in0.0 mm 0.00 in0.0 mm 0.00 in0.0 mm
01:14 AM 54.2°F12.3°C 37.9°F3.3°C 54% 3.0 mph NW4.8 kmh NW 7.0 mph11.3 kmh 29.33 in993.2 mb 0.00 in0.0 mm 0.00 in0.0 mm 0.00 in0.0 mm
01:15 AM 54.2°F12.3°C 37.9°F3.3°C 54% 3.0 mph NW4.8 kmh NW 7.0 mph11.3 kmh 29.33 in993.2 mb 0.00 in0.0 mm 0.00 in0.0 mm 0.00 in0.0 mm
01:16 AM 54.2°F12.3°C 37.9°F3.3°C 54% 4.0 mph NW6.4 kmh NW 6.0 mph9.7 kmh 29.33 in993.2 mb 0.00 in0.0 mm 0.00 in0.0 mm 0.00 in0.0 mm
01:17 AM 54.2°F12.3°C 37.9°F3.3°C 54% 4.0 mph WNW6.4 kmh WNW 6.0 mph9.7 kmh 29.33 in993.2 mb 0.00 in0.0 mm 0.00 in0.0 mm 0.00 in0.0 mm
01:18 AM 54.2°F12.3°C 37.9°F3.3°C 54% 3.0 mph NW4.8 kmh NW 6.0 mph9.7 kmh 29.33 in993.2 mb 0.00 in0.0 mm 0.00 in0.0 mm 0.00 in0.0 mm
01:19 AM 54.2°F12.3°C 37.9°F3.3°C 54% 4.0 mph WNW6.4 kmh WNW 6.0 mph9.7 kmh 29.33 in993.2 mb 0.00 in0.0 mm 0.00 in0.0 mm 0.00 in0.0 mm
01:20 AM 54.2°F12.3°C 37.4°F3.0°C 53% 4.0 mph WNW6.4 kmh WNW 6.0 mph9.7 kmh 29.33 in993.2 mb 0.00 in0.0 mm 0.00 in0.0 mm 0.00 in0.0 mm
01:21 AM 54.2°F12.3°C 37.4°F3.0°C 53% 3.0 mph NW4.8 kmh NW 6.0 mph9.7 kmh 29.33 in993.2 mb 0.00 in0.0 mm 0.00 in0.0 mm 0.00 in0.0 mm
01:22 AM 54.3°F12.4°C 37.5°F3.1°C 53% 6.0 mph NNW9.7 kmh NNW 6.0 mph9.7 kmh 29.33 in993.2 mb 0.00 in0.0 mm 0.00 in0.0 mm 0.00 in0.0 mm
01:23 AM 54.4°F12.4°C 37.6°F3.1°C 53% 5.0 mph NW8.0 kmh NW 8.0 mph12.9 kmh 29.33 in993.2 mb 0.00 in0.0 mm 0.00 in0.0 mm 0.00 in0.0 mm
01:24 AM 54.5°F12.5°C 37.7°F3.2°C 53% 7.0 mph NW11.3 kmh NW 8.0 mph12.9 kmh 29.33 in993.2 mb 0.00 in0.0 mm 0.00 in0.0 mm 0.00 in0.0 mm
01:25 AM 54.5°F12.5°C 37.2°F2.9°C 52% 4.0 mph NW6.4 kmh NW 8.0 mph12.9 kmh 29.33 in993.2 mb 0.00 in0.0 mm 0.00 in0.0 mm 0.00 in0.0 mm
01:26 AM 54.5°F12.5°C 37.2°F2.9°C 52% 9.0 mph NW14.5 kmh NW 9.0 mph14.5 kmh 29.33 in993.2 mb 0.00 in0.0 mm 0.00 in0.0 mm 0.00 in0.0 mm
01:27 AM 54.6°F12.6°C 37.3°F2.9°C 52% 8.0 mph NW12.9 kmh NW 9.0 mph14.5 kmh 29.33 in993.2 mb 0.00 in0.0 mm 0.00 in0.0 mm 0.00 in0.0 mm
01:28 AM 54.7°F12.6°C 37.4°F3.0°C 52% 5.0 mph NW8.0 kmh NW 9.0 mph14.5 kmh 29.33 in993.2 mb 0.00 in0.0 mm 0.00 in0.0 mm 0.00 in0.0 mm
01:29 AM 54.7°F12.6°C 37.4°F3.0°C 52% 5.0 mph NW8.0 kmh NW 9.0 mph14.5 kmh 29.33 in993.2 mb 0.00 in0.0 mm 0.00 in0.0 mm 0.00 in0.0 mm
01:30 AM 54.7°F12.6°C 37.4°F3.0°C 52% 7.0 mph NW11.3 kmh NW 9.0 mph14.5 kmh 29.33 in993.2 mb 0.00 in0.0 mm 0.00 in0.0 mm 0.00 in0.0 mm
01:31 AM 54.7°F12.6°C 37.4°F3.0°C 52% 7.0 mph NW11.3 kmh NW 9.0 mph14.5 kmh 29.33 in993.2 mb 0.00 in0.0 mm 0.00 in0.0 mm 0.00 in0.0 mm
01:32 AM 54.7°F12.6°C 37.4°F3.0°C 52% 3.0 mph NW4.8 kmh NW 9.0 mph14.5 kmh 29.33 in993.2 mb 0.00 in0.0 mm 0.00 in0.0 mm 0.00 in0.0 mm
01:33 AM 54.6°F12.6°C 37.8°F3.2°C 53% 6.0 mph NW9.7 kmh NW 9.0 mph14.5 kmh 29.33 in993.2 mb 0.00 in0.0 mm 0.00 in0.0 mm 0.00 in0.0 mm
01:34 AM 54.5°F12.5°C 37.7°F3.2°C 53% 5.0 mph NW8.0 kmh NW 9.0 mph14.5 kmh 29.33 in993.2 mb 0.00 in0.0 mm 0.00 in0.0 mm 0.00 in0.0 mm
01:35 AM 54.4°F12.4°C 37.6°F3.1°C 53% 5.0 mph NW8.0 kmh NW 9.0 mph14.5 kmh 29.33 in993.2 mb 0.00 in0.0 mm 0.00 in0.0 mm 0.00 in0.0 mm
01:36 AM 54.4°F12.4°C 37.6°F3.1°C 53% 4.0 mph NW6.4 kmh NW 8.0 mph12.9 kmh 29.33 in993.2 mb 0.00 in0.0 mm 0.00 in0.0 mm 0.00 in0.0 mm
01:37 AM 54.3°F12.4°C 37.5°F3.1°C 53% 5.0 mph WNW8.0 kmh WNW 8.0 mph12.9 kmh 29.33 in993.2 mb 0.00 in0.0 mm 0.00 in0.0 mm 0.00 in0.0 mm
01:38 AM 54.2°F12.3°C 37.4°F3.0°C 53% 6.0 mph NW9.7 kmh NW 8.0 mph12.9 kmh 29.33 in993.2 mb 0.00 in0.0 mm 0.00 in0.0 mm 0.00 in0.0 mm
01:39 AM 54.2°F12.3°C 37.4°F3.0°C 53% 4.0 mph NW6.4 kmh NW 8.0 mph12.9 kmh 29.33 in993.2 mb 0.00 in0.0 mm 0.00 in0.0 mm 0.00 in0.0 mm
01:40 AM 54.1°F12.3°C 37.4°F3.0°C 53% 6.0 mph NW9.7 kmh NW 8.0 mph12.9 kmh 29.33 in993.2 mb 0.00 in0.0 mm 0.00 in0.0 mm 0.00 in0.0 mm
01:41 AM 54.0°F12.2°C 37.3°F2.9°C 53% 4.0 mph NW6.4 kmh NW 8.0 mph12.9 kmh 29.33 in993.2 mb 0.00 in0.0 mm 0.00 in0.0 mm 0.00 in0.0 mm
01:42 AM 53.9°F12.2°C 37.2°F2.9°C 53% 5.0 mph NW8.0 kmh NW 8.0 mph12.9 kmh 29.33 in993.2 mb 0.00 in0.0 mm 0.00 in0.0 mm 0.00 in0.0 mm
01:43 AM 53.8°F12.1°C 37.5°F3.1°C 54% 5.0 mph NW8.0 kmh NW 8.0 mph12.9 kmh 29.33 in993.2 mb 0.00 in0.0 mm 0.00 in0.0 mm 0.00 in0.0 mm
01:44 AM 53.8°F12.1°C 37.5°F3.1°C 54% 5.0 mph NW8.0 kmh NW 8.0 mph12.9 kmh 29.33 in993.2 mb 0.00 in0.0 mm 0.00 in0.0 mm 0.00 in0.0 mm
01:45 AM 53.8°F12.1°C 37.5°F3.1°C 54% 6.0 mph NW9.7 kmh NW 8.0 mph12.9 kmh 29.33 in993.2 mb 0.00 in0.0 mm 0.00 in0.0 mm 0.00 in0.0 mm
01:46 AM 53.8°F12.1°C 37.5°F3.1°C 54% 4.0 mph NW6.4 kmh NW 8.0 mph12.9 kmh 29.33 in993.2 mb 0.00 in0.0 mm 0.00 in0.0 mm 0.00 in0.0 mm
01:47 AM 53.8°F12.1°C 37.5°F3.1°C 54% 4.0 mph NW6.4 kmh NW 7.0 mph11.3 kmh 29.33 in993.2 mb 0.00 in0.0 mm 0.00 in0.0 mm 0.00 in0.0 mm
01:48 AM 53.8°F12.1°C 37.1°F2.8°C 53% 6.0 mph NW9.7 kmh NW 7.0 mph11.3 kmh 29.33 in993.2 mb 0.00 in0.0 mm 0.00 in0.0 mm 0.00 in0.0 mm
01:49 AM 53.8°F12.1°C 37.1°F2.8°C 53% 6.0 mph NW9.7 kmh NW 8.0 mph12.9 kmh 29.33 in993.2 mb 0.00 in0.0 mm 0.00 in0.0 mm 0.00 in0.0 mm
01:50 AM 53.8°F12.1°C 37.1°F2.8°C 53% 3.0 mph NW4.8 kmh NW 8.0 mph12.9 kmh 29.33 in993.2 mb 0.00 in0.0 mm 0.00 in0.0 mm 0.00 in0.0 mm
01:51 AM 53.8°F12.1°C 37.1°F2.8°C 53% 4.0 mph NNW6.4 kmh NNW 9.0 mph14.5 kmh 29.33 in993.2 mb 0.00 in0.0 mm 0.00 in0.0 mm 0.00 in0.0 mm
01:52 AM 53.8°F12.1°C 37.1°F2.8°C 53% 5.0 mph NW8.0 kmh NW 9.0 mph14.5 kmh 29.33 in993.2 mb 0.00 in0.0 mm 0.00 in0.0 mm 0.00 in0.0 mm
01:53 AM 53.8°F12.1°C 37.1°F2.8°C 53% 4.0 mph NW6.4 kmh NW 9.0 mph14.5 kmh 29.33 in993.2 mb 0.00 in0.0 mm 0.00 in0.0 mm 0.00 in0.0 mm
01:54 AM 53.8°F12.1°C 37.1°F2.8°C 53% 5.0 mph NW8.0 kmh NW 9.0 mph14.5 kmh 29.33 in993.2 mb 0.00 in0.0 mm 0.00 in0.0 mm 0.00 in0.0 mm
01:55 AM 53.8°F12.1°C 37.1°F2.8°C 53% 5.0 mph NW8.0 kmh NW 9.0 mph14.5 kmh 29.33 in993.2 mb 0.00 in0.0 mm 0.00 in0.0 mm 0.00 in0.0 mm
01:56 AM 53.7°F12.1°C 37.0°F2.8°C 53% 6.0 mph NW9.7 kmh NW 9.0 mph14.5 kmh 29.33 in993.2 mb 0.00 in0.0 mm 0.00 in0.0 mm 0.00 in0.0 mm
01:57 AM 53.7°F12.1°C 37.0°F2.8°C 53% 6.0 mph NW9.7 kmh NW 9.0 mph14.5 kmh 29.33 in993.2 mb 0.00 in0.0 mm 0.00 in0.0 mm 0.00 in0.0 mm
01:58 AM 53.7°F12.1°C 37.0°F2.8°C 53% 8.0 mph WNW12.9 kmh WNW 9.0 mph14.5 kmh 29.33 in993.2 mb 0.00 in0.0 mm 0.00 in0.0 mm 0.00 in0.0 mm
01:59 AM 53.6°F12.0°C 36.9°F2.7°C 53% 4.0 mph NW6.4 kmh NW 9.0 mph14.5 kmh 29.33 in993.2 mb 0.00 in0.0 mm 0.00 in0.0 mm 0.00 in0.0 mm
02:00 AM 53.6°F12.0°C 36.9°F2.7°C 53% 7.0 mph NW11.3 kmh NW 9.0 mph14.5 kmh 29.33 in993.2 mb 0.00 in0.0 mm 0.00 in0.0 mm 0.00 in0.0 mm
02:01 AM 53.6°F12.0°C 36.9°F2.7°C 53% 6.0 mph NW9.7 kmh NW 9.0 mph14.5 kmh 29.33 in993.2 mb 0.00 in0.0 mm 0.00 in0.0 mm 0.00 in0.0 mm
02:02 AM 53.5°F11.9°C 36.8°F2.7°C 53% 5.0 mph NW8.0 kmh NW 9.0 mph14.5 kmh 29.33 in993.2 mb 0.00 in0.0 mm 0.00 in0.0 mm 0.00 in0.0 mm
02:03 AM 53.5°F11.9°C 36.8°F2.7°C 53% 5.0 mph NW8.0 kmh NW 9.0 mph14.5 kmh 29.33 in993.2 mb 0.00 in0.0 mm 0.00 in0.0 mm 0.00 in0.0 mm
02:04 AM 53.5°F11.9°C 36.8°F2.7°C 53% 5.0 mph NNW8.0 kmh NNW 9.0 mph14.5 kmh 29.33 in993.2 mb 0.00 in0.0 mm 0.00 in0.0 mm 0.00 in0.0 mm
02:05 AM 53.4°F11.9°C 36.7°F2.6°C 53% 5.0 mph NW8.0 kmh NW 9.0 mph14.5 kmh 29.33 in993.2 mb 0.00 in0.0 mm 0.00 in0.0 mm 0.00 in0.0 mm
02:06 AM 53.4°F11.9°C 36.7°F2.6°C 53% 7.0 mph WNW11.3 kmh WNW 9.0 mph14.5 kmh 29.33 in993.2 mb 0.00 in0.0 mm 0.00 in0.0 mm 0.00 in0.0 mm
02:07 AM 53.4°F11.9°C 37.2°F2.9°C 54% 6.0 mph NW9.7 kmh NW 8.0 mph12.9 kmh 29.33 in993.2 mb 0.00 in0.0 mm 0.00 in0.0 mm 0.00 in0.0 mm
02:08 AM 53.4°F11.9°C 37.2°F2.9°C 54% 4.0 mph WNW6.4 kmh WNW 8.0 mph12.9 kmh 29.33 in993.2 mb 0.00 in0.0 mm 0.00 in0.0 mm 0.00 in0.0 mm
02:09 AM 53.4°F11.9°C 37.2°F2.9°C 54% 4.0 mph NW6.4 kmh NW 8.0 mph12.9 kmh 29.33 in993.2 mb 0.00 in0.0 mm 0.00 in0.0 mm 0.00 in0.0 mm
02:10 AM 53.3°F11.8°C 37.1°F2.8°C 54% 7.0 mph NW11.3 kmh NW 8.0 mph12.9 kmh 29.33 in993.2 mb 0.00 in0.0 mm 0.00 in0.0 mm 0.00 in0.0 mm
02:11 AM 53.4°F11.9°C 36.7°F2.6°C 53% 5.0 mph WNW8.0 kmh WNW 8.0 mph12.9 kmh 29.33 in993.2 mb 0.00 in0.0 mm 0.00 in0.0 mm 0.00 in0.0 mm
02:12 AM 53.3°F11.8°C 36.6°F2.6°C 53% 5.0 mph NW8.0 kmh NW 8.0 mph12.9 kmh 29.33 in993.2 mb 0.00 in0.0 mm 0.00 in0.0 mm 0.00 in0.0 mm
02:13 AM 53.3°F11.8°C 36.6°F2.6°C 53% 5.0 mph NW8.0 kmh NW 8.0 mph12.9 kmh 29.33 in993.2 mb 0.00 in0.0 mm 0.00 in0.0 mm 0.00 in0.0 mm
02:14 AM 53.4°F11.9°C 36.7°F2.6°C 53% 5.0 mph NW8.0 kmh NW 8.0 mph12.9 kmh 29.33 in993.2 mb 0.00 in0.0 mm 0.00 in0.0 mm 0.00 in0.0 mm
02:15 AM 53.3°F11.8°C 36.6°F2.6°C 53% 6.0 mph NW9.7 kmh NW 8.0 mph12.9 kmh 29.33 in993.2 mb 0.00 in0.0 mm 0.00 in0.0 mm 0.00 in0.0 mm
02:16 AM 53.3°F11.8°C 36.6°F2.6°C 53% 5.0 mph NW8.0 kmh NW 8.0 mph12.9 kmh 29.33 in993.2 mb 0.00 in0.0 mm 0.00 in0.0 mm 0.00 in0.0 mm
02:17 AM 53.3°F11.8°C 37.1°F2.8°C 54% 5.0 mph NW8.0 kmh NW 8.0 mph12.9 kmh 29.33 in993.2 mb 0.00 in0.0 mm 0.00 in0.0 mm 0.00 in0.0 mm
02:18 AM 53.2°F11.8°C 37.0°F2.8°C 54% 4.0 mph NW6.4 kmh NW 8.0 mph12.9 kmh 29.33 in993.2 mb 0.00 in0.0 mm 0.00 in0.0 mm 0.00 in0.0 mm
02:19 AM 53.2°F11.8°C 37.0°F2.8°C 54% 6.0 mph NW9.7 kmh NW 8.0 mph12.9 kmh 29.33 in993.2 mb 0.00 in0.0 mm 0.00 in0.0 mm 0.00 in0.0 mm
02:20 AM 53.2°F11.8°C 37.0°F2.8°C 54% 5.0 mph NW8.0 kmh NW 8.0 mph12.9 kmh 29.33 in993.2 mb 0.00 in0.0 mm 0.00 in0.0 mm 0.00 in0.0 mm
02:21 AM 53.2°F11.8°C 37.0°F2.8°C 54% 6.0 mph NW9.7 kmh NW 8.0 mph12.9 kmh 29.33 in993.2 mb 0.00 in0.0 mm 0.00 in0.0 mm 0.00 in0.0 mm
02:22 AM 53.2°F11.8°C 37.0°F2.8°C 54% 5.0 mph NW8.0 kmh NW 8.0 mph12.9 kmh 29.33 in993.2 mb 0.00 in0.0 mm 0.00 in0.0 mm 0.00 in0.0 mm
02:23 AM 53.2°F11.8°C 37.0°F2.8°C 54% 6.0 mph NW9.7 kmh NW 8.0 mph12.9 kmh 29.33 in993.2 mb 0.00 in0.0 mm 0.00 in0.0 mm 0.00 in0.0 mm
02:24 AM 53.3°F11.8°C 37.1°F2.8°C 54% 6.0 mph NW9.7 kmh NW 8.0 mph12.9 kmh 29.33 in993.2 mb 0.00 in0.0 mm 0.00 in0.0 mm 0.00 in0.0 mm
02:25 AM 53.3°F11.8°C 37.1°F2.8°C 54% 4.0 mph NW6.4 kmh NW 8.0 mph12.9 kmh 29.33 in993.2 mb 0.00 in0.0 mm 0.00 in0.0 mm 0.00 in0.0 mm
02:26 AM 53.3°F11.8°C 37.1°F2.8°C 54% 5.0 mph NW8.0 kmh NW 8.0 mph12.9 kmh 29.33 in993.2 mb 0.00 in0.0 mm 0.00 in0.0 mm 0.00 in0.0 mm
02:27 AM 53.3°F11.8°C 37.1°F2.8°C 54% 5.0 mph NW8.0 kmh NW 8.0 mph12.9 kmh 29.33 in993.2 mb 0.00 in0.0 mm 0.00 in0.0 mm 0.00 in0.0 mm
02:28 AM 53.3°F11.8°C 37.1°F2.8°C 54% 6.0 mph WNW9.7 kmh WNW 8.0 mph12.9 kmh 29.33 in993.2 mb 0.00 in0.0 mm 0.00 in0.0 mm 0.00 in0.0 mm
02:29 AM 53.4°F11.9°C 37.2°F2.9°C 54% 4.0 mph NW6.4 kmh NW 8.0 mph12.9 kmh 29.33 in993.2 mb 0.00 in0.0 mm 0.00 in0.0 mm 0.00 in0.0 mm
02:30 AM 53.4°F11.9°C 37.2°F2.9°C 54% 5.0 mph NW8.0 kmh NW 8.0 mph12.9 kmh 29.33 in993.2 mb 0.00 in0.0 mm 0.00 in0.0 mm 0.00 in0.0 mm
02:31 AM 53.5°F11.9°C 37.3°F2.9°C 54% 4.0 mph NW6.4 kmh NW 8.0 mph12.9 kmh 29.33 in993.2 mb 0.00 in0.0 mm 0.00 in0.0 mm 0.00 in0.0 mm
02:32 AM 53.5°F11.9°C 37.3°F2.9°C 54% 5.0 mph NW8.0 kmh NW 8.0 mph12.9 kmh 29.33 in993.2 mb 0.00 in0.0 mm 0.00 in0.0 mm 0.00 in0.0 mm
02:33 AM 53.6°F12.0°C 37.4°F3.0°C 54% 6.0 mph NW9.7 kmh NW 8.0 mph12.9 kmh 29.33 in993.2 mb 0.00 in0.0 mm 0.00 in0.0 mm 0.00 in0.0 mm
02:34 AM 53.6°F12.0°C 37.4°F3.0°C 54% 5.0 mph WNW8.0 kmh WNW 8.0 mph12.9 kmh 29.33 in993.2 mb 0.00 in0.0 mm 0.00 in0.0 mm 0.00 in0.0 mm
02:35 AM 53.6°F12.0°C 37.4°F3.0°C 54% 7.0 mph NW11.3 kmh NW 8.0 mph12.9 kmh 29.33 in993.2 mb 0.00 in0.0 mm 0.00 in0.0 mm 0.00 in0.0 mm
02:36 AM 53.6°F12.0°C 37.4°F3.0°C 54% 7.0 mph NW11.3 kmh NW 8.0 mph12.9 kmh 29.33 in993.2 mb 0.00 in0.0 mm 0.00 in0.0 mm 0.00 in0.0 mm
02:37 AM 53.6°F12.0°C 37.4°F3.0°C 54% 4.0 mph WNW6.4 kmh WNW 8.0 mph12.9 kmh 29.33 in993.2 mb 0.00 in0.0 mm 0.00 in0.0 mm 0.00 in0.0 mm
02:38 AM 53.5°F11.9°C 37.3°F2.9°C 54% 4.0 mph NW6.4 kmh NW 8.0 mph12.9 kmh 29.33 in993.2 mb 0.00 in0.0 mm 0.00 in0.0 mm 0.00 in0.0 mm
02:39 AM 53.5°F11.9°C 37.3°F2.9°C 54% 3.0 mph NW4.8 kmh NW 8.0 mph12.9 kmh 29.33 in993.2 mb 0.00 in0.0 mm 0.00 in0.0 mm 0.00 in0.0 mm
02:40 AM 53.4°F11.9°C 37.6°F3.1°C 55% 5.0 mph NW8.0 kmh NW 8.0 mph12.9 kmh 29.33 in993.2 mb 0.00 in0.0 mm 0.00 in0.0 mm 0.00 in0.0 mm
02:41 AM 53.4°F11.9°C 37.6°F3.1°C 55% 5.0 mph NW8.0 kmh NW 8.0 mph12.9 kmh 29.33 in993.2 mb 0.00 in0.0 mm 0.00 in0.0 mm 0.00 in0.0 mm
02:42 AM 53.4°F11.9°C 37.6°F3.1°C 55% 5.0 mph NW8.0 kmh NW 8.0 mph12.9 kmh 29.33 in993.2 mb 0.00 in0.0 mm 0.00 in0.0 mm 0.00 in0.0 mm
02:43 AM 53.4°F11.9°C 37.6°F3.1°C 55% 7.0 mph NW11.3 kmh NW 8.0 mph12.9 kmh 29.33 in993.2 mb 0.00 in0.0 mm 0.00 in0.0 mm 0.00 in0.0 mm
02:44 AM 53.3°F11.8°C 37.6°F3.1°C 55% 6.0 mph NW9.7 kmh NW 8.0 mph12.9 kmh 29.33 in993.2 mb 0.00 in0.0 mm 0.00 in0.0 mm 0.00 in0.0 mm
02:45 AM 53.3°F11.8°C 37.6°F3.1°C 55% 5.0 mph NW8.0 kmh NW 8.0 mph12.9 kmh 29.33 in993.2 mb 0.00 in0.0 mm 0.00 in0.0 mm 0.00 in0.0 mm
02:46 AM 53.3°F11.8°C 37.6°F3.1°C 55% 7.0 mph NW11.3 kmh NW 8.0 mph12.9 kmh 29.33 in993.2 mb 0.00 in0.0 mm 0.00 in0.0 mm 0.00 in0.0 mm
02:47 AM 53.3°F11.8°C 37.6°F3.1°C 55% 3.0 mph NW4.8 kmh NW 8.0 mph12.9 kmh 29.33 in993.2 mb 0.00 in0.0 mm 0.00 in0.0 mm 0.00 in0.0 mm
02:48 AM 53.3°F11.8°C 37.6°F3.1°C 55% 4.0 mph NW6.4 kmh NW 8.0 mph12.9 kmh 29.33 in993.2 mb 0.00 in0.0 mm 0.00 in0.0 mm 0.00 in0.0 mm
02:49 AM 53.3°F11.8°C 37.6°F3.1°C 55% 3.0 mph NW4.8 kmh NW 8.0 mph12.9 kmh 29.33 in993.2 mb 0.00 in0.0 mm 0.00 in0.0 mm 0.00 in0.0 mm
02:50 AM 53.3°F11.8°C 37.6°F3.1°C 55% 5.0 mph NW8.0 kmh NW 8.0 mph12.9 kmh 29.33 in993.2 mb 0.00 in0.0 mm 0.00 in0.0 mm 0.00 in0.0 mm
02:51 AM 53.3°F11.8°C 37.6°F3.1°C 55% 4.0 mph NW6.4 kmh NW 8.0 mph12.9 kmh 29.33 in993.2 mb 0.00 in0.0 mm 0.00 in0.0 mm 0.00 in0.0 mm
02:52 AM 53.3°F11.8°C 37.6°F3.1°C 55% 3.0 mph NW4.8 kmh NW 7.0 mph11.3 kmh 29.33 in993.2 mb 0.00 in0.0 mm 0.00 in0.0 mm 0.00 in0.0 mm
02:53 AM 53.3°F11.8°C 37.6°F3.1°C 55% 4.0 mph WNW6.4 kmh WNW 7.0 mph11.3 kmh 29.33 in993.2 mb 0.00 in0.0 mm 0.00 in0.0 mm 0.00 in0.0 mm
02:54 AM 53.3°F11.8°C 37.6°F3.1°C 55% 4.0 mph NW6.4 kmh NW 7.0 mph11.3 kmh 29.33 in993.2 mb 0.00 in0.0 mm 0.00 in0.0 mm 0.00 in0.0 mm
02:55 AM 53.3°F11.8°C 37.6°F3.1°C 55% 4.0 mph NW6.4 kmh NW 7.0 mph11.3 kmh 29.33 in993.2 mb 0.00 in0.0 mm 0.00 in0.0 mm 0.00 in0.0 mm
02:56 AM 53.3°F11.8°C 37.6°F3.1°C 55% 3.0 mph NW4.8 kmh NW 7.0 mph11.3 kmh 29.33 in993.2 mb 0.00 in0.0 mm 0.00 in0.0 mm 0.00 in0.0 mm
02:57 AM 53.3°F11.8°C 37.6°F3.1°C 55% 4.0 mph NW6.4 kmh NW 7.0 mph11.3 kmh 29.33 in993.2 mb 0.00 in0.0 mm 0.00 in0.0 mm 0.00 in0.0 mm
02:58 AM 53.2°F11.8°C 37.5°F3.1°C 55% 4.0 mph NW6.4 kmh NW 7.0 mph11.3 kmh 29.33 in993.2 mb 0.00 in0.0 mm 0.00 in0.0 mm 0.00 in0.0 mm
02:59 AM 53.2°F11.8°C 37.5°F3.1°C 55% 5.0 mph WNW8.0 kmh WNW 7.0 mph11.3 kmh 29.33 in993.2 mb 0.00 in0.0 mm 0.00 in0.0 mm 0.00 in0.0 mm
03:00 AM 53.2°F11.8°C 37.5°F3.1°C 55% 4.0 mph NW6.4 kmh NW 7.0 mph11.3 kmh 29.33 in993.2 mb 0.00 in0.0 mm 0.00 in0.0 mm 0.00 in0.0 mm
03:01 AM 53.2°F11.8°C 37.5°F3.1°C 55% 3.0 mph NW4.8 kmh NW 7.0 mph11.3 kmh 29.33 in993.2 mb 0.00 in0.0 mm 0.00 in0.0 mm 0.00 in0.0 mm
03:02 AM 53.2°F11.8°C 37.9°F3.3°C 56% 4.0 mph W6.4 kmh W 7.0 mph11.3 kmh 29.33 in993.2 mb 0.00 in0.0 mm 0.00 in0.0 mm 0.00 in0.0 mm
03:03 AM 53.1°F11.7°C 37.8°F3.2°C 56% 2.0 mph WNW3.2 kmh WNW 7.0 mph11.3 kmh 29.33 in993.2 mb 0.00 in0.0 mm 0.00 in0.0 mm 0.00 in0.0 mm
03:04 AM 53.0°F11.7°C 37.7°F3.2°C 56% 3.0 mph WNW4.8 kmh WNW 7.0 mph11.3 kmh 29.33 in993.2 mb 0.00 in0.0 mm 0.00 in0.0 mm 0.00 in0.0 mm
03:05 AM 52.9°F11.6°C 37.6°F3.1°C 56% 4.0 mph W6.4 kmh W 7.0 mph11.3 kmh 29.33 in993.2 mb 0.00 in0.0 mm 0.00 in0.0 mm 0.00 in0.0 mm
03:06 AM 52.9°F11.6°C 37.6°F3.1°C 56% 4.0 mph NW6.4 kmh NW 7.0 mph11.3 kmh 29.33 in993.2 mb 0.00 in0.0 mm 0.00 in0.0 mm 0.00 in0.0 mm
03:07 AM 52.8°F11.6°C 37.5°F3.1°C 56% 3.0 mph NW4.8 kmh NW 7.0 mph11.3 kmh 29.33 in993.2 mb 0.00 in0.0 mm 0.00 in0.0 mm 0.00 in0.0 mm
03:08 AM 52.8°F11.6°C 37.5°F3.1°C 56% 5.0 mph NW8.0 kmh NW 7.0 mph11.3 kmh 29.33 in993.2 mb 0.00 in0.0 mm 0.00 in0.0 mm 0.00 in0.0 mm
03:09 AM 52.7°F11.5°C 37.4°F3.0°C 56% 5.0 mph NW8.0 kmh NW 7.0 mph11.3 kmh 29.33 in993.2 mb 0.00 in0.0 mm 0.00 in0.0 mm 0.00 in0.0 mm
03:10 AM 52.7°F11.5°C 37.4°F3.0°C 56% 4.0 mph WNW6.4 kmh WNW 7.0 mph11.3 kmh 29.33 in993.2 mb 0.00 in0.0 mm 0.00 in0.0 mm 0.00 in0.0 mm
03:11 AM 52.7°F11.5°C 37.4°F3.0°C 56% 4.0 mph NW6.4 kmh NW 7.0 mph11.3 kmh 29.33 in993.2 mb 0.00 in0.0 mm 0.00 in0.0 mm 0.00 in0.0 mm
03:12 AM 52.7°F11.5°C 37.4°F3.0°C 56% 5.0 mph NW8.0 kmh NW 7.0 mph11.3 kmh 29.33 in993.2 mb 0.00 in0.0 mm 0.00 in0.0 mm 0.00 in0.0 mm
03:13 AM 52.8°F11.6°C 37.5°F3.1°C 56% 4.0 mph NW6.4 kmh NW 7.0 mph11.3 kmh 29.33 in993.2 mb 0.00 in0.0 mm 0.00 in0.0 mm 0.00 in0.0 mm
03:14 AM 52.7°F11.5°C 37.4°F3.0°C 56% 4.0 mph NW6.4 kmh NW 7.0 mph11.3 kmh 29.33 in993.2 mb 0.00 in0.0 mm 0.00 in0.0 mm 0.00 in0.0 mm
03:15 AM 52.7°F11.5°C 37.4°F3.0°C 56% 4.0 mph NW6.4 kmh NW 7.0 mph11.3 kmh 29.33 in993.2 mb 0.00 in0.0 mm 0.00 in0.0 mm 0.00 in0.0 mm
03:16 AM 52.8°F11.6°C 37.5°F3.1°C 56% 3.0 mph NW4.8 kmh NW 7.0 mph11.3 kmh 29.33 in993.2 mb 0.00 in0.0 mm 0.00 in0.0 mm 0.00 in0.0 mm
03:17 AM 52.7°F11.5°C 37.9°F3.3°C 57% 4.0 mph NW6.4 kmh NW 7.0 mph11.3 kmh 29.33 in993.2 mb 0.00 in0.0 mm 0.00 in0.0 mm 0.00 in0.0 mm
03:18 AM 52.6°F11.4°C 37.8°F3.2°C 57% 7.0 mph NW11.3 kmh NW 8.0 mph12.9 kmh 29.33 in993.2 mb 0.00 in0.0 mm 0.00 in0.0 mm 0.00 in0.0 mm
03:19 AM 52.7°F11.5°C 37.9°F3.3°C 57% 6.0 mph WNW9.7 kmh WNW 8.0 mph12.9 kmh 29.33 in993.2 mb 0.00 in0.0 mm 0.00 in0.0 mm 0.00 in0.0 mm
03:20 AM 52.7°F11.5°C 37.9°F3.3°C 57% 5.0 mph NW8.0 kmh NW 8.0 mph12.9 kmh 29.33 in993.2 mb 0.00 in0.0 mm 0.00 in0.0 mm 0.00 in0.0 mm
03:21 AM 52.7°F11.5°C 37.9°F3.3°C 57% 4.0 mph NW6.4 kmh NW 8.0 mph12.9 kmh 29.33 in993.2 mb 0.00 in0.0 mm 0.00 in0.0 mm 0.00 in0.0 mm
03:22 AM 52.7°F11.5°C 37.9°F3.3°C 57% 4.0 mph NW6.4 kmh NW 8.0 mph12.9 kmh 29.33 in993.2 mb 0.00 in0.0 mm 0.00 in0.0 mm 0.00 in0.0 mm
03:23 AM 52.7°F11.5°C 37.9°F3.3°C 57% 4.0 mph NW6.4 kmh NW 8.0 mph12.9 kmh 29.33 in993.2 mb 0.00 in0.0 mm 0.00 in0.0 mm 0.00 in0.0 mm
03:24 AM 52.7°F11.5°C 37.9°F3.3°C 57% 3.0 mph NW4.8 kmh NW 8.0 mph12.9 kmh 29.33 in993.2 mb 0.00 in0.0 mm 0.00 in0.0 mm 0.00 in0.0 mm
03:25 AM 52.7°F11.5°C 37.9°F3.3°C 57% 4.0 mph NW6.4 kmh NW 8.0 mph12.9 kmh 29.33 in993.2 mb 0.00 in0.0 mm 0.00 in0.0 mm 0.00 in0.0 mm
03:26 AM 52.6°F11.4°C 37.8°F3.2°C 57% 2.0 mph NW3.2 kmh NW 8.0 mph12.9 kmh 29.33 in993.2 mb 0.00 in0.0 mm 0.00 in0.0 mm 0.00 in0.0 mm
03:27 AM 52.6°F11.4°C 37.8°F3.2°C 57% 3.0 mph NW4.8 kmh NW 7.0 mph11.3 kmh 29.33 in993.2 mb 0.00 in0.0 mm 0.00 in0.0 mm 0.00 in0.0 mm
03:28 AM 52.6°F11.4°C 37.8°F3.2°C 57% 4.0 mph NW6.4 kmh NW 7.0 mph11.3 kmh 29.33 in993.2 mb 0.00 in0.0 mm 0.00 in0.0 mm 0.00 in0.0 mm
03:29 AM 52.6°F11.4°C 37.8°F3.2°C 57% 4.0 mph NW6.4 kmh NW 7.0 mph11.3 kmh 29.33 in993.2 mb 0.00 in0.0 mm 0.00 in0.0 mm 0.00 in0.0 mm
03:30 AM 52.5°F11.4°C 37.7°F3.2°C 57% 3.0 mph NW4.8 kmh NW 6.0 mph9.7 kmh 29.33 in993.2 mb 0.00 in0.0 mm 0.00 in0.0 mm 0.00 in0.0 mm
03:31 AM 52.5°F11.4°C 37.7°F3.2°C 57% 2.0 mph NW3.2 kmh NW 6.0 mph9.7 kmh 29.33 in993.2 mb 0.00 in0.0 mm 0.00 in0.0 mm 0.00 in0.0 mm
03:32 AM 52.5°F11.4°C 37.7°F3.2°C 57% 2.0 mph NW3.2 kmh NW 6.0 mph9.7 kmh 29.33 in993.2 mb 0.00 in0.0 mm 0.00 in0.0 mm 0.00 in0.0 mm
03:33 AM 52.4°F11.3°C 37.6°F3.1°C 57% 2.0 mph NW3.2 kmh NW 6.0 mph9.7 kmh 29.33 in993.2 mb 0.00 in0.0 mm 0.00 in0.0 mm 0.00 in0.0 mm
03:34 AM 52.4°F11.3°C 38.1°F3.4°C 58% 4.0 mph NW6.4 kmh NW 5.0 mph8.0 kmh 29.33 in993.2 mb 0.00 in0.0 mm 0.00 in0.0 mm 0.00 in0.0 mm
03:35 AM 52.3°F11.3°C 38.0°F3.3°C 58% 4.0 mph NW6.4 kmh NW 5.0 mph8.0 kmh 29.33 in993.2 mb 0.00 in0.0 mm 0.00 in0.0 mm 0.00 in0.0 mm
03:36 AM 52.3°F11.3°C 38.0°F3.3°C 58% 2.0 mph NW3.2 kmh NW 5.0 mph8.0 kmh 29.33 in993.2 mb 0.00 in0.0 mm 0.00 in0.0 mm 0.00 in0.0 mm
03:37 AM 52.2°F11.2°C 37.9°F3.3°C 58% 3.0 mph WNW4.8 kmh WNW 5.0 mph8.0 kmh 29.33 in993.2 mb 0.00 in0.0 mm 0.00 in0.0 mm 0.00 in0.0 mm
03:38 AM 52.2°F11.2°C 37.9°F3.3°C 58% 2.0 mph WNW3.2 kmh WNW 5.0 mph8.0 kmh 29.33 in993.2 mb 0.00 in0.0 mm 0.00 in0.0 mm 0.00 in0.0 mm
03:39 AM 52.1°F11.2°C 37.8°F3.2°C 58% 3.0 mph W4.8 kmh W 4.0 mph6.4 kmh 29.33 in993.2 mb 0.00 in0.0 mm 0.00 in0.0 mm 0.00 in0.0 mm
03:40 AM 52.0°F11.1°C 37.7°F3.2°C 58% 2.0 mph NW3.2 kmh NW 4.0 mph6.4 kmh 29.33 in993.2 mb 0.00 in0.0 mm 0.00 in0.0 mm 0.00 in0.0 mm
03:41 AM 51.9°F11.1°C 37.6°F3.1°C 58% 2.0 mph W3.2 kmh W 4.0 mph6.4 kmh 29.33 in993.2 mb 0.00 in0.0 mm 0.00 in0.0 mm 0.00 in0.0 mm
03:42 AM 51.8°F11.0°C 37.9°F3.3°C 59% 2.0 mph WNW3.2 kmh WNW 4.0 mph6.4 kmh 29.33 in993.2 mb 0.00 in0.0 mm 0.00 in0.0 mm 0.00 in0.0 mm
03:43 AM 51.7°F10.9°C 37.8°F3.2°C 59% 3.0 mph WNW4.8 kmh WNW 4.0 mph6.4 kmh 29.33 in993.2 mb 0.00 in0.0 mm 0.00 in0.0 mm 0.00 in0.0 mm
03:44 AM 51.7°F10.9°C 37.8°F3.2°C 59% 3.0 mph NW4.8 kmh NW 5.0 mph8.0 kmh 29.33 in993.2 mb 0.00 in0.0 mm 0.00 in0.0 mm 0.00 in0.0 mm
03:45 AM 51.6°F10.9°C 37.7°F3.2°C 59% 4.0 mph WNW6.4 kmh WNW 5.0 mph8.0 kmh 29.33 in993.2 mb 0.00 in0.0 mm 0.00 in0.0 mm 0.00 in0.0 mm
03:46 AM 51.6°F10.9°C 37.7°F3.2°C 59% 3.0 mph W4.8 kmh W 5.0 mph8.0 kmh 29.33 in993.2 mb 0.00 in0.0 mm 0.00 in0.0 mm 0.00 in0.0 mm
03:47 AM 51.6°F10.9°C 37.7°F3.2°C 59% 3.0 mph WNW4.8 kmh WNW 5.0 mph8.0 kmh 29.33 in993.2 mb 0.00 in0.0 mm 0.00 in0.0 mm 0.00 in0.0 mm
03:48 AM 51.6°F10.9°C 37.7°F3.2°C 59% 4.0 mph WNW6.4 kmh WNW 5.0 mph8.0 kmh 29.33 in993.2 mb 0.00 in0.0 mm 0.00 in0.0 mm 0.00 in0.0 mm
03:49 AM 51.6°F10.9°C 37.7°F3.2°C 59% 3.0 mph WNW4.8 kmh WNW 5.0 mph8.0 kmh 29.33 in993.2 mb 0.00 in0.0 mm 0.00 in0.0 mm 0.00 in0.0 mm
03:50 AM 51.6°F10.9°C 37.7°F3.2°C 59% 2.0 mph NW3.2 kmh NW 5.0 mph8.0 kmh 29.33 in993.2 mb 0.00 in0.0 mm 0.00 in0.0 mm 0.00 in0.0 mm
03:51 AM 51.5°F10.8°C 37.7°F3.2°C 59% 3.0 mph NW4.8 kmh NW 5.0 mph8.0 kmh 29.33 in993.2 mb 0.00 in0.0 mm 0.00 in0.0 mm 0.00 in0.0 mm
03:52 AM 51.5°F10.8°C 37.7°F3.2°C 59% 2.0 mph WNW3.2 kmh WNW 5.0 mph8.0 kmh 29.33 in993.2 mb 0.00 in0.0 mm 0.00 in0.0 mm 0.00 in0.0 mm
03:53 AM 51.4°F10.8°C 38.0°F3.3°C 60% 3.0 mph NW4.8 kmh NW 5.0 mph8.0 kmh 29.33 in993.2 mb 0.00 in0.0 mm 0.00 in0.0 mm 0.00 in0.0 mm
03:54 AM 51.4°F10.8°C 38.0°F3.3°C 60% 3.0 mph NW4.8 kmh NW 5.0 mph8.0 kmh 29.33 in993.2 mb 0.00 in0.0 mm 0.00 in0.0 mm 0.00 in0.0 mm
03:55 AM 51.4°F10.8°C 38.0°F3.3°C 60% 3.0 mph WNW4.8 kmh WNW 5.0 mph8.0 kmh 29.33 in993.2 mb 0.00 in0.0 mm 0.00 in0.0 mm 0.00 in0.0 mm
03:56 AM 51.4°F10.8°C 38.0°F3.3°C 60% 2.0 mph WNW3.2 kmh WNW 5.0 mph8.0 kmh 29.33 in993.2 mb 0.00 in0.0 mm 0.00 in0.0 mm 0.00 in0.0 mm
03:57 AM 51.4°F10.8°C 38.0°F3.3°C 60% 4.0 mph WNW6.4 kmh WNW 5.0 mph8.0 kmh 29.33 in993.2 mb 0.00 in0.0 mm 0.00 in0.0 mm 0.00 in0.0 mm
03:58 AM 51.4°F10.8°C 38.0°F3.3°C 60% 2.0 mph WNW3.2 kmh WNW 5.0 mph8.0 kmh 29.33 in993.2 mb 0.00 in0.0 mm 0.00 in0.0 mm 0.00 in0.0 mm
03:59 AM 51.5°F10.8°C 38.1°F3.4°C 60% 3.0 mph NW4.8 kmh NW 5.0 mph8.0 kmh 29.33 in993.2 mb 0.00 in0.0 mm 0.00 in0.0 mm 0.00 in0.0 mm
04:00 AM 51.5°F10.8°C 38.1°F3.4°C 60% 3.0 mph WNW4.8 kmh WNW 5.0 mph8.0 kmh 29.33 in993.2 mb 0.00 in0.0 mm 0.00 in0.0 mm 0.00 in0.0 mm
04:01 AM 51.5°F10.8°C 38.1°F3.4°C 60% 1.0 mph NW1.6 kmh NW 5.0 mph8.0 kmh 29.33 in993.2 mb 0.00 in0.0 mm 0.00 in0.0 mm 0.00 in0.0 mm
04:02 AM 51.5°F10.8°C 38.1°F3.4°C 60% 2.0 mph WNW3.2 kmh WNW 5.0 mph8.0 kmh 29.33 in993.2 mb 0.00 in0.0 mm 0.00 in0.0 mm 0.00 in0.0 mm
04:03 AM 51.5°F10.8°C 38.1°F3.4°C 60% 3.0 mph WNW4.8 kmh WNW 5.0 mph8.0 kmh 29.33 in993.2 mb 0.00 in0.0 mm 0.00 in0.0 mm 0.00 in0.0 mm
04:04 AM 51.5°F10.8°C 38.1°F3.4°C 60% 2.0 mph NW3.2 kmh NW 5.0 mph8.0 kmh 29.33 in993.2 mb 0.00 in0.0 mm 0.00 in0.0 mm 0.00 in0.0 mm
04:05 AM 51.5°F10.8°C 38.1°F3.4°C 60% 4.0 mph NW6.4 kmh NW 5.0 mph8.0 kmh 29.33 in993.2 mb 0.00 in0.0 mm 0.00 in0.0 mm 0.00 in0.0 mm
04:06 AM 51.5°F10.8°C 38.1°F3.4°C 60% 2.0 mph WNW3.2 kmh WNW 5.0 mph8.0 kmh 29.33 in993.2 mb 0.00 in0.0 mm 0.00 in0.0 mm 0.00 in0.0 mm
04:07 AM 51.4°F10.8°C 38.0°F3.3°C 60% 2.0 mph NW3.2 kmh NW 5.0 mph8.0 kmh 29.33 in993.2 mb 0.00 in0.0 mm 0.00 in0.0 mm 0.00 in0.0 mm
04:08 AM 51.4°F10.8°C 38.0°F3.3°C 60% 3.0 mph WNW4.8 kmh WNW 5.0 mph8.0 kmh 29.33 in993.2 mb 0.00 in0.0 mm 0.00 in0.0 mm 0.00 in0.0 mm
04:09 AM 51.4°F10.8°C 38.0°F3.3°C 60% 3.0 mph NW4.8 kmh NW 5.0 mph8.0 kmh 29.33 in993.2 mb 0.00 in0.0 mm 0.00 in0.0 mm 0.00 in0.0 mm
04:10 AM 51.4°F10.8°C 38.0°F3.3°C 60% 3.0 mph W4.8 kmh W 5.0 mph8.0 kmh 29.33 in993.2 mb 0.00 in0.0 mm 0.00 in0.0 mm 0.00 in0.0 mm
04:11 AM 51.4°F10.8°C 38.0°F3.3°C 60% 4.0 mph WNW6.4 kmh WNW 5.0 mph8.0 kmh 29.33 in993.2 mb 0.00 in0.0 mm 0.00 in0.0 mm 0.00 in0.0 mm
04:12 AM 51.4°F10.8°C 38.0°F3.3°C 60% 2.0 mph NW3.2 kmh NW 5.0 mph8.0 kmh 29.33 in993.2 mb 0.00 in0.0 mm 0.00 in0.0 mm 0.00 in0.0 mm
04:13 AM 51.4°F10.8°C 38.0°F3.3°C 60% 3.0 mph WNW4.8 kmh WNW 5.0 mph8.0 kmh 29.33 in993.2 mb 0.00 in0.0 mm 0.00 in0.0 mm 0.00 in0.0 mm
04:14 AM 51.4°F10.8°C 38.0°F3.3°C 60% 3.0 mph NW4.8 kmh NW 5.0 mph8.0 kmh 29.33 in993.2 mb 0.00 in0.0 mm 0.00 in0.0 mm 0.00 in0.0 mm
04:15 AM 51.4°F10.8°C 38.0°F3.3°C 60% 3.0 mph NW4.8 kmh NW 5.0 mph8.0 kmh 29.33 in993.2 mb 0.00 in0.0 mm 0.00 in0.0 mm 0.00 in0.0 mm
04:16 AM 51.4°F10.8°C 38.0°F3.3°C 60% 3.0 mph WNW4.8 kmh WNW 5.0 mph8.0 kmh 29.33 in993.2 mb 0.00 in0.0 mm 0.00 in0.0 mm 0.00 in0.0 mm
04:17 AM 51.4°F10.8°C 38.0°F3.3°C 60% 3.0 mph WNW4.8 kmh WNW 5.0 mph8.0 kmh 29.33 in993.2 mb 0.00 in0.0 mm 0.00 in0.0 mm 0.00 in0.0 mm
04:18 AM 51.4°F10.8°C 38.0°F3.3°C 60% 2.0 mph NW3.2 kmh NW 5.0 mph8.0 kmh 29.33 in993.2 mb 0.00 in0.0 mm 0.00 in0.0 mm 0.00 in0.0 mm
04:19 AM 51.4°F10.8°C 38.0°F3.3°C 60% 2.0 mph NW3.2 kmh NW 5.0 mph8.0 kmh 29.33 in993.2 mb 0.00 in0.0 mm 0.00 in0.0 mm 0.00 in0.0 mm
04:20 AM 51.4°F10.8°C 38.0°F3.3°C 60% 4.0 mph WNW6.4 kmh WNW 5.0 mph8.0 kmh 29.33 in993.2 mb 0.00 in0.0 mm 0.00 in0.0 mm 0.00 in0.0 mm
04:21 AM 51.4°F10.8°C 38.0°F3.3°C 60% 4.0 mph WNW6.4 kmh WNW 5.0 mph8.0 kmh 29.33 in993.2 mb 0.00 in0.0 mm 0.00 in0.0 mm 0.00 in0.0 mm
04:22 AM 51.3°F10.7°C 37.9°F3.3°C 60% 3.0 mph NW4.8 kmh NW 5.0 mph8.0 kmh 29.33 in993.2 mb 0.00 in0.0 mm 0.00 in0.0 mm 0.00 in0.0 mm
04:23 AM 51.3°F10.7°C 37.9°F3.3°C 60% 4.0 mph NW6.4 kmh NW 5.0 mph8.0 kmh 29.33 in993.2 mb 0.00 in0.0 mm 0.00 in0.0 mm 0.00 in0.0 mm
04:24 AM 51.3°F10.7°C 37.9°F3.3°C 60% 3.0 mph NW4.8 kmh NW 4.0 mph6.4 kmh 29.33 in993.2 mb 0.00 in0.0 mm 0.00 in0.0 mm 0.00 in0.0 mm
04:25 AM 51.3°F10.7°C 37.9°F3.3°C 60% 4.0 mph NW6.4 kmh NW 4.0 mph6.4 kmh 29.33 in993.2 mb 0.00 in0.0 mm 0.00 in0.0 mm 0.00 in0.0 mm
04:26 AM 51.3°F10.7°C 37.9°F3.3°C 60% 4.0 mph NW6.4 kmh NW 4.0 mph6.4 kmh 29.34 in993.6 mb 0.00 in0.0 mm 0.00 in0.0 mm 0.00 in0.0 mm
04:27 AM 51.3°F10.7°C 37.9°F3.3°C 60% 3.0 mph NW4.8 kmh NW 5.0 mph8.0 kmh 29.34 in993.6 mb 0.00 in0.0 mm 0.00 in0.0 mm 0.00 in0.0 mm
04:28 AM 51.3°F10.7°C 37.9°F3.3°C 60% 3.0 mph NW4.8 kmh NW 5.0 mph8.0 kmh 29.34 in993.6 mb 0.00 in0.0 mm 0.00 in0.0 mm 0.00 in0.0 mm
04:29 AM 51.3°F10.7°C 37.9°F3.3°C 60% 4.0 mph NW6.4 kmh NW 5.0 mph8.0 kmh 29.34 in993.6 mb 0.00 in0.0 mm 0.00 in0.0 mm 0.00 in0.0 mm
04:30 AM 51.3°F10.7°C 38.3°F3.5°C 61% 2.0 mph NW3.2 kmh NW 5.0 mph8.0 kmh 29.34 in993.6 mb 0.00 in0.0 mm 0.00 in0.0 mm 0.00 in0.0 mm
04:31 AM 51.3°F10.7°C 38.3°F3.5°C 61% 2.0 mph WNW3.2 kmh WNW 5.0 mph8.0 kmh 29.34 in993.6 mb 0.00 in0.0 mm 0.00 in0.0 mm 0.00 in0.0 mm
04:32 AM 51.3°F10.7°C 37.9°F3.3°C 60% 4.0 mph NW6.4 kmh NW 5.0 mph8.0 kmh 29.34 in993.6 mb 0.00 in0.0 mm 0.00 in0.0 mm 0.00 in0.0 mm
04:33 AM 51.3°F10.7°C 37.9°F3.3°C 60% 2.0 mph NW3.2 kmh NW 5.0 mph8.0 kmh 29.34 in993.6 mb 0.00 in0.0 mm 0.00 in0.0 mm 0.00 in0.0 mm
04:34 AM 51.3°F10.7°C 37.9°F3.3°C 60% 3.0 mph WNW4.8 kmh WNW 5.0 mph8.0 kmh 29.34 in993.6 mb 0.00 in0.0 mm 0.00 in0.0 mm 0.00 in0.0 mm
04:35 AM 51.3°F10.7°C 37.9°F3.3°C 60% 3.0 mph WNW4.8 kmh WNW 5.0 mph8.0 kmh 29.34 in993.6 mb 0.00 in0.0 mm 0.00 in0.0 mm 0.00 in0.0 mm
04:36 AM 51.3°F10.7°C 37.9°F3.3°C 60% 4.0 mph WNW6.4 kmh WNW 5.0 mph8.0 kmh 29.34 in993.6 mb 0.00 in0.0 mm 0.00 in0.0 mm 0.00 in0.0 mm
04:37 AM 51.2°F10.7°C 37.8°F3.2°C 60% 3.0 mph WNW4.8 kmh WNW 5.0 mph8.0 kmh 29.33 in993.2 mb 0.00 in0.0 mm 0.00 in0.0 mm 0.00 in0.0 mm
04:38 AM 51.2°F10.7°C 38.2°F3.4°C 61% 3.0 mph NW4.8 kmh NW 5.0 mph8.0 kmh 29.34 in993.6 mb 0.00 in0.0 mm 0.00 in0.0 mm 0.00 in0.0 mm
04:39 AM 51.1°F10.6°C 38.1°F3.4°C 61% 3.0 mph NW4.8 kmh NW 5.0 mph8.0 kmh 29.34 in993.6 mb 0.00 in0.0 mm 0.00 in0.0 mm 0.00 in0.0 mm
04:40 AM 51.1°F10.6°C 38.1°F3.4°C 61% 2.0 mph W3.2 kmh W 5.0 mph8.0 kmh 29.34 in993.6 mb 0.00 in0.0 mm 0.00 in0.0 mm 0.00 in0.0 mm
04:41 AM 51.1°F10.6°C 38.1°F3.4°C 61% 3.0 mph W4.8 kmh W 5.0 mph8.0 kmh 29.34 in993.6 mb 0.00 in0.0 mm 0.00 in0.0 mm 0.00 in0.0 mm
04:42 AM 51.1°F10.6°C 38.1°F3.4°C 61% 5.0 mph WNW8.0 kmh WNW 5.0 mph8.0 kmh 29.34 in993.6 mb 0.00 in0.0 mm 0.00 in0.0 mm 0.00 in0.0 mm
04:43 AM 51.1°F10.6°C 38.1°F3.4°C 61% 4.0 mph WNW6.4 kmh WNW 5.0 mph8.0 kmh 29.34 in993.6 mb 0.00 in0.0 mm 0.00 in0.0 mm 0.00 in0.0 mm
04:44 AM 51.1°F10.6°C 38.1°F3.4°C 61% 4.0 mph WNW6.4 kmh WNW 5.0 mph8.0 kmh 29.34 in993.6 mb 0.00 in0.0 mm 0.00 in0.0 mm 0.00 in0.0 mm
04:45 AM 51.0°F10.6°C 38.0°F3.3°C 61% 4.0 mph NW6.4 kmh NW 5.0 mph8.0 kmh 29.34 in993.6 mb 0.00 in0.0 mm 0.00 in0.0 mm 0.00 in0.0 mm
04:46 AM 51.0°F10.6°C 38.0°F3.3°C 61% 4.0 mph NW6.4 kmh NW 5.0 mph8.0 kmh 29.34 in993.6 mb 0.00 in0.0 mm 0.00 in0.0 mm 0.00 in0.0 mm
04:47 AM 50.9°F10.5°C 37.9°F3.3°C 61% 5.0 mph WNW8.0 kmh WNW 7.0 mph11.3 kmh 29.34 in993.6 mb 0.00 in0.0 mm 0.00 in0.0 mm 0.00 in0.0 mm
04:48 AM 50.9°F10.5°C 37.9°F3.3°C 61% 4.0 mph NW6.4 kmh NW 7.0 mph11.3 kmh 29.34 in993.6 mb 0.00 in0.0 mm 0.00 in0.0 mm 0.00 in0.0 mm
04:49 AM 50.9°F10.5°C 37.9°F3.3°C 61% 3.0 mph WNW4.8 kmh WNW 7.0 mph11.3 kmh 29.34 in993.6 mb 0.00 in0.0 mm 0.00 in0.0 mm 0.00 in0.0 mm
04:50 AM 50.9°F10.5°C 37.9°F3.3°C 61% 3.0 mph NW4.8 kmh NW 7.0 mph11.3 kmh 29.34 in993.6 mb 0.00 in0.0 mm 0.00 in0.0 mm 0.00 in0.0 mm
04:51 AM 50.9°F10.5°C 37.9°F3.3°C 61% 3.0 mph WNW4.8 kmh WNW 7.0 mph11.3 kmh 29.34 in993.6 mb 0.00 in0.0 mm 0.00 in0.0 mm 0.00 in0.0 mm
04:52 AM 50.8°F10.4°C 37.8°F3.2°C 61% 3.0 mph NW4.8 kmh NW 7.0 mph11.3 kmh 29.34 in993.6 mb 0.00 in0.0 mm 0.00 in0.0 mm 0.00 in0.0 mm
04:53 AM 50.9°F10.5°C 37.9°F3.3°C 61% 3.0 mph NW4.8 kmh NW 7.0 mph11.3 kmh 29.34 in993.6 mb 0.00 in0.0 mm 0.00 in0.0 mm 0.00 in0.0 mm
04:54 AM 50.9°F10.5°C 37.9°F3.3°C 61% 4.0 mph WNW6.4 kmh WNW 7.0 mph11.3 kmh 29.34 in993.6 mb 0.00 in0.0 mm 0.00 in0.0 mm 0.00 in0.0 mm
04:55 AM 50.9°F10.5°C 37.9°F3.3°C 61% 3.0 mph NW4.8 kmh NW 6.0 mph9.7 kmh 29.34 in993.6 mb 0.00 in0.0 mm 0.00 in0.0 mm 0.00 in0.0 mm
04:56 AM 50.9°F10.5°C 37.9°F3.3°C 61% 4.0 mph NW6.4 kmh NW 6.0 mph9.7 kmh 29.34 in993.6 mb 0.00 in0.0 mm 0.00 in0.0 mm 0.00 in0.0 mm
04:57 AM 50.9°F10.5°C 37.9°F3.3°C 61% 5.0 mph WNW8.0 kmh WNW 6.0 mph9.7 kmh 29.34 in993.6 mb 0.00 in0.0 mm 0.00 in0.0 mm 0.00 in0.0 mm
04:58 AM 50.9°F10.5°C 37.9°F3.3°C 61% 5.0 mph NW8.0 kmh NW 6.0 mph9.7 kmh 29.34 in993.6 mb 0.00 in0.0 mm 0.00 in0.0 mm 0.00 in0.0 mm
04:59 AM 50.9°F10.5°C 37.9°F3.3°C 61% 4.0 mph NW6.4 kmh NW 6.0 mph9.7 kmh 29.34 in993.6 mb 0.00 in0.0 mm 0.00 in0.0 mm 0.00 in0.0 mm
05:00 AM 50.9°F10.5°C 37.9°F3.3°C 61% 6.0 mph WNW9.7 kmh WNW 6.0 mph9.7 kmh 29.34 in993.6 mb 0.00 in0.0 mm 0.00 in0.0 mm 0.00 in0.0 mm
05:01 AM 50.9°F10.5°C 38.4°F3.6°C 62% 5.0 mph WNW8.0 kmh WNW 6.0 mph9.7 kmh 29.34 in993.6 mb 0.00 in0.0 mm 0.00 in0.0 mm 0.00 in0.0 mm
05:02 AM 50.8°F10.4°C 38.3°F3.5°C 62% 5.0 mph NW8.0 kmh NW 6.0 mph9.7 kmh 29.34 in993.6 mb 0.00 in0.0 mm 0.00 in0.0 mm 0.00 in0.0 mm
05:03 AM 50.8°F10.4°C 38.3°F3.5°C 62% 3.0 mph WNW4.8 kmh WNW 6.0 mph9.7 kmh 29.34 in993.6 mb 0.00 in0.0 mm 0.00 in0.0 mm 0.00 in0.0 mm
05:04 AM 50.8°F10.4°C 38.3°F3.5°C 62% 5.0 mph WNW8.0 kmh WNW 6.0 mph9.7 kmh 29.34 in993.6 mb 0.00 in0.0 mm 0.00 in0.0 mm 0.00 in0.0 mm
05:05 AM 50.7°F10.4°C 38.2°F3.4°C 62% 3.0 mph WNW4.8 kmh WNW 6.0 mph9.7 kmh 29.34 in993.6 mb 0.00 in0.0 mm 0.00 in0.0 mm 0.00 in0.0 mm
05:06 AM 50.7°F10.4°C 38.2°F3.4°C 62% 2.0 mph NW3.2 kmh NW 6.0 mph9.7 kmh 29.34 in993.6 mb 0.00 in0.0 mm 0.00 in0.0 mm 0.00 in0.0 mm
05:07 AM 50.6°F10.3°C 38.1°F3.4°C 62% 4.0 mph WNW6.4 kmh WNW 6.0 mph9.7 kmh 29.34 in993.6 mb 0.00 in0.0 mm 0.00 in0.0 mm 0.00 in0.0 mm
05:08 AM 50.5°F10.3°C 38.0°F3.3°C 62% 2.0 mph NW3.2 kmh NW 6.0 mph9.7 kmh 29.34 in993.6 mb 0.00 in0.0 mm 0.00 in0.0 mm 0.00 in0.0 mm
05:09 AM 50.4°F10.2°C 37.9°F3.3°C 62% 3.0 mph WNW4.8 kmh WNW 6.0 mph9.7 kmh 29.34 in993.6 mb 0.00 in0.0 mm 0.00 in0.0 mm 0.00 in0.0 mm
05:10 AM 50.3°F10.2°C 37.8°F3.2°C 62% 3.0 mph W4.8 kmh W 6.0 mph9.7 kmh 29.34 in993.6 mb 0.00 in0.0 mm 0.00 in0.0 mm 0.00 in0.0 mm
05:11 AM 50.2°F10.1°C 38.1°F3.4°C 63% 2.0 mph NW3.2 kmh NW 6.0 mph9.7 kmh 29.34 in993.6 mb 0.00 in0.0 mm 0.00 in0.0 mm 0.00 in0.0 mm
05:12 AM 50.1°F10.1°C 38.0°F3.3°C 63% 3.0 mph WNW4.8 kmh WNW 5.0 mph8.0 kmh 29.34 in993.6 mb 0.00 in0.0 mm 0.00 in0.0 mm 0.00 in0.0 mm
05:13 AM 50.0°F10.0°C 37.9°F3.3°C 63% 3.0 mph WNW4.8 kmh WNW 5.0 mph8.0 kmh 29.34 in993.6 mb 0.00 in0.0 mm 0.00 in0.0 mm 0.00 in0.0 mm
05:14 AM 50.0°F10.0°C 37.9°F3.3°C 63% 3.0 mph WNW4.8 kmh WNW 5.0 mph8.0 kmh 29.34 in993.6 mb 0.00 in0.0 mm 0.00 in0.0 mm 0.00 in0.0 mm
05:15 AM 49.9°F9.9°C 37.8°F3.2°C 63% 3.0 mph NW4.8 kmh NW 5.0 mph8.0 kmh 29.34 in993.6 mb 0.00 in0.0 mm 0.00 in0.0 mm 0.00 in0.0 mm
05:16 AM 49.9°F9.9°C 37.8°F3.2°C 63% 3.0 mph WNW4.8 kmh WNW 5.0 mph8.0 kmh 29.34 in993.6 mb 0.00 in0.0 mm 0.00 in0.0 mm 0.00 in0.0 mm
05:17 AM 49.9°F9.9°C 37.8°F3.2°C 63% 3.0 mph WNW4.8 kmh WNW 5.0 mph8.0 kmh 29.34 in993.6 mb 0.00 in0.0 mm 0.00 in0.0 mm 0.00 in0.0 mm
05:18 AM 49.9°F9.9°C 37.8°F3.2°C 63% 3.0 mph WNW4.8 kmh WNW 5.0 mph8.0 kmh 29.34 in993.6 mb 0.00 in0.0 mm 0.00 in0.0 mm 0.00 in0.0 mm
05:19 AM 49.8°F9.9°C 38.1°F3.4°C 64% 4.0 mph WNW6.4 kmh WNW 5.0 mph8.0 kmh 29.34 in993.6 mb 0.00 in0.0 mm 0.00 in0.0 mm 0.00 in0.0 mm
05:20 AM 49.8°F9.9°C 38.1°F3.4°C 64% 3.0 mph NW4.8 kmh NW 6.0 mph9.7 kmh 29.34 in993.6 mb 0.00 in0.0 mm 0.00 in0.0 mm 0.00 in0.0 mm
05:21 AM 49.8°F9.9°C 38.1°F3.4°C 64% 2.0 mph WNW3.2 kmh WNW 6.0 mph9.7 kmh 29.34 in993.6 mb 0.00 in0.0 mm 0.00 in0.0 mm 0.00 in0.0 mm
05:22 AM 49.8°F9.9°C 38.1°F3.4°C 64% 4.0 mph WNW6.4 kmh WNW 6.0 mph9.7 kmh 29.34 in993.6 mb 0.00 in0.0 mm 0.00 in0.0 mm 0.00 in0.0 mm
05:23 AM 49.8°F9.9°C 38.1°F3.4°C 64% 2.0 mph WNW3.2 kmh WNW 6.0 mph9.7 kmh 29.34 in993.6 mb 0.00 in0.0 mm 0.00 in0.0 mm 0.00 in0.0 mm
05:24 AM 49.7°F9.8°C 38.0°F3.3°C 64% 3.0 mph NW4.8 kmh NW 6.0 mph9.7 kmh 29.34 in993.6 mb 0.00 in0.0 mm 0.00 in0.0 mm 0.00 in0.0 mm
05:25 AM 49.7°F9.8°C 38.0°F3.3°C 64% 3.0 mph WNW4.8 kmh WNW 6.0 mph9.7 kmh 29.34 in993.6 mb 0.00 in0.0 mm 0.00 in0.0 mm 0.00 in0.0 mm
05:26 AM 49.8°F9.9°C 38.1°F3.4°C 64% 3.0 mph W4.8 kmh W 6.0 mph9.7 kmh 29.34 in993.6 mb 0.00 in0.0 mm 0.00 in0.0 mm 0.00 in0.0 mm
05:27 AM 49.7°F9.8°C 38.0°F3.3°C 64% 4.0 mph WNW6.4 kmh WNW 6.0 mph9.7 kmh 29.34 in993.6 mb 0.00 in0.0 mm 0.00 in0.0 mm 0.00 in0.0 mm
05:28 AM 49.8°F9.9°C 38.1°F3.4°C 64% 4.0 mph NW6.4 kmh NW 6.0 mph9.7 kmh 29.34 in993.6 mb 0.00 in0.0 mm 0.00 in0.0 mm 0.00 in0.0 mm
05:29 AM 49.8°F9.9°C 38.1°F3.4°C 64% 4.0 mph NW6.4 kmh NW 5.0 mph8.0 kmh 29.34 in993.6 mb 0.00 in0.0 mm 0.00 in0.0 mm 0.00 in0.0 mm
05:30 AM 49.9°F9.9°C 38.2°F3.4°C 64% 7.0 mph NW11.3 kmh NW 7.0 mph11.3 kmh 29.35 in993.9 mb 0.00 in0.0 mm 0.00 in0.0 mm 0.00 in0.0 mm
05:31 AM 49.9°F9.9°C 38.2°F3.4°C 64% 4.0 mph NW6.4 kmh NW 7.0 mph11.3 kmh 29.35 in993.9 mb 0.00 in0.0 mm 0.00 in0.0 mm 0.00 in0.0 mm
05:32 AM 49.9°F9.9°C 38.2°F3.4°C 64% 3.0 mph NW4.8 kmh NW 7.0 mph11.3 kmh 29.35 in993.9 mb 0.00 in0.0 mm 0.00 in0.0 mm 0.00 in0.0 mm
05:33 AM 49.9°F9.9°C 38.2°F3.4°C 64% 4.0 mph NW6.4 kmh NW 7.0 mph11.3 kmh 29.35 in993.9 mb 0.00 in0.0 mm 0.00 in0.0 mm 0.00 in0.0 mm
05:34 AM 49.9°F9.9°C 38.2°F3.4°C 64% 6.0 mph NW9.7 kmh NW 7.0 mph11.3 kmh 29.34 in993.6 mb 0.00 in0.0 mm 0.00 in0.0 mm 0.00 in0.0 mm
05:35 AM 49.9°F9.9°C 38.2°F3.4°C 64% 3.0 mph NW4.8 kmh NW 7.0 mph11.3 kmh 29.34 in993.6 mb 0.00 in0.0 mm 0.00 in0.0 mm 0.00 in0.0 mm
05:36 AM 49.9°F9.9°C 38.2°F3.4°C 64% 3.0 mph NW4.8 kmh NW 7.0 mph11.3 kmh 29.34 in993.6 mb 0.00 in0.0 mm 0.00 in0.0 mm 0.00 in0.0 mm
05:37 AM 49.8°F9.9°C 38.1°F3.4°C 64% 6.0 mph NW9.7 kmh NW 7.0 mph11.3 kmh 29.35 in993.9 mb 0.00 in0.0 mm 0.00 in0.0 mm 0.00 in0.0 mm
05:38 AM 49.8°F9.9°C 38.1°F3.4°C 64% 3.0 mph NW4.8 kmh NW 7.0 mph11.3 kmh 29.35 in993.9 mb 0.00 in0.0 mm 0.00 in0.0 mm 0.00 in0.0 mm
05:39 AM 49.8°F9.9°C 38.1°F3.4°C 64% 3.0 mph NW4.8 kmh NW 7.0 mph11.3 kmh 29.35 in993.9 mb 0.00 in0.0 mm 0.00 in0.0 mm 0.00 in0.0 mm
05:40 AM 49.8°F9.9°C 38.1°F3.4°C 64% 2.0 mph NW3.2 kmh NW 7.0 mph11.3 kmh 29.35 in993.9 mb 0.00 in0.0 mm 0.00 in0.0 mm 0.00 in0.0 mm
05:41 AM 49.7°F9.8°C 38.0°F3.3°C 64% 3.0 mph NW4.8 kmh NW 7.0 mph11.3 kmh 29.35 in993.9 mb 0.00 in0.0 mm 0.00 in0.0 mm 0.00 in0.0 mm
05:42 AM 49.7°F9.8°C 38.0°F3.3°C 64% 3.0 mph NW4.8 kmh NW 6.0 mph9.7 kmh 29.35 in993.9 mb 0.00 in0.0 mm 0.00 in0.0 mm 0.00 in0.0 mm
05:43 AM 49.8°F9.9°C 38.1°F3.4°C 64% 4.0 mph WNW6.4 kmh WNW 6.0 mph9.7 kmh 29.35 in993.9 mb 0.00 in0.0 mm 0.00 in0.0 mm 0.00 in0.0 mm
05:44 AM 49.8°F9.9°C 38.1°F3.4°C 64% 2.0 mph W3.2 kmh W 6.0 mph9.7 kmh 29.34 in993.6 mb 0.00 in0.0 mm 0.00 in0.0 mm 0.00 in0.0 mm
05:45 AM 49.9°F9.9°C 38.2°F3.4°C 64% 1.0 mph NW1.6 kmh NW 6.0 mph9.7 kmh 29.35 in993.9 mb 0.00 in0.0 mm 0.00 in0.0 mm 0.00 in0.0 mm
05:46 AM 49.9°F9.9°C 38.2°F3.4°C 64% 3.0 mph NW4.8 kmh NW 6.0 mph9.7 kmh 29.35 in993.9 mb 0.00 in0.0 mm 0.00 in0.0 mm 0.00 in0.0 mm
05:47 AM 49.9°F9.9°C 38.2°F3.4°C 64% 3.0 mph NW4.8 kmh NW 6.0 mph9.7 kmh 29.35 in993.9 mb 0.00 in0.0 mm 0.00 in0.0 mm 0.00 in0.0 mm
05:48 AM 49.9°F9.9°C 38.2°F3.4°C 64% 1.0 mph NW1.6 kmh NW 6.0 mph9.7 kmh 29.35 in993.9 mb 0.00 in0.0 mm 0.00 in0.0 mm 0.00 in0.0 mm
05:49 AM 49.9°F9.9°C 38.2°F3.4°C 64% 1.0 mph WNW1.6 kmh WNW 6.0 mph9.7 kmh 29.35 in993.9 mb 0.00 in0.0 mm 0.00 in0.0 mm 0.00 in0.0 mm
05:50 AM 49.9°F9.9°C 38.2°F3.4°C 64% 1.0 mph WNW1.6 kmh WNW 6.0 mph9.7 kmh 29.35 in993.9 mb 0.00 in0.0 mm 0.00 in0.0 mm 0.00 in0.0 mm
05:51 AM 49.8°F9.9°C 38.1°F3.4°C 64% 1.0 mph WNW1.6 kmh WNW 6.0 mph9.7 kmh 29.35 in993.9 mb 0.00 in0.0 mm 0.00 in0.0 mm 0.00 in0.0 mm
05:52 AM 49.7°F9.8°C 38.0°F3.3°C 64% 2.0 mph WNW3.2 kmh WNW 6.0 mph9.7 kmh 29.35 in993.9 mb 0.00 in0.0 mm 0.00 in0.0 mm 0.00 in0.0 mm
05:53 AM 49.7°F9.8°C 38.0°F3.3°C 64% 2.0 mph WNW3.2 kmh WNW 4.0 mph6.4 kmh 29.35 in993.9 mb 0.00 in0.0 mm 0.00 in0.0 mm 0.00 in0.0 mm
05:54 AM 49.6°F9.8°C 37.9°F3.3°C 64% 2.0 mph WNW3.2 kmh WNW 4.0 mph6.4 kmh 29.35 in993.9 mb 0.00 in0.0 mm 0.00 in0.0 mm 0.00 in0.0 mm
05:55 AM 49.5°F9.7°C 38.2°F3.4°C 65% 3.0 mph WNW4.8 kmh WNW 4.0 mph6.4 kmh 29.35 in993.9 mb 0.00 in0.0 mm 0.00 in0.0 mm 0.00 in0.0 mm
05:56 AM 49.4°F9.7°C 38.1°F3.4°C 65% 2.0 mph WNW3.2 kmh WNW 4.0 mph6.4 kmh 29.35 in993.9 mb 0.00 in0.0 mm 0.00 in0.0 mm 0.00 in0.0 mm
05:57 AM 49.4°F9.7°C 38.1°F3.4°C 65% 3.0 mph WNW4.8 kmh WNW 4.0 mph6.4 kmh 29.35 in993.9 mb 0.00 in0.0 mm 0.00 in0.0 mm 0.00 in0.0 mm
05:58 AM 49.3°F9.6°C 38.0°F3.3°C 65% 2.0 mph NW3.2 kmh NW 4.0 mph6.4 kmh 29.35 in993.9 mb 0.00 in0.0 mm 0.00 in0.0 mm 0.00 in0.0 mm
05:59 AM 49.3°F9.6°C 38.0°F3.3°C 65% 2.0 mph WNW3.2 kmh WNW 4.0 mph6.4 kmh 29.34 in993.6 mb 0.00 in0.0 mm 0.00 in0.0 mm 0.00 in0.0 mm
06:00 AM 49.2°F9.6°C 37.9°F3.3°C 65% 2.0 mph NW3.2 kmh NW 4.0 mph6.4 kmh 29.34 in993.6 mb 0.00 in0.0 mm 0.00 in0.0 mm 0.00 in0.0 mm
06:01 AM 49.2°F9.6°C 38.3°F3.5°C 66% 2.0 mph NW3.2 kmh NW 4.0 mph6.4 kmh 29.35 in993.9 mb 0.00 in0.0 mm 0.00 in0.0 mm 0.00 in0.0 mm
06:02 AM 49.2°F9.6°C 38.3°F3.5°C 66% 2.0 mph NW3.2 kmh NW 4.0 mph6.4 kmh 29.35 in993.9 mb 0.00 in0.0 mm 0.00 in0.0 mm 0.00 in0.0 mm
06:03 AM 49.2°F9.6°C 38.3°F3.5°C 66% 2.0 mph WNW3.2 kmh WNW 4.0 mph6.4 kmh 29.35 in993.9 mb 0.00 in0.0 mm 0.00 in0.0 mm 0.00 in0.0 mm
06:04 AM 49.2°F9.6°C 38.3°F3.5°C 66% 3.0 mph WNW4.8 kmh WNW 4.0 mph6.4 kmh 29.35 in993.9 mb 0.00 in0.0 mm 0.00 in0.0 mm 0.00 in0.0 mm
06:05 AM 49.1°F9.5°C 38.2°F3.4°C 66% 2.0 mph NW3.2 kmh NW 4.0 mph6.4 kmh 29.35 in993.9 mb 0.00 in0.0 mm 0.00 in0.0 mm 0.00 in0.0 mm
06:06 AM 49.1°F9.5°C 38.2°F3.4°C 66% 2.0 mph NW3.2 kmh NW 4.0 mph6.4 kmh 29.35 in993.9 mb 0.00 in0.0 mm 0.00 in0.0 mm 0.00 in0.0 mm
06:07 AM 49.1°F9.5°C 38.2°F3.4°C 66% 3.0 mph WNW4.8 kmh WNW 4.0 mph6.4 kmh 29.35 in993.9 mb 0.00 in0.0 mm 0.00 in0.0 mm 0.00 in0.0 mm
06:08 AM 49.0°F9.4°C 38.1°F3.4°C 66% 2.0 mph WNW3.2 kmh WNW 4.0 mph6.4 kmh 29.35 in993.9 mb 0.00 in0.0 mm 0.00 in0.0 mm 0.00 in0.0 mm
06:09 AM 49.1°F9.5°C 38.2°F3.4°C 66% 2.0 mph WNW3.2 kmh WNW 4.0 mph6.4 kmh 29.35 in993.9 mb 0.00 in0.0 mm 0.00 in0.0 mm 0.00 in0.0 mm
06:10 AM 49.1°F9.5°C 38.2°F3.4°C 66% 1.0 mph WNW1.6 kmh WNW 3.0 mph4.8 kmh 29.35 in993.9 mb 0.00 in0.0 mm 0.00 in0.0 mm 0.00 in0.0 mm
06:11 AM 49.1°F9.5°C 38.2°F3.4°C 66% 2.0 mph NW3.2 kmh NW 3.0 mph4.8 kmh 29.35 in993.9 mb 0.00 in0.0 mm 0.00 in0.0 mm 0.00 in0.0 mm
06:12 AM 49.2°F9.6°C 38.3°F3.5°C 66% 2.0 mph WNW3.2 kmh WNW 3.0 mph4.8 kmh 29.35 in993.9 mb 0.00 in0.0 mm 0.00 in0.0 mm 0.00 in0.0 mm
06:13 AM 49.2°F9.6°C 38.3°F3.5°C 66% 2.0 mph NW3.2 kmh NW 3.0 mph4.8 kmh 29.35 in993.9 mb 0.00 in0.0 mm 0.00 in0.0 mm 0.00 in0.0 mm
06:14 AM 49.3°F9.6°C 38.4°F3.6°C 66% 3.0 mph W4.8 kmh W 4.0 mph6.4 kmh 29.35 in993.9 mb 0.00 in0.0 mm 0.00 in0.0 mm 0.00 in0.0 mm
06:15 AM 49.4°F9.7°C 38.5°F3.6°C 66% 3.0 mph WNW4.8 kmh WNW 4.0 mph6.4 kmh 29.35 in993.9 mb 0.00 in0.0 mm 0.00 in0.0 mm 0.00 in0.0 mm
06:16 AM 49.5°F9.7°C 38.6°F3.7°C 66% 2.0 mph NW3.2 kmh NW 4.0 mph6.4 kmh 29.35 in993.9 mb 0.00 in0.0 mm 0.00 in0.0 mm 0.00 in0.0 mm
06:17 AM 49.5°F9.7°C 38.6°F3.7°C 66% 2.0 mph NW3.2 kmh NW 4.0 mph6.4 kmh 29.35 in993.9 mb 0.00 in0.0 mm 0.00 in0.0 mm 0.00 in0.0 mm
06:18 AM 49.5°F9.7°C 38.6°F3.7°C 66% 3.0 mph WNW4.8 kmh WNW 4.0 mph6.4 kmh 29.35 in993.9 mb 0.00 in0.0 mm 0.00 in0.0 mm 0.00 in0.0 mm
06:19 AM 49.6°F9.8°C 38.7°F3.7°C 66% 4.0 mph WNW6.4 kmh WNW 4.0 mph6.4 kmh 29.35 in993.9 mb 0.00 in0.0 mm 0.00 in0.0 mm 0.00 in0.0 mm
06:20 AM 49.7°F9.8°C 38.8°F3.8°C 66% 3.0 mph NW4.8 kmh NW 5.0 mph8.0 kmh 29.35 in993.9 mb 0.00 in0.0 mm 0.00 in0.0 mm 0.00 in0.0 mm
06:21 AM 49.8°F9.9°C 38.9°F3.8°C 66% 1.0 mph NW1.6 kmh NW 5.0 mph8.0 kmh 29.35 in993.9 mb 0.00 in0.0 mm 0.00 in0.0 mm 0.00 in0.0 mm
06:22 AM 49.9°F9.9°C 39.0°F3.9°C 66% 2.0 mph WNW3.2 kmh WNW 5.0 mph8.0 kmh 29.35 in993.9 mb 0.00 in0.0 mm 0.00 in0.0 mm 0.00 in0.0 mm
06:23 AM 50.0°F10.0°C 38.7°F3.7°C 65% 2.0 mph WNW3.2 kmh WNW 5.0 mph8.0 kmh 29.35 in993.9 mb 0.00 in0.0 mm 0.00 in0.0 mm 0.00 in0.0 mm
06:24 AM 50.1°F10.1°C 38.8°F3.8°C 65% 3.0 mph WNW4.8 kmh WNW 5.0 mph8.0 kmh 29.35 in993.9 mb 0.00 in0.0 mm 0.00 in0.0 mm 0.00 in0.0 mm
06:25 AM 50.3°F10.2°C 39.0°F3.9°C 65% 2.0 mph NW3.2 kmh NW 5.0 mph8.0 kmh 29.35 in993.9 mb 0.00 in0.0 mm 0.00 in0.0 mm 0.00 in0.0 mm
06:26 AM 50.4°F10.2°C 39.1°F3.9°C 65% 2.0 mph NW3.2 kmh NW 5.0 mph8.0 kmh 29.35 in993.9 mb 0.00 in0.0 mm 0.00 in0.0 mm 0.00 in0.0 mm
06:27 AM 50.5°F10.3°C 39.2°F4.0°C 65% 1.0 mph NW1.6 kmh NW 5.0 mph8.0 kmh 29.35 in993.9 mb 0.00 in0.0 mm 0.00 in0.0 mm 0.00 in0.0 mm
06:28 AM 50.7°F10.4°C 39.0°F3.9°C 64% 3.0 mph WNW4.8 kmh WNW 5.0 mph8.0 kmh 29.35 in993.9 mb 0.00 in0.0 mm 0.00 in0.0 mm 0.00 in0.0 mm
06:29 AM 50.8°F10.4°C 39.1°F3.9°C 64% 3.0 mph WNW4.8 kmh WNW 5.0 mph8.0 kmh 29.35 in993.9 mb 0.00 in0.0 mm 0.00 in0.0 mm 0.00 in0.0 mm
06:30 AM 50.9°F10.5°C 39.2°F4.0°C 64% 3.0 mph WNW4.8 kmh WNW 5.0 mph8.0 kmh 29.35 in993.9 mb 0.00 in0.0 mm 0.00 in0.0 mm 0.00 in0.0 mm
06:31 AM 51.0°F10.6°C 39.3°F4.1°C 64% 2.0 mph NW3.2 kmh NW 5.0 mph8.0 kmh 29.35 in993.9 mb 0.00 in0.0 mm 0.00 in0.0 mm 0.00 in0.0 mm
06:32 AM 51.0°F10.6°C 39.3°F4.1°C 64% 2.0 mph W3.2 kmh W 5.0 mph8.0 kmh 29.35 in993.9 mb 0.00 in0.0 mm 0.00 in0.0 mm 0.00 in0.0 mm
06:33 AM 51.1°F10.6°C 39.4°F4.1°C 64% 2.0 mph WNW3.2 kmh WNW 5.0 mph8.0 kmh 29.35 in993.9 mb 0.00 in0.0 mm 0.00 in0.0 mm 0.00 in0.0 mm
06:34 AM 51.2°F10.7°C 39.0°F3.9°C 63% 4.0 mph WNW6.4 kmh WNW 4.0 mph6.4 kmh 29.35 in993.9 mb 0.00 in0.0 mm 0.00 in0.0 mm 0.00 in0.0 mm
06:35 AM 51.3°F10.7°C 39.1°F3.9°C 63% 2.0 mph NW3.2 kmh NW 4.0 mph6.4 kmh 29.35 in993.9 mb 0.00 in0.0 mm 0.00 in0.0 mm 0.00 in0.0 mm
06:36 AM 51.4°F10.8°C 39.2°F4.0°C 63% 2.0 mph WNW3.2 kmh WNW 4.0 mph6.4 kmh 29.35 in993.9 mb 0.00 in0.0 mm 0.00 in0.0 mm 0.00 in0.0 mm
06:37 AM 51.5°F10.8°C 39.3°F4.1°C 63% 1.0 mph WNW1.6 kmh WNW 4.0 mph6.4 kmh 29.35 in993.9 mb 0.00 in0.0 mm 0.00 in0.0 mm 0.00 in0.0 mm
06:38 AM 51.6°F10.9°C 39.4°F4.1°C 63% 3.0 mph NW4.8 kmh NW 5.0 mph8.0 kmh 29.35 in993.9 mb 0.00 in0.0 mm 0.00 in0.0 mm 0.00 in0.0 mm
06:39 AM 51.7°F10.9°C 39.5°F4.2°C 63% 5.0 mph NW8.0 kmh NW 5.0 mph8.0 kmh 29.35 in993.9 mb 0.00 in0.0 mm 0.00 in0.0 mm 0.00 in0.0 mm
06:40 AM 51.8°F11.0°C 39.2°F4.0°C 62% 3.0 mph NW4.8 kmh NW 5.0 mph8.0 kmh 29.35 in993.9 mb 0.00 in0.0 mm 0.00 in0.0 mm 0.00 in0.0 mm
06:41 AM 52.0°F11.1°C 39.4°F4.1°C 62% 4.0 mph NW6.4 kmh NW 5.0 mph8.0 kmh 29.35 in993.9 mb 0.00 in0.0 mm 0.00 in0.0 mm 0.00 in0.0 mm
06:42 AM 52.1°F11.2°C 39.5°F4.2°C 62% 2.0 mph NW3.2 kmh NW 5.0 mph8.0 kmh 29.35 in993.9 mb 0.00 in0.0 mm 0.00 in0.0 mm 0.00 in0.0 mm
06:43 AM 52.2°F11.2°C 39.6°F4.2°C 62% 3.0 mph NW4.8 kmh NW 5.0 mph8.0 kmh 29.35 in993.9 mb 0.00 in0.0 mm 0.00 in0.0 mm 0.00 in0.0 mm
06:44 AM 52.4°F11.3°C 39.8°F4.3°C 62% 3.0 mph NW4.8 kmh NW 5.0 mph8.0 kmh 29.35 in993.9 mb 0.00 in0.0 mm 0.00 in0.0 mm 0.00 in0.0 mm
06:45 AM 52.4°F11.3°C 39.8°F4.3°C 62% 4.0 mph NW6.4 kmh NW 5.0 mph8.0 kmh 29.35 in993.9 mb 0.00 in0.0 mm 0.00 in0.0 mm 0.00 in0.0 mm
06:46 AM 52.6°F11.4°C 39.5°F4.2°C 61% 3.0 mph NW4.8 kmh NW 5.0 mph8.0 kmh 29.35 in993.9 mb 0.00 in0.0 mm 0.00 in0.0 mm 0.00 in0.0 mm
06:47 AM 52.7°F11.5°C 39.6°F4.2°C 61% 3.0 mph NW4.8 kmh NW 5.0 mph8.0 kmh 29.35 in993.9 mb 0.00 in0.0 mm 0.00 in0.0 mm 0.00 in0.0 mm
06:48 AM 52.8°F11.6°C 39.7°F4.3°C 61% 3.0 mph NW4.8 kmh NW 5.0 mph8.0 kmh 29.35 in993.9 mb 0.00 in0.0 mm 0.00 in0.0 mm 0.00 in0.0 mm
06:49 AM 52.9°F11.6°C 39.8°F4.3°C 61% 4.0 mph WNW6.4 kmh WNW 5.0 mph8.0 kmh 29.35 in993.9 mb 0.00 in0.0 mm 0.00 in0.0 mm 0.00 in0.0 mm
06:50 AM 53.0°F11.7°C 39.5°F4.2°C 60% 2.0 mph NW3.2 kmh NW 5.0 mph8.0 kmh 29.35 in993.9 mb 0.00 in0.0 mm 0.00 in0.0 mm 0.00 in0.0 mm
06:51 AM 53.1°F11.7°C 39.6°F4.2°C 60% 2.0 mph NW3.2 kmh NW 5.0 mph8.0 kmh 29.35 in993.9 mb 0.00 in0.0 mm 0.00 in0.0 mm 0.00 in0.0 mm
06:52 AM 53.2°F11.8°C 39.7°F4.3°C 60% 6.0 mph NW9.7 kmh NW 6.0 mph9.7 kmh 29.35 in993.9 mb 0.00 in0.0 mm 0.00 in0.0 mm 0.00 in0.0 mm
06:53 AM 53.3°F11.8°C 39.8°F4.3°C 60% 2.0 mph WNW3.2 kmh WNW 6.0 mph9.7 kmh 29.35 in993.9 mb 0.00 in0.0 mm 0.00 in0.0 mm 0.00 in0.0 mm
06:54 AM 53.4°F11.9°C 39.9°F4.4°C 60% 4.0 mph NW6.4 kmh NW 6.0 mph9.7 kmh 29.35 in993.9 mb 0.00 in0.0 mm 0.00 in0.0 mm 0.00 in0.0 mm
06:55 AM 53.5°F11.9°C 40.0°F4.4°C 60% 6.0 mph NW9.7 kmh NW 8.0 mph12.9 kmh 29.35 in993.9 mb 0.00 in0.0 mm 0.00 in0.0 mm 0.00 in0.0 mm
06:56 AM 53.5°F11.9°C 39.5°F4.2°C 59% 3.0 mph NW4.8 kmh NW 8.0 mph12.9 kmh 29.35 in993.9 mb 0.00 in0.0 mm 0.00 in0.0 mm 0.00 in0.0 mm
06:57 AM 53.6°F12.0°C 39.6°F4.2°C 59% 5.0 mph NW8.0 kmh NW 8.0 mph12.9 kmh 29.35 in993.9 mb 0.00 in0.0 mm 0.00 in0.0 mm 0.00 in0.0 mm
06:58 AM 53.7°F12.1°C 39.7°F4.3°C 59% 7.0 mph NW11.3 kmh NW 8.0 mph12.9 kmh 29.35 in993.9 mb 0.00 in0.0 mm 0.00 in0.0 mm 0.00 in0.0 mm
06:59 AM 53.7°F12.1°C 39.7°F4.3°C 59% 7.0 mph WNW11.3 kmh WNW 8.0 mph12.9 kmh 29.35 in993.9 mb 0.00 in0.0 mm 0.00 in0.0 mm 0.00 in0.0 mm
07:00 AM 53.8°F12.1°C 39.8°F4.3°C 59% 2.0 mph NW3.2 kmh NW 8.0 mph12.9 kmh 29.35 in993.9 mb 0.00 in0.0 mm 0.00 in0.0 mm 0.00 in0.0 mm
07:01 AM 53.9°F12.2°C 39.9°F4.4°C 59% 4.0 mph NW6.4 kmh NW 8.0 mph12.9 kmh 29.35 in993.9 mb 0.00 in0.0 mm 0.00 in0.0 mm 0.00 in0.0 mm
07:02 AM 53.9°F12.2°C 39.9°F4.4°C 59% 5.0 mph NW8.0 kmh NW 8.0 mph12.9 kmh 29.35 in993.9 mb 0.00 in0.0 mm 0.00 in0.0 mm 0.00 in0.0 mm
07:03 AM 54.0°F12.2°C 40.0°F4.4°C 59% 6.0 mph NW9.7 kmh NW 8.0 mph12.9 kmh 29.35 in993.9 mb 0.00 in0.0 mm 0.00 in0.0 mm 0.00 in0.0 mm
07:04 AM 54.1°F12.3°C 40.1°F4.5°C 59% 2.0 mph NW3.2 kmh NW 8.0 mph12.9 kmh 29.35 in993.9 mb 0.00 in0.0 mm 0.00 in0.0 mm 0.00 in0.0 mm
07:05 AM 54.1°F12.3°C 40.1°F4.5°C 59% 3.0 mph NW4.8 kmh NW 8.0 mph12.9 kmh 29.35 in993.9 mb 0.00 in0.0 mm 0.00 in0.0 mm 0.00 in0.0 mm
07:06 AM 54.2°F12.3°C 40.2°F4.6°C 59% 5.0 mph NW8.0 kmh NW 8.0 mph12.9 kmh 29.35 in993.9 mb 0.00 in0.0 mm 0.00 in0.0 mm 0.00 in0.0 mm
07:07 AM 54.3°F12.4°C 39.8°F4.3°C 58% 4.0 mph NW6.4 kmh NW 8.0 mph12.9 kmh 29.35 in993.9 mb 0.00 in0.0 mm 0.00 in0.0 mm 0.00 in0.0 mm
07:08 AM 54.3°F12.4°C 39.8°F4.3°C 58% 6.0 mph NW9.7 kmh NW 8.0 mph12.9 kmh 29.35 in993.9 mb 0.00 in0.0 mm 0.00 in0.0 mm 0.00 in0.0 mm
07:09 AM 54.4°F12.4°C 39.9°F4.4°C 58% 4.0 mph WNW6.4 kmh WNW 7.0 mph11.3 kmh 29.35 in993.9 mb 0.00 in0.0 mm 0.00 in0.0 mm 0.00 in0.0 mm
07:10 AM 54.4°F12.4°C 39.9°F4.4°C 58% 3.0 mph NW4.8 kmh NW 7.0 mph11.3 kmh 29.35 in993.9 mb 0.00 in0.0 mm 0.00 in0.0 mm 0.00 in0.0 mm
07:11 AM 54.5°F12.5°C 40.0°F4.4°C 58% 4.0 mph WNW6.4 kmh WNW 7.0 mph11.3 kmh 29.35 in993.9 mb 0.00 in0.0 mm 0.00 in0.0 mm 0.00 in0.0 mm
07:12 AM 54.5°F12.5°C 40.0°F4.4°C 58% 4.0 mph NW6.4 kmh NW 7.0 mph11.3 kmh 29.35 in993.9 mb 0.00 in0.0 mm 0.00 in0.0 mm 0.00 in0.0 mm
07:13 AM 54.6°F12.6°C 40.1°F4.5°C 58% 3.0 mph NW4.8 kmh NW 7.0 mph11.3 kmh 29.35 in993.9 mb 0.00 in0.0 mm 0.00 in0.0 mm 0.00 in0.0 mm
07:14 AM 54.7°F12.6°C 40.2°F4.6°C 58% 3.0 mph NW4.8 kmh NW 7.0 mph11.3 kmh 29.35 in993.9 mb 0.00 in0.0 mm 0.00 in0.0 mm 0.00 in0.0 mm
07:15 AM 54.8°F12.7°C 40.3°F4.6°C 58% 4.0 mph NW6.4 kmh NW 7.0 mph11.3 kmh 29.35 in993.9 mb 0.00 in0.0 mm 0.00 in0.0 mm 0.00 in0.0 mm
07:16 AM 54.9°F12.7°C 40.4°F4.7°C 58% 4.0 mph NW6.4 kmh NW 7.0 mph11.3 kmh 29.35 in993.9 mb 0.00 in0.0 mm 0.00 in0.0 mm 0.00 in0.0 mm
07:17 AM 55.0°F12.8°C 40.5°F4.7°C 58% 6.0 mph NW9.7 kmh NW 7.0 mph11.3 kmh 29.35 in993.9 mb 0.00 in0.0 mm 0.00 in0.0 mm 0.00 in0.0 mm
07:18 AM 55.0°F12.8°C 40.0°F4.4°C 57% 5.0 mph NW8.0 kmh NW 6.0 mph9.7 kmh 29.35 in993.9 mb 0.00 in0.0 mm 0.00 in0.0 mm 0.00 in0.0 mm
07:19 AM 55.1°F12.8°C 40.1°F4.5°C 57% 3.0 mph NW4.8 kmh NW 6.0 mph9.7 kmh 29.35 in993.9 mb 0.00 in0.0 mm 0.00 in0.0 mm 0.00 in0.0 mm
07:20 AM 55.2°F12.9°C 40.2°F4.6°C 57% 2.0 mph NW3.2 kmh NW 6.0 mph9.7 kmh 29.35 in993.9 mb 0.00 in0.0 mm 0.00 in0.0 mm 0.00 in0.0 mm
07:21 AM 55.3°F12.9°C 40.3°F4.6°C 57% 3.0 mph NW4.8 kmh NW 6.0 mph9.7 kmh 29.35 in993.9 mb 0.00 in0.0 mm 0.00 in0.0 mm 0.00 in0.0 mm
07:22 AM 55.4°F13.0°C 40.9°F4.9°C 58% Calm Calm 6.0 mph9.7 kmh 29.35 in993.9 mb 0.00 in0.0 mm 0.00 in0.0 mm 0.00 in0.0 mm
07:23 AM 55.6°F13.1°C 41.1°F5.1°C 58% 3.0 mph NW4.8 kmh NW 6.0 mph9.7 kmh 29.35 in993.9 mb 0.00 in0.0 mm 0.00 in0.0 mm 0.00 in0.0 mm
07:24 AM 55.7°F13.2°C 40.7°F4.8°C 57% 3.0 mph NW4.8 kmh NW 6.0 mph9.7 kmh 29.35 in993.9 mb 0.00 in0.0 mm 0.00 in0.0 mm 0.00 in0.0 mm
07:25 AM 55.8°F13.2°C 40.3°F4.6°C 56% 4.0 mph NW6.4 kmh NW 7.0 mph11.3 kmh 29.35 in993.9 mb 0.00 in0.0 mm 0.00 in0.0 mm 0.00 in0.0 mm
07:26 AM 55.9°F13.3°C 40.9°F4.9°C 57% 4.0 mph NW6.4 kmh NW 7.0 mph11.3 kmh 29.35 in993.9 mb 0.00 in0.0 mm 0.00 in0.0 mm 0.00 in0.0 mm
07:27 AM 55.9°F13.3°C 40.9°F4.9°C 57% 3.0 mph NW4.8 kmh NW 7.0 mph11.3 kmh 29.35 in993.9 mb 0.00 in0.0 mm 0.00 in0.0 mm 0.00 in0.0 mm
07:28 AM 56.0°F13.3°C 40.5°F4.7°C 56% 4.0 mph NW6.4 kmh NW 7.0 mph11.3 kmh 29.35 in993.9 mb 0.00 in0.0 mm 0.00 in0.0 mm 0.00 in0.0 mm
07:29 AM 56.1°F13.4°C 40.6°F4.8°C 56% 3.0 mph NW4.8 kmh NW 7.0 mph11.3 kmh 29.35 in993.9 mb 0.00 in0.0 mm 0.00 in0.0 mm 0.00 in0.0 mm
07:30 AM 56.2°F13.4°C 40.7°F4.8°C 56% 5.0 mph NW8.0 kmh NW 7.0 mph11.3 kmh 29.35 in993.9 mb 0.00 in0.0 mm 0.00 in0.0 mm 0.00 in0.0 mm
07:31 AM 56.3°F13.5°C 40.8°F4.9°C 56% 4.0 mph NW6.4 kmh NW 7.0 mph11.3 kmh 29.35 in993.9 mb 0.00 in0.0 mm 0.00 in0.0 mm 0.00 in0.0 mm
07:32 AM 56.4°F13.6°C 40.9°F4.9°C 56% 4.0 mph NW6.4 kmh NW 7.0 mph11.3 kmh 29.35 in993.9 mb 0.00 in0.0 mm 0.00 in0.0 mm 0.00 in0.0 mm
07:33 AM 56.5°F13.6°C 41.0°F5.0°C 56% 4.0 mph NW6.4 kmh NW 7.0 mph11.3 kmh 29.35 in993.9 mb 0.00 in0.0 mm 0.00 in0.0 mm 0.00 in0.0 mm
07:34 AM 56.6°F13.7°C 41.1°F5.1°C 56% 4.0 mph NW6.4 kmh NW 7.0 mph11.3 kmh 29.35 in993.9 mb 0.00 in0.0 mm 0.00 in0.0 mm 0.00 in0.0 mm
07:35 AM 56.6°F13.7°C 41.1°F5.1°C 56% 4.0 mph NW6.4 kmh NW 7.0 mph11.3 kmh 29.35 in993.9 mb 0.00 in0.0 mm 0.00 in0.0 mm 0.00 in0.0 mm
07:36 AM 56.7°F13.7°C 41.2°F5.1°C 56% 5.0 mph NW8.0 kmh NW 7.0 mph11.3 kmh 29.35 in993.9 mb 0.00 in0.0 mm 0.00 in0.0 mm 0.00 in0.0 mm
07:37 AM 56.9°F13.8°C 41.4°F5.2°C 56% 4.0 mph NW6.4 kmh NW 6.0 mph9.7 kmh 29.35 in993.9 mb 0.00 in0.0 mm 0.00 in0.0 mm 0.00 in0.0 mm
07:38 AM 57.0°F13.9°C 41.5°F5.3°C 56% 1.0 mph NW1.6 kmh NW 6.0 mph9.7 kmh 29.35 in993.9 mb 0.00 in0.0 mm 0.00 in0.0 mm 0.00 in0.0 mm
07:39 AM 57.2°F14.0°C 42.1°F5.6°C 57% 2.0 mph WNW3.2 kmh WNW 5.0 mph8.0 kmh 29.35 in993.9 mb 0.00 in0.0 mm 0.00 in0.0 mm 0.00 in0.0 mm
07:40 AM 57.4°F14.1°C 41.8°F5.4°C 56% 3.0 mph NW4.8 kmh NW 5.0 mph8.0 kmh 29.35 in993.9 mb 0.00 in0.0 mm 0.00 in0.0 mm 0.00 in0.0 mm
07:41 AM 57.5°F14.2°C 41.9°F5.5°C 56% 2.0 mph NW3.2 kmh NW 5.0 mph8.0 kmh 29.35 in993.9 mb 0.00 in0.0 mm 0.00 in0.0 mm 0.00 in0.0 mm
07:42 AM 57.7°F14.3°C 42.1°F5.6°C 56% 3.0 mph NW4.8 kmh NW 5.0 mph8.0 kmh 29.35 in993.9 mb 0.00 in0.0 mm 0.00 in0.0 mm 0.00 in0.0 mm
07:43 AM 57.9°F14.4°C 41.8°F5.4°C 55% 3.0 mph NW4.8 kmh NW 5.0 mph8.0 kmh 29.35 in993.9 mb 0.00 in0.0 mm 0.00 in0.0 mm 0.00 in0.0 mm
07:44 AM 58.0°F14.4°C 41.9°F5.5°C 55% 2.0 mph NW3.2 kmh NW 5.0 mph8.0 kmh 29.35 in993.9 mb 0.00 in0.0 mm 0.00 in0.0 mm 0.00 in0.0 mm
07:45 AM 58.2°F14.6°C 42.1°F5.6°C 55% 4.0 mph NW6.4 kmh NW 6.0 mph9.7 kmh 29.35 in993.9 mb 0.00 in0.0 mm 0.00 in0.0 mm 0.00 in0.0 mm
07:46 AM 58.4°F14.7°C 41.8°F5.4°C 54% 3.0 mph NW4.8 kmh NW 6.0 mph9.7 kmh 29.35 in993.9 mb 0.00 in0.0 mm 0.00 in0.0 mm 0.00 in0.0 mm
07:47 AM 58.5°F14.7°C 41.9°F5.5°C 54% 2.0 mph NW3.2 kmh NW 6.0 mph9.7 kmh 29.35 in993.9 mb 0.00 in0.0 mm 0.00 in0.0 mm 0.00 in0.0 mm
07:48 AM 58.7°F14.8°C 42.1°F5.6°C 54% 4.0 mph NW6.4 kmh NW 6.0 mph9.7 kmh 29.35 in993.9 mb 0.00 in0.0 mm 0.00 in0.0 mm 0.00 in0.0 mm
07:49 AM 58.9°F14.9°C 42.8°F6.0°C 55% 2.0 mph NW3.2 kmh NW 6.0 mph9.7 kmh 29.35 in993.9 mb 0.00 in0.0 mm 0.00 in0.0 mm 0.00 in0.0 mm
07:50 AM 59.1°F15.1°C 42.5°F5.8°C 54% 2.0 mph NW3.2 kmh NW 6.0 mph9.7 kmh 29.35 in993.9 mb 0.00 in0.0 mm 0.00 in0.0 mm 0.00 in0.0 mm
07:51 AM 59.3°F15.2°C 42.7°F5.9°C 54% 4.0 mph NNW6.4 kmh NNW 6.0 mph9.7 kmh 29.35 in993.9 mb 0.00 in0.0 mm 0.00 in0.0 mm 0.00 in0.0 mm
07:52 AM 59.4°F15.2°C 42.7°F5.9°C 54% 3.0 mph N4.8 kmh N 6.0 mph9.7 kmh 29.35 in993.9 mb 0.00 in0.0 mm 0.00 in0.0 mm 0.00 in0.0 mm
07:53 AM 59.6°F15.3°C 42.4°F5.8°C 53% 3.0 mph NW4.8 kmh NW 6.0 mph9.7 kmh 29.35 in993.9 mb 0.00 in0.0 mm 0.00 in0.0 mm 0.00 in0.0 mm
07:54 AM 59.7°F15.4°C 42.5°F5.8°C 53% 1.0 mph N1.6 kmh N 6.0 mph9.7 kmh 29.35 in993.9 mb 0.00 in0.0 mm 0.00 in0.0 mm 0.00 in0.0 mm
07:55 AM 59.8°F15.4°C 42.6°F5.9°C 53% 4.0 mph NW6.4 kmh NW 6.0 mph9.7 kmh 29.35 in993.9 mb 0.00 in0.0 mm 0.00 in0.0 mm 0.00 in0.0 mm
07:56 AM 59.9°F15.5°C 42.2°F5.7°C 52% 4.0 mph NW6.4 kmh NW 6.0 mph9.7 kmh 29.35 in993.9 mb 0.00 in0.0 mm 0.00 in0.0 mm 0.00 in0.0 mm
07:57 AM 60.0°F15.6°C 42.8°F6.0°C 53% 2.0 mph NNW3.2 kmh NNW 6.0 mph9.7 kmh 29.35 in993.9 mb 0.00 in0.0 mm 0.00 in0.0 mm 0.00 in0.0 mm
07:58 AM 60.2°F15.7°C 43.0°F6.1°C 53% 2.0 mph NW3.2 kmh NW 6.0 mph9.7 kmh 29.35 in993.9 mb 0.00 in0.0 mm 0.00 in0.0 mm 0.00 in0.0 mm
07:59 AM 60.3°F15.7°C 43.1°F6.2°C 53% 3.0 mph N4.8 kmh N 6.0 mph9.7 kmh 29.35 in993.9 mb 0.00 in0.0 mm 0.00 in0.0 mm 0.00 in0.0 mm
08:00 AM 60.4°F15.8°C 43.2°F6.2°C 53% 5.0 mph NW8.0 kmh NW 6.0 mph9.7 kmh 29.35 in993.9 mb 0.00 in0.0 mm 0.00 in0.0 mm 0.00 in0.0 mm
08:01 AM 60.5°F15.8°C 42.8°F6.0°C 52% 6.0 mph NNW9.7 kmh NNW 6.0 mph9.7 kmh 29.35 in993.9 mb 0.00 in0.0 mm 0.00 in0.0 mm 0.00 in0.0 mm
08:02 AM 60.7°F15.9°C 43.0°F6.1°C 52% 2.0 mph NW3.2 kmh NW 6.0 mph9.7 kmh 29.35 in993.9 mb 0.00 in0.0 mm 0.00 in0.0 mm 0.00 in0.0 mm
08:03 AM 60.8°F16.0°C 43.1°F6.2°C 52% 5.0 mph NNW8.0 kmh NNW 6.0 mph9.7 kmh 29.35 in993.9 mb 0.00 in0.0 mm 0.00 in0.0 mm 0.00 in0.0 mm
08:04 AM 60.9°F16.1°C 43.2°F6.2°C 52% 2.0 mph NNW3.2 kmh NNW 6.0 mph9.7 kmh 29.35 in993.9 mb 0.00 in0.0 mm 0.00 in0.0 mm 0.00 in0.0 mm
08:05 AM 61.1°F16.2°C 43.3°F6.3°C 52% 4.0 mph NW6.4 kmh NW 6.0 mph9.7 kmh 29.35 in993.9 mb 0.00 in0.0 mm 0.00 in0.0 mm 0.00 in0.0 mm
08:06 AM 61.2°F16.2°C 43.4°F6.3°C 52% 2.0 mph NW3.2 kmh NW 6.0 mph9.7 kmh 29.35 in993.9 mb 0.00 in0.0 mm 0.00 in0.0 mm 0.00 in0.0 mm
08:07 AM 61.3°F16.3°C 43.5°F6.4°C 52% 3.0 mph NW4.8 kmh NW 6.0 mph9.7 kmh 29.35 in993.9 mb 0.00 in0.0 mm 0.00 in0.0 mm 0.00 in0.0 mm
08:08 AM 61.3°F16.3°C 43.5°F6.4°C 52% 4.0 mph NW6.4 kmh NW 6.0 mph9.7 kmh 29.35 in993.9 mb 0.00 in0.0 mm 0.00 in0.0 mm 0.00 in0.0 mm
08:09 AM 61.4°F16.3°C 43.6°F6.4°C 52% 6.0 mph NNW9.7 kmh NNW 6.0 mph9.7 kmh 29.35 in993.9 mb 0.00 in0.0 mm 0.00 in0.0 mm 0.00 in0.0 mm
08:10 AM 61.5°F16.4°C 43.7°F6.5°C 52% 5.0 mph NW8.0 kmh NW 6.0 mph9.7 kmh 29.35 in993.9 mb 0.00 in0.0 mm 0.00 in0.0 mm 0.00 in0.0 mm
08:11 AM 61.7°F16.5°C 43.9°F6.6°C 52% 3.0 mph NNW4.8 kmh NNW 6.0 mph9.7 kmh 29.35 in993.9 mb 0.00 in0.0 mm 0.00 in0.0 mm 0.00 in0.0 mm
08:12 AM 61.8°F16.6°C 44.0°F6.7°C 52% 4.0 mph NW6.4 kmh NW 6.0 mph9.7 kmh 29.35 in993.9 mb 0.00 in0.0 mm 0.00 in0.0 mm 0.00 in0.0 mm
08:13 AM 61.9°F16.6°C 43.6°F6.4°C 51% 2.0 mph NNW3.2 kmh NNW 6.0 mph9.7 kmh 29.35 in993.9 mb 0.00 in0.0 mm 0.00 in0.0 mm 0.00 in0.0 mm
08:14 AM 62.0°F16.7°C 43.7°F6.5°C 51% 1.0 mph NW1.6 kmh NW 6.0 mph9.7 kmh 29.35 in993.9 mb 0.00 in0.0 mm 0.00 in0.0 mm 0.00 in0.0 mm
08:15 AM 62.2°F16.8°C 43.8°F6.6°C 51% 3.0 mph NNW4.8 kmh NNW 6.0 mph9.7 kmh 29.35 in993.9 mb 0.00 in0.0 mm 0.00 in0.0 mm 0.00 in0.0 mm
08:16 AM 62.3°F16.8°C 43.9°F6.6°C 51% 6.0 mph NW9.7 kmh NW 6.0 mph9.7 kmh 29.35 in993.9 mb 0.00 in0.0 mm 0.00 in0.0 mm 0.00 in0.0 mm
08:17 AM 62.4°F16.9°C 44.0°F6.7°C 51% 6.0 mph NW9.7 kmh NW 6.0 mph9.7 kmh 29.35 in993.9 mb 0.00 in0.0 mm 0.00 in0.0 mm 0.00 in0.0 mm
08:18 AM 62.5°F16.9°C 44.1°F6.7°C 51% 3.0 mph NW4.8 kmh NW 6.0 mph9.7 kmh 29.35 in993.9 mb 0.00 in0.0 mm 0.00 in0.0 mm 0.00 in0.0 mm
08:19 AM 62.6°F17.0°C 44.2°F6.8°C 51% 5.0 mph NW8.0 kmh NW 6.0 mph9.7 kmh 29.35 in993.9 mb 0.00 in0.0 mm 0.00 in0.0 mm 0.00 in0.0 mm
08:20 AM 62.6°F17.0°C 44.2°F6.8°C 51% 3.0 mph WNW4.8 kmh WNW 6.0 mph9.7 kmh 29.35 in993.9 mb 0.00 in0.0 mm 0.00 in0.0 mm 0.00 in0.0 mm
08:21 AM 62.8°F17.1°C 44.4°F6.9°C 51% 3.0 mph NW4.8 kmh NW 6.0 mph9.7 kmh 29.35 in993.9 mb 0.00 in0.0 mm 0.00 in0.0 mm 0.00 in0.0 mm
08:22 AM 62.9°F17.2°C 44.5°F6.9°C 51% 2.0 mph NW3.2 kmh NW 6.0 mph9.7 kmh 29.35 in993.9 mb 0.00 in0.0 mm 0.00 in0.0 mm 0.00 in0.0 mm
08:23 AM 63.0°F17.2°C 44.6°F7.0°C 51% Calm Calm 6.0 mph9.7 kmh 29.35 in993.9 mb 0.00 in0.0 mm 0.00 in0.0 mm 0.00 in0.0 mm
08:24 AM 63.2°F17.3°C 44.8°F7.1°C 51% 2.0 mph N3.2 kmh N 6.0 mph9.7 kmh 29.35 in993.9 mb 0.00 in0.0 mm 0.00 in0.0 mm 0.00 in0.0 mm
08:25 AM 63.5°F17.5°C 45.0°F7.2°C 51% 1.0 mph N1.6 kmh N 6.0 mph9.7 kmh 29.35 in993.9 mb 0.00 in0.0 mm 0.00 in0.0 mm 0.00 in0.0 mm
08:26 AM 63.7°F17.6°C 45.2°F7.3°C 51% Calm Calm 5.0 mph8.0 kmh 29.35 in993.9 mb 0.00 in0.0 mm 0.00 in0.0 mm 0.00 in0.0 mm
08:27 AM 63.8°F17.7°C 44.8°F7.1°C 50% 1.0 mph NW1.6 kmh NW 5.0 mph8.0 kmh 29.35 in993.9 mb 0.00 in0.0 mm 0.00 in0.0 mm 0.00 in0.0 mm
08:28 AM 64.0°F17.8°C 45.0°F7.2°C 50% Calm Calm 4.0 mph6.4 kmh 29.35 in993.9 mb 0.00 in0.0 mm 0.00 in0.0 mm 0.00 in0.0 mm
08:29 AM 64.1°F17.8°C 45.1°F7.3°C 50% Calm Calm 4.0 mph6.4 kmh 29.35 in993.9 mb 0.00 in0.0 mm 0.00 in0.0 mm 0.00 in0.0 mm
08:30 AM 64.2°F17.9°C 45.2°F7.3°C 50% 1.0 mph N1.6 kmh N 4.0 mph6.4 kmh 29.35 in993.9 mb 0.00 in0.0 mm 0.00 in0.0 mm 0.00 in0.0 mm
08:31 AM 64.3°F17.9°C 45.3°F7.4°C 50% 1.0 mph NNE1.6 kmh NNE 3.0 mph4.8 kmh 29.35 in993.9 mb 0.00 in0.0 mm 0.00 in0.0 mm 0.00 in0.0 mm
08:32 AM 64.5°F18.1°C 44.9°F7.2°C 49% Calm Calm 3.0 mph4.8 kmh 29.35 in993.9 mb 0.00 in0.0 mm 0.00 in0.0 mm 0.00 in0.0 mm
08:33 AM 64.7°F18.2°C 45.1°F7.3°C 49% Calm Calm 3.0 mph4.8 kmh 29.35 in993.9 mb 0.00 in0.0 mm 0.00 in0.0 mm 0.00 in0.0 mm
08:34 AM 64.8°F18.2°C 45.2°F7.3°C 49% Calm Calm 3.0 mph4.8 kmh 29.35 in993.9 mb 0.00 in0.0 mm 0.00 in0.0 mm 0.00 in0.0 mm
08:35 AM 65.0°F18.3°C 45.4°F7.4°C 49% Calm Calm 3.0 mph4.8 kmh 29.35 in993.9 mb 0.00 in0.0 mm 0.00 in0.0 mm 0.00 in0.0 mm
08:36 AM 65.1°F18.4°C 44.9°F7.2°C 48% Calm Calm 3.0 mph4.8 kmh 29.35 in993.9 mb 0.00 in0.0 mm 0.00 in0.0 mm 0.00 in0.0 mm
08:37 AM 65.2°F18.4°C 45.0°F7.2°C 48% Calm Calm 2.0 mph3.2 kmh 29.35 in993.9 mb 0.00 in0.0 mm 0.00 in0.0 mm 0.00 in0.0 mm
08:38 AM 65.2°F18.4°C 45.0°F7.2°C 48% Calm Calm 2.0 mph3.2 kmh 29.35 in993.9 mb 0.00 in0.0 mm 0.00 in0.0 mm 0.00 in0.0 mm
08:39 AM 65.4°F18.6°C 45.7°F7.6°C 49% Calm Calm 2.0 mph3.2 kmh 29.35 in993.9 mb 0.00 in0.0 mm 0.00 in0.0 mm 0.00 in0.0 mm
08:40 AM 65.6°F18.7°C 45.4°F7.4°C 48% Calm Calm 1.0 mph1.6 kmh 29.35 in993.9 mb 0.00 in0.0 mm 0.00 in0.0 mm 0.00 in0.0 mm
08:41 AM 65.7°F18.7°C 45.5°F7.5°C 48% Calm Calm 1.0 mph1.6 kmh 29.35 in993.9 mb 0.00 in0.0 mm 0.00 in0.0 mm 0.00 in0.0 mm
08:42 AM 66.0°F18.9°C 45.7°F7.6°C 48% Calm Calm 1.0 mph1.6 kmh 29.35 in993.9 mb 0.00 in0.0 mm 0.00 in0.0 mm 0.00 in0.0 mm
08:43 AM 66.2°F19.0°C 45.9°F7.7°C 48% Calm Calm 1.0 mph1.6 kmh 29.35 in993.9 mb 0.00 in0.0 mm 0.00 in0.0 mm 0.00 in0.0 mm
08:44 AM 66.4°F19.1°C 45.6°F7.6°C 47% Calm Calm 1.0 mph1.6 kmh 29.35 in993.9 mb 0.00 in0.0 mm 0.00 in0.0 mm 0.00 in0.0 mm
08:45 AM 66.6°F19.2°C 45.7°F7.6°C 47% Calm Calm 1.0 mph1.6 kmh 29.35 in993.9 mb 0.00 in0.0 mm 0.00 in0.0 mm 0.00 in0.0 mm
08:46 AM 66.9°F19.4°C 46.0°F7.8°C 47% Calm Calm -- 29.35 in993.9 mb 0.00 in0.0 mm 0.00 in0.0 mm 0.00 in0.0 mm
08:47 AM 67.1°F19.5°C 46.2°F7.9°C 47% Calm Calm -- 29.35 in993.9 mb 0.00 in0.0 mm 0.00 in0.0 mm 0.00 in0.0 mm
08:48 AM 67.3°F19.6°C 45.8°F7.7°C 46% Calm Calm -- 29.35 in993.9 mb 0.00 in0.0 mm 0.00 in0.0 mm 0.00 in0.0 mm
08:49 AM 67.5°F19.7°C 46.6°F8.1°C 47% Calm Calm -- 29.35 in993.9 mb 0.00 in0.0 mm 0.00 in0.0 mm 0.00 in0.0 mm
08:50 AM 67.6°F19.8°C 46.6°F8.1°C 47% Calm Calm -- 29.35 in993.9 mb 0.00 in0.0 mm 0.00 in0.0 mm 0.00 in0.0 mm
08:51 AM 67.8°F19.9°C 46.3°F7.9°C 46% Calm Calm -- 29.35 in993.9 mb 0.00 in0.0 mm 0.00 in0.0 mm 0.00 in0.0 mm
08:52 AM 68.0°F20.0°C 46.4°F8.0°C 46% Calm Calm -- 29.35 in993.9 mb 0.00 in0.0 mm 0.00 in0.0 mm 0.00 in0.0 mm
08:53 AM 68.3°F20.2°C 46.7°F8.2°C 46% Calm Calm -- 29.35 in993.9 mb 0.00 in0.0 mm 0.00 in0.0 mm 0.00 in0.0 mm
08:54 AM 68.4°F20.2°C 46.8°F8.2°C 46% 3.0 mph E4.8 kmh E 4.0 mph6.4 kmh 29.35 in993.9 mb 0.00 in0.0 mm 0.00 in0.0 mm 0.00 in0.0 mm
08:55 AM 68.6°F20.3°C 46.4°F8.0°C 45% 4.0 mph ESE6.4 kmh ESE 4.0 mph6.4 kmh 29.35 in993.9 mb 0.00 in0.0 mm 0.00 in0.0 mm 0.00 in0.0 mm
08:56 AM 68.5°F20.3°C 46.3°F7.9°C 45% 2.0 mph ESE3.2 kmh ESE 6.0 mph9.7 kmh 29.35 in993.9 mb 0.00 in0.0 mm 0.00 in0.0 mm 0.00 in0.0 mm
08:57 AM 68.5°F20.3°C 46.9°F8.3°C 46% 2.0 mph NE3.2 kmh NE 6.0 mph9.7 kmh 29.35 in993.9 mb 0.00 in0.0 mm 0.00 in0.0 mm 0.00 in0.0 mm
08:58 AM 68.5°F20.3°C 46.9°F8.3°C 46% 4.0 mph E6.4 kmh E 6.0 mph9.7 kmh 29.35 in993.9 mb 0.00 in0.0 mm 0.00 in0.0 mm 0.00 in0.0 mm
08:59 AM 68.5°F20.3°C 46.3°F7.9°C 45% 4.0 mph ENE6.4 kmh ENE 6.0 mph9.7 kmh 29.35 in993.9 mb 0.00 in0.0 mm 0.00 in0.0 mm 0.00 in0.0 mm
09:00 AM 68.5°F20.3°C 46.3°F7.9°C 45% Calm Calm 6.0 mph9.7 kmh 29.35 in993.9 mb 0.00 in0.0 mm 0.00 in0.0 mm 0.00 in0.0 mm
09:01 AM 68.5°F20.3°C 46.9°F8.3°C 46% Calm Calm 6.0 mph9.7 kmh 29.35 in993.9 mb 0.00 in0.0 mm 0.00 in0.0 mm 0.00 in0.0 mm
09:02 AM 68.6°F20.3°C 47.0°F8.3°C 46% Calm Calm 6.0 mph9.7 kmh 29.35 in993.9 mb 0.00 in0.0 mm 0.00 in0.0 mm 0.00 in0.0 mm
09:03 AM 68.8°F20.4°C 47.2°F8.4°C 46% Calm Calm 6.0 mph9.7 kmh 29.35 in993.9 mb 0.00 in0.0 mm 0.00 in0.0 mm 0.00 in0.0 mm
09:04 AM 69.0°F20.6°C 47.3°F8.5°C 46% 3.0 mph E4.8 kmh E 6.0 mph9.7 kmh 29.35 in993.9 mb 0.00 in0.0 mm 0.00 in0.0 mm 0.00 in0.0 mm
09:05 AM 69.1°F20.6°C 46.9°F8.3°C 45% 1.0 mph SE1.6 kmh SE 5.0 mph8.0 kmh 29.35 in993.9 mb 0.00 in0.0 mm 0.00 in0.0 mm 0.00 in0.0 mm
09:06 AM 69.1°F20.6°C 46.9°F8.3°C 45% Calm Calm 5.0 mph8.0 kmh 29.35 in993.9 mb 0.00 in0.0 mm 0.00 in0.0 mm 0.00 in0.0 mm
09:07 AM 69.2°F20.7°C 46.9°F8.3°C 45% Calm Calm 4.0 mph6.4 kmh 29.35 in993.9 mb 0.00 in0.0 mm 0.00 in0.0 mm 0.00 in0.0 mm
09:08 AM 69.3°F20.7°C 47.6°F8.7°C 46% 2.0 mph NE3.2 kmh NE 4.0 mph6.4 kmh 29.35 in993.9 mb 0.00 in0.0 mm 0.00 in0.0 mm 0.00 in0.0 mm
09:09 AM 69.3°F20.7°C 47.0°F8.3°C 45% Calm Calm 5.0 mph8.0 kmh 29.35 in993.9 mb 0.00 in0.0 mm 0.00 in0.0 mm 0.00 in0.0 mm
09:10 AM 69.3°F20.7°C 47.0°F8.3°C 45% Calm Calm 5.0 mph8.0 kmh 29.35 in993.9 mb 0.00 in0.0 mm 0.00 in0.0 mm 0.00 in0.0 mm
09:11 AM 69.4°F20.8°C 47.7°F8.7°C 46% 4.0 mph ESE6.4 kmh ESE 5.0 mph8.0 kmh 29.35 in993.9 mb 0.00 in0.0 mm 0.00 in0.0 mm 0.00 in0.0 mm
09:12 AM 69.4°F20.8°C 47.1°F8.4°C 45% 1.0 mph E1.6 kmh E 5.0 mph8.0 kmh 29.35 in993.9 mb 0.00 in0.0 mm 0.00 in0.0 mm 0.00 in0.0 mm
09:13 AM 69.4°F20.8°C 47.7°F8.7°C 46% 4.0 mph E6.4 kmh E 6.0 mph9.7 kmh 29.35 in993.9 mb 0.00 in0.0 mm 0.00 in0.0 mm 0.00 in0.0 mm
09:14 AM 69.4°F20.8°C 47.7°F8.7°C 46% 4.0 mph SE6.4 kmh SE 6.0 mph9.7 kmh 29.35 in993.9 mb 0.00 in0.0 mm 0.00 in0.0 mm 0.00 in0.0 mm
09:15 AM 69.4°F20.8°C 47.7°F8.7°C 46% 2.0 mph SE3.2 kmh SE 6.0 mph9.7 kmh 29.35 in993.9 mb 0.00 in0.0 mm 0.00 in0.0 mm 0.00 in0.0 mm
09:16 AM 69.4°F20.8°C 47.7°F8.7°C 46% 4.0 mph SE6.4 kmh SE 6.0 mph9.7 kmh 29.35 in993.9 mb 0.00 in0.0 mm 0.00 in0.0 mm 0.00 in0.0 mm
09:17 AM 69.4°F20.8°C 47.1°F8.4°C 45% 2.0 mph SE3.2 kmh SE 6.0 mph9.7 kmh 29.35 in993.9 mb 0.00 in0.0 mm 0.00 in0.0 mm 0.00 in0.0 mm
09:18 AM 69.4°F20.8°C 47.7°F8.7°C 46% 3.0 mph SE4.8 kmh SE 6.0 mph9.7 kmh 29.35 in993.9 mb 0.00 in0.0 mm 0.00 in0.0 mm 0.00 in0.0 mm
09:19 AM 69.4°F20.8°C 47.7°F8.7°C 46% 4.0 mph ESE6.4 kmh ESE 6.0 mph9.7 kmh 29.35 in993.9 mb 0.00 in0.0 mm 0.00 in0.0 mm 0.00 in0.0 mm
09:20 AM 69.4°F20.8°C 47.7°F8.7°C 46% 4.0 mph SE6.4 kmh SE 6.0 mph9.7 kmh 29.35 in993.9 mb 0.00 in0.0 mm 0.00 in0.0 mm 0.00 in0.0 mm
09:21 AM 69.4°F20.8°C 47.1°F8.4°C 45% 4.0 mph SE6.4 kmh SE 6.0 mph9.7 kmh 29.34 in993.6 mb 0.00 in0.0 mm 0.00 in0.0 mm 0.00 in0.0 mm
09:22 AM 69.4°F20.8°C 47.1°F8.4°C 45% 3.0 mph ESE4.8 kmh ESE 8.0 mph12.9 kmh 29.35 in993.9 mb 0.00 in0.0 mm 0.00 in0.0 mm 0.00 in0.0 mm
09:23 AM 69.4°F20.8°C 47.1°F8.4°C 45% 5.0 mph ESE8.0 kmh ESE 8.0 mph12.9 kmh 29.35 in993.9 mb 0.00 in0.0 mm 0.00 in0.0 mm 0.00 in0.0 mm
09:24 AM 69.4°F20.8°C 47.1°F8.4°C 45% 6.0 mph E9.7 kmh E 8.0 mph12.9 kmh 29.34 in993.6 mb 0.00 in0.0 mm 0.00 in0.0 mm 0.00 in0.0 mm
09:25 AM 69.4°F20.8°C 47.1°F8.4°C 45% Calm Calm 8.0 mph12.9 kmh 29.34 in993.6 mb 0.00 in0.0 mm 0.00 in0.0 mm 0.00 in0.0 mm
09:26 AM 69.4°F20.8°C 47.7°F8.7°C 46% 3.0 mph ESE4.8 kmh ESE 8.0 mph12.9 kmh 29.35 in993.9 mb 0.00 in0.0 mm 0.00 in0.0 mm 0.00 in0.0 mm
09:27 AM 69.4°F20.8°C 47.7°F8.7°C 46% 4.0 mph ENE6.4 kmh ENE 8.0 mph12.9 kmh 29.34 in993.6 mb 0.00 in0.0 mm 0.00 in0.0 mm 0.00 in0.0 mm
09:28 AM 69.5°F20.8°C 47.8°F8.8°C 46% 2.0 mph E3.2 kmh E 8.0 mph12.9 kmh 29.34 in993.6 mb 0.00 in0.0 mm 0.00 in0.0 mm 0.00 in0.0 mm
09:29 AM 69.5°F20.8°C 47.2°F8.4°C 45% 2.0 mph SE3.2 kmh SE 8.0 mph12.9 kmh 29.34 in993.6 mb 0.00 in0.0 mm 0.00 in0.0 mm 0.00 in0.0 mm
09:30 AM 69.6°F20.9°C 47.3°F8.5°C 45% 1.0 mph SE1.6 kmh SE 6.0 mph9.7 kmh 29.34 in993.6 mb 0.00 in0.0 mm 0.00 in0.0 mm 0.00 in0.0 mm
09:31 AM 69.6°F20.9°C 47.3°F8.5°C 45% 1.0 mph E1.6 kmh E 6.0 mph9.7 kmh 29.34 in993.6 mb 0.00 in0.0 mm 0.00 in0.0 mm 0.00 in0.0 mm
09:32 AM 69.7°F20.9°C 48.0°F8.9°C 46% Calm Calm 6.0 mph9.7 kmh 29.34 in993.6 mb 0.00 in0.0 mm 0.00 in0.0 mm 0.00 in0.0 mm
09:33 AM 69.8°F21.0°C 47.5°F8.6°C 45% 1.0 mph E1.6 kmh E 6.0 mph9.7 kmh 29.34 in993.6 mb 0.00 in0.0 mm 0.00 in0.0 mm 0.00 in0.0 mm
09:34 AM 69.9°F21.1°C 47.6°F8.7°C 45% Calm Calm 6.0 mph9.7 kmh 29.34 in993.6 mb 0.00 in0.0 mm 0.00 in0.0 mm 0.00 in0.0 mm
09:35 AM 70.0°F21.1°C 47.7°F8.7°C 45% Calm Calm 6.0 mph9.7 kmh 29.34 in993.6 mb 0.00 in0.0 mm 0.00 in0.0 mm 0.00 in0.0 mm
09:36 AM 70.1°F21.2°C 47.8°F8.8°C 45% 5.0 mph ESE8.0 kmh ESE 6.0 mph9.7 kmh 29.34 in993.6 mb 0.00 in0.0 mm 0.00 in0.0 mm 0.00 in0.0 mm
09:37 AM 70.1°F21.2°C 47.2°F8.4°C 44% Calm Calm 6.0 mph9.7 kmh 29.34 in993.6 mb 0.00 in0.0 mm 0.00 in0.0 mm 0.00 in0.0 mm
09:38 AM 70.1°F21.2°C 47.8°F8.8°C 45% 5.0 mph E8.0 kmh E 6.0 mph9.7 kmh 29.34 in993.6 mb 0.00 in0.0 mm 0.00 in0.0 mm 0.00 in0.0 mm
09:39 AM 70.2°F21.2°C 47.9°F8.8°C 45% Calm Calm 6.0 mph9.7 kmh 29.34 in993.6 mb 0.00 in0.0 mm 0.00 in0.0 mm 0.00 in0.0 mm
09:40 AM 70.4°F21.3°C 48.0°F8.9°C 45% 1.0 mph E1.6 kmh E 6.0 mph9.7 kmh 29.34 in993.6 mb 0.00 in0.0 mm 0.00 in0.0 mm 0.00 in0.0 mm
09:41 AM 70.5°F21.4°C 47.5°F8.6°C 44% Calm Calm 6.0 mph9.7 kmh 29.34 in993.6 mb 0.00 in0.0 mm 0.00 in0.0 mm 0.00 in0.0 mm
09:42 AM 70.5°F21.4°C 47.5°F8.6°C 44% Calm Calm 6.0 mph9.7 kmh 29.34 in993.6 mb 0.00 in0.0 mm 0.00 in0.0 mm 0.00 in0.0 mm
09:43 AM 70.7°F21.5°C 47.7°F8.7°C 44% 2.0 mph ENE3.2 kmh ENE 6.0 mph9.7 kmh 29.34 in993.6 mb 0.00 in0.0 mm 0.00 in0.0 mm 0.00 in0.0 mm
09:44 AM 70.7°F21.5°C 47.7°F8.7°C 44% 5.0 mph E8.0 kmh E 6.0 mph9.7 kmh 29.34 in993.6 mb 0.00 in0.0 mm 0.00 in0.0 mm 0.00 in0.0 mm
09:45 AM 70.6°F21.4°C 47.6°F8.7°C 44% 2.0 mph ESE3.2 kmh ESE 6.0 mph9.7 kmh 29.34 in993.6 mb 0.00 in0.0 mm 0.00 in0.0 mm 0.00 in0.0 mm
09:46 AM 70.6°F21.4°C 47.0°F8.3°C 43% 1.0 mph SE1.6 kmh SE 6.0 mph9.7 kmh 29.34 in993.6 mb 0.00 in0.0 mm 0.00 in0.0 mm 0.00 in0.0 mm
09:47 AM 70.5°F21.4°C 46.9°F8.3°C 43% 2.0 mph E3.2 kmh E 6.0 mph9.7 kmh 29.34 in993.6 mb 0.00 in0.0 mm 0.00 in0.0 mm 0.00 in0.0 mm
09:48 AM 70.5°F21.4°C 47.5°F8.6°C 44% 1.0 mph ESE1.6 kmh ESE 6.0 mph9.7 kmh 29.34 in993.6 mb 0.00 in0.0 mm 0.00 in0.0 mm 0.00 in0.0 mm
09:49 AM 70.5°F21.4°C 47.5°F8.6°C 44% 2.0 mph ESE3.2 kmh ESE 6.0 mph9.7 kmh 29.34 in993.6 mb 0.00 in0.0 mm 0.00 in0.0 mm 0.00 in0.0 mm
09:50 AM 70.6°F21.4°C 47.6°F8.7°C 44% 1.0 mph SE1.6 kmh SE 6.0 mph9.7 kmh 29.34 in993.6 mb 0.00 in0.0 mm 0.00 in0.0 mm 0.00 in0.0 mm
09:51 AM 70.7°F21.5°C 47.1°F8.4°C 43% Calm Calm 6.0 mph9.7 kmh 29.34 in993.6 mb 0.00 in0.0 mm 0.00 in0.0 mm 0.00 in0.0 mm
09:52 AM 70.9°F21.6°C 47.9°F8.8°C 44% Calm Calm 6.0 mph9.7 kmh 29.34 in993.6 mb 0.00 in0.0 mm 0.00 in0.0 mm 0.00 in0.0 mm
09:53 AM 71.0°F21.7°C 48.0°F8.9°C 44% 2.0 mph E3.2 kmh E 6.0 mph9.7 kmh 29.34 in993.6 mb 0.00 in0.0 mm 0.00 in0.0 mm 0.00 in0.0 mm
09:54 AM 71.2°F21.8°C 48.2°F9.0°C 44% 2.0 mph E3.2 kmh E 6.0 mph9.7 kmh 29.33 in993.2 mb 0.00 in0.0 mm 0.00 in0.0 mm 0.00 in0.0 mm
09:55 AM 71.3°F21.8°C 47.6°F8.7°C 43% 1.0 mph ENE1.6 kmh ENE 4.0 mph6.4 kmh 29.34 in993.6 mb 0.00 in0.0 mm 0.00 in0.0 mm 0.00 in0.0 mm
09:56 AM 71.4°F21.9°C 47.7°F8.7°C 43% Calm Calm 4.0 mph6.4 kmh 29.33 in993.2 mb 0.00 in0.0 mm 0.00 in0.0 mm 0.00 in0.0 mm
09:57 AM 71.5°F21.9°C 47.8°F8.8°C 43% 3.0 mph SE4.8 kmh SE 4.0 mph6.4 kmh 29.33 in993.2 mb 0.00 in0.0 mm 0.00 in0.0 mm 0.00 in0.0 mm
09:58 AM 71.5°F21.9°C 47.2°F8.4°C 42% Calm Calm 4.0 mph6.4 kmh 29.33 in993.2 mb 0.00 in0.0 mm 0.00 in0.0 mm 0.00 in0.0 mm
09:59 AM 71.6°F22.0°C 47.9°F8.8°C 43% Calm Calm 4.0 mph6.4 kmh 29.34 in993.6 mb 0.00 in0.0 mm 0.00 in0.0 mm 0.00 in0.0 mm
10:00 AM 71.7°F22.1°C 48.0°F8.9°C 43% 2.0 mph S3.2 kmh S 4.0 mph6.4 kmh 29.33 in993.2 mb 0.00 in0.0 mm 0.00 in0.0 mm 0.00 in0.0 mm
10:01 AM 71.8°F22.1°C 48.1°F8.9°C 43% Calm Calm 4.0 mph6.4 kmh 29.33 in993.2 mb 0.00 in0.0 mm 0.00 in0.0 mm 0.00 in0.0 mm
10:02 AM 72.0°F22.2°C 48.3°F9.1°C 43% 2.0 mph E3.2 kmh E 4.0 mph6.4 kmh 29.33 in993.2 mb 0.00 in0.0 mm 0.00 in0.0 mm 0.00 in0.0 mm
10:03 AM 72.1°F22.3°C 47.1°F8.4°C 41% Calm Calm 4.0 mph6.4 kmh 29.33 in993.2 mb 0.00 in0.0 mm 0.00 in0.0 mm 0.00 in0.0 mm
10:04 AM 72.2°F22.3°C 47.8°F8.8°C 42% 5.0 mph ESE8.0 kmh ESE 5.0 mph8.0 kmh 29.33 in993.2 mb 0.00 in0.0 mm 0.00 in0.0 mm 0.00 in0.0 mm
10:05 AM 72.1°F22.3°C 47.1°F8.4°C 41% 2.0 mph ESE3.2 kmh ESE 5.0 mph8.0 kmh 29.33 in993.2 mb 0.00 in0.0 mm 0.00 in0.0 mm 0.00 in0.0 mm
10:06 AM 72.1°F22.3°C 47.1°F8.4°C 41% 1.0 mph SE1.6 kmh SE 5.0 mph8.0 kmh 29.33 in993.2 mb 0.00 in0.0 mm 0.00 in0.0 mm 0.00 in0.0 mm
10:07 AM 72.1°F22.3°C 47.1°F8.4°C 41% Calm Calm 5.0 mph8.0 kmh 29.33 in993.2 mb 0.00 in0.0 mm 0.00 in0.0 mm 0.00 in0.0 mm
10:08 AM 72.1°F22.3°C 47.7°F8.7°C 42% Calm Calm 5.0 mph8.0 kmh 29.33 in993.2 mb 0.00 in0.0 mm 0.00 in0.0 mm 0.00 in0.0 mm
10:09 AM 72.3°F22.4°C 47.9°F8.8°C 42% 1.0 mph E1.6 kmh E 5.0 mph8.0 kmh 29.33 in993.2 mb 0.00 in0.0 mm 0.00 in0.0 mm 0.00 in0.0 mm
10:10 AM 72.4°F22.4°C 48.0°F8.9°C 42% 3.0 mph ESE4.8 kmh ESE 5.0 mph8.0 kmh 29.33 in993.2 mb 0.00 in0.0 mm 0.00 in0.0 mm 0.00 in0.0 mm
10:11 AM 72.5°F22.5°C 47.4°F8.6°C 41% Calm Calm 5.0 mph8.0 kmh 29.33 in993.2 mb 0.00 in0.0 mm 0.00 in0.0 mm 0.00 in0.0 mm
10:12 AM 72.6°F22.6°C 47.5°F8.6°C 41% Calm Calm 5.0 mph8.0 kmh 29.33 in993.2 mb 0.00 in0.0 mm 0.00 in0.0 mm 0.00 in0.0 mm
10:13 AM 72.7°F22.6°C 48.3°F9.1°C 42% 1.0 mph E1.6 kmh E 4.0 mph6.4 kmh 29.33 in993.2 mb 0.00 in0.0 mm 0.00 in0.0 mm 0.00 in0.0 mm
10:14 AM 72.8°F22.7°C 47.7°F8.7°C 41% Calm Calm 3.0 mph4.8 kmh 29.33 in993.2 mb 0.00 in0.0 mm 0.00 in0.0 mm 0.00 in0.0 mm
10:15 AM 72.9°F22.7°C 47.8°F8.8°C 41% Calm Calm 3.0 mph4.8 kmh 29.33 in993.2 mb 0.00 in0.0 mm 0.00 in0.0 mm 0.00 in0.0 mm
10:16 AM 73.2°F22.9°C 48.7°F9.3°C 42% 2.0 mph ESE3.2 kmh ESE 5.0 mph8.0 kmh 29.33 in993.2 mb 0.00 in0.0 mm 0.00 in0.0 mm 0.00 in0.0 mm
10:17 AM 73.3°F22.9°C 48.2°F9.0°C 41% Calm Calm 5.0 mph8.0 kmh 29.33 in993.2 mb 0.00 in0.0 mm 0.00 in0.0 mm 0.00 in0.0 mm
10:18 AM 73.4°F23.0°C 48.3°F9.1°C 41% 2.0 mph SE3.2 kmh SE 5.0 mph8.0 kmh 29.33 in993.2 mb 0.00 in0.0 mm 0.00 in0.0 mm 0.00 in0.0 mm
10:19 AM 73.6°F23.1°C 47.8°F8.8°C 40% Calm Calm 5.0 mph8.0 kmh 29.33 in993.2 mb 0.00 in0.0 mm 0.00 in0.0 mm 0.00 in0.0 mm
10:20 AM 73.7°F23.2°C 47.9°F8.8°C 40% Calm Calm 5.0 mph8.0 kmh 29.33 in993.2 mb 0.00 in0.0 mm 0.00 in0.0 mm 0.00 in0.0 mm
10:21 AM 73.9°F23.3°C 48.0°F8.9°C 40% Calm Calm 5.0 mph8.0 kmh 29.33 in993.2 mb 0.00 in0.0 mm 0.00 in0.0 mm 0.00 in0.0 mm
10:22 AM 74.1°F23.4°C 48.2°F9.0°C 40% 2.0 mph ENE3.2 kmh ENE 5.0 mph8.0 kmh 29.33 in993.2 mb 0.00 in0.0 mm 0.00 in0.0 mm 0.00 in0.0 mm
10:23 AM 74.2°F23.4°C 47.6°F8.7°C 39% 2.0 mph E3.2 kmh E 5.0 mph8.0 kmh 29.33 in993.2 mb 0.00 in0.0 mm 0.00 in0.0 mm 0.00 in0.0 mm
10:24 AM 74.2°F23.4°C 46.9°F8.3°C 38% 3.0 mph E4.8 kmh E 5.0 mph8.0 kmh 29.33 in993.2 mb 0.00 in0.0 mm 0.00 in0.0 mm 0.00 in0.0 mm
10:25 AM 74.1°F23.4°C 46.9°F8.3°C 38% 1.0 mph NE1.6 kmh NE 4.0 mph6.4 kmh 29.33 in993.2 mb 0.00 in0.0 mm 0.00 in0.0 mm 0.00 in0.0 mm
10:26 AM 74.0°F23.3°C 47.5°F8.6°C 39% 1.0 mph ESE1.6 kmh ESE 4.0 mph6.4 kmh 29.33 in993.2 mb 0.00 in0.0 mm 0.00 in0.0 mm 0.00 in0.0 mm
10:27 AM 74.0°F23.3°C 46.8°F8.2°C 38% Calm Calm 4.0 mph6.4 kmh 29.33 in993.2 mb 0.00 in0.0 mm 0.00 in0.0 mm 0.00 in0.0 mm
10:28 AM 74.0°F23.3°C 47.5°F8.6°C 39% Calm Calm 4.0 mph6.4 kmh 29.33 in993.2 mb 0.00 in0.0 mm 0.00 in0.0 mm 0.00 in0.0 mm
10:29 AM 74.1°F23.4°C 48.2°F9.0°C 40% Calm Calm 4.0 mph6.4 kmh 29.33 in993.2 mb 0.00 in0.0 mm 0.00 in0.0 mm 0.00 in0.0 mm
10:30 AM 74.3°F23.5°C 47.7°F8.7°C 39% Calm Calm 4.0 mph6.4 kmh 29.33 in993.2 mb 0.00 in0.0 mm 0.00 in0.0 mm 0.00 in0.0 mm
10:31 AM 74.5°F23.6°C 47.2°F8.4°C 38% Calm Calm 4.0 mph6.4 kmh 29.33 in993.2 mb 0.00 in0.0 mm 0.00 in0.0 mm 0.00 in0.0 mm
10:32 AM 74.8°F23.8°C 47.5°F8.6°C 38% Calm Calm 4.0 mph6.4 kmh 29.33 in993.2 mb 0.00 in0.0 mm 0.00 in0.0 mm 0.00 in0.0 mm
10:33 AM 75.1°F23.9°C 47.7°F8.7°C 38% Calm Calm 4.0 mph6.4 kmh 29.33 in993.2 mb 0.00 in0.0 mm 0.00 in0.0 mm 0.00 in0.0 mm
10:34 AM 75.4°F24.1°C 47.3°F8.5°C 37% 1.0 mph SSE1.6 kmh SSE 3.0 mph4.8 kmh 29.33 in993.2 mb 0.00 in0.0 mm 0.00 in0.0 mm 0.00 in0.0 mm
10:35 AM 75.6°F24.2°C 47.5°F8.6°C 37% 2.0 mph WSW3.2 kmh WSW 4.0 mph6.4 kmh 29.33 in993.2 mb 0.00 in0.0 mm 0.00 in0.0 mm 0.00 in0.0 mm
10:36 AM 75.5°F24.2°C 47.4°F8.6°C 37% 3.0 mph SW4.8 kmh SW 4.0 mph6.4 kmh 29.33 in993.2 mb 0.00 in0.0 mm 0.00 in0.0 mm 0.00 in0.0 mm
10:37 AM 75.3°F24.1°C 47.2°F8.4°C 37% 2.0 mph WSW3.2 kmh WSW 4.0 mph6.4 kmh 29.33 in993.2 mb 0.00 in0.0 mm 0.00 in0.0 mm 0.00 in0.0 mm
10:38 AM 75.1°F23.9°C 47.7°F8.7°C 38% 5.0 mph WSW8.0 kmh WSW 5.0 mph8.0 kmh 29.33 in993.2 mb 0.00 in0.0 mm 0.00 in0.0 mm 0.00 in0.0 mm
10:39 AM 74.8°F23.8°C 46.8°F8.2°C 37% 3.0 mph WSW4.8 kmh WSW 6.0 mph9.7 kmh 29.33 in993.2 mb 0.00 in0.0 mm 0.00 in0.0 mm 0.00 in0.0 mm
10:40 AM 74.6°F23.7°C 47.3°F8.5°C 38% Calm Calm 6.0 mph9.7 kmh 29.33 in993.2 mb 0.00 in0.0 mm 0.00 in0.0 mm 0.00 in0.0 mm
10:41 AM 74.6°F23.7°C 47.3°F8.5°C 38% 2.0 mph ESE3.2 kmh ESE 6.0 mph9.7 kmh 29.33 in993.2 mb 0.00 in0.0 mm 0.00 in0.0 mm 0.00 in0.0 mm
10:42 AM 74.5°F23.6°C 47.2°F8.4°C 38% 2.0 mph WSW3.2 kmh WSW 6.0 mph9.7 kmh 29.33 in993.2 mb 0.00 in0.0 mm 0.00 in0.0 mm 0.00 in0.0 mm
10:43 AM 74.6°F23.7°C 47.3°F8.5°C 38% 2.0 mph SW3.2 kmh SW 6.0 mph9.7 kmh 29.32 in992.9 mb 0.00 in0.0 mm 0.00 in0.0 mm 0.00 in0.0 mm
10:44 AM 74.7°F23.7°C 47.4°F8.6°C 38% 4.0 mph SW6.4 kmh SW 6.0 mph9.7 kmh 29.32 in992.9 mb 0.00 in0.0 mm 0.00 in0.0 mm 0.00 in0.0 mm
10:45 AM 74.8°F23.8°C 46.8°F8.2°C 37% 3.0 mph SW4.8 kmh SW 6.0 mph9.7 kmh 29.32 in992.9 mb 0.00 in0.0 mm 0.00 in0.0 mm 0.00 in0.0 mm
10:46 AM 74.8°F23.8°C 46.8°F8.2°C 37% 4.0 mph SSW6.4 kmh SSW 6.0 mph9.7 kmh 29.32 in992.9 mb 0.00 in0.0 mm 0.00 in0.0 mm 0.00 in0.0 mm
10:47 AM 74.9°F23.8°C 46.1°F7.8°C 36% 3.0 mph S4.8 kmh S 6.0 mph9.7 kmh 29.32 in992.9 mb 0.00 in0.0 mm 0.00 in0.0 mm 0.00 in0.0 mm
10:48 AM 74.9°F23.8°C 46.1°F7.8°C 36% Calm Calm 6.0 mph9.7 kmh 29.32 in992.9 mb 0.00 in0.0 mm 0.00 in0.0 mm 0.00 in0.0 mm
10:49 AM 75.0°F23.9°C 46.9°F8.3°C 37% Calm Calm 6.0 mph9.7 kmh 29.32 in992.9 mb 0.00 in0.0 mm 0.00 in0.0 mm 0.00 in0.0 mm
10:50 AM 75.1°F23.9°C 47.0°F8.3°C 37% Calm Calm 6.0 mph9.7 kmh 29.32 in992.9 mb 0.00 in0.0 mm 0.00 in0.0 mm 0.00 in0.0 mm
10:51 AM 75.3°F24.1°C 47.2°F8.4°C 37% 2.0 mph SE3.2 kmh SE 6.0 mph9.7 kmh 29.32 in992.9 mb 0.00 in0.0 mm 0.00 in0.0 mm 0.00 in0.0 mm
10:52 AM 75.4°F24.1°C 46.6°F8.1°C 36% 2.0 mph SE3.2 kmh SE 6.0 mph9.7 kmh 29.32 in992.9 mb 0.00 in0.0 mm 0.00 in0.0 mm 0.00 in0.0 mm
10:53 AM 75.5°F24.2°C 45.9°F7.7°C 35% Calm Calm 6.0 mph9.7 kmh 29.32 in992.9 mb 0.00 in0.0 mm 0.00 in0.0 mm 0.00 in0.0 mm
10:54 AM 75.5°F24.2°C 45.9°F7.7°C 35% 3.0 mph ESE4.8 kmh ESE 6.0 mph9.7 kmh 29.32 in992.9 mb 0.00 in0.0 mm 0.00 in0.0 mm 0.00 in0.0 mm
10:55 AM 75.5°F24.2°C 45.9°F7.7°C 35% 2.0 mph SE3.2 kmh SE 6.0 mph9.7 kmh 29.32 in992.9 mb 0.00 in0.0 mm 0.00 in0.0 mm 0.00 in0.0 mm
10:56 AM 75.5°F24.2°C 45.9°F7.7°C 35% Calm Calm 5.0 mph8.0 kmh 29.32 in992.9 mb 0.00 in0.0 mm 0.00 in0.0 mm 0.00 in0.0 mm
10:57 AM 75.5°F24.2°C 45.9°F7.7°C 35% Calm Calm 4.0 mph6.4 kmh 29.32 in992.9 mb 0.00 in0.0 mm 0.00 in0.0 mm 0.00 in0.0 mm
10:58 AM 75.7°F24.3°C 46.8°F8.2°C 36% Calm Calm 4.0 mph6.4 kmh 29.32 in992.9 mb 0.00 in0.0 mm 0.00 in0.0 mm 0.00 in0.0 mm
10:59 AM 75.8°F24.3°C 46.2°F7.9°C 35% 3.0 mph ESE4.8 kmh ESE 4.0 mph6.4 kmh 29.32 in992.9 mb 0.00 in0.0 mm 0.00 in0.0 mm 0.00 in0.0 mm
11:00 AM 76.0°F24.4°C 46.4°F8.0°C 35% 4.0 mph E6.4 kmh E 6.0 mph9.7 kmh 29.32 in992.9 mb 0.00 in0.0 mm 0.00 in0.0 mm 0.00 in0.0 mm
11:01 AM 75.9°F24.4°C 46.3°F7.9°C 35% 3.0 mph ESE4.8 kmh ESE 6.0 mph9.7 kmh 29.32 in992.9 mb 0.00 in0.0 mm 0.00 in0.0 mm 0.00 in0.0 mm
11:02 AM 75.7°F24.3°C 45.3°F7.4°C 34% Calm Calm 6.0 mph9.7 kmh 29.32 in992.9 mb 0.00 in0.0 mm 0.00 in0.0 mm 0.00 in0.0 mm
11:03 AM 75.6°F24.2°C 46.0°F7.8°C 35% 3.0 mph ESE4.8 kmh ESE 6.0 mph9.7 kmh 29.32 in992.9 mb 0.00 in0.0 mm 0.00 in0.0 mm 0.00 in0.0 mm
11:04 AM 75.6°F24.2°C 46.0°F7.8°C 35% Calm Calm 6.0 mph9.7 kmh 29.32 in992.9 mb 0.00 in0.0 mm 0.00 in0.0 mm 0.00 in0.0 mm
11:05 AM 75.5°F24.2°C 45.2°F7.3°C 34% 1.0 mph NNW1.6 kmh NNW 6.0 mph9.7 kmh 29.32 in992.9 mb 0.00 in0.0 mm 0.00 in0.0 mm 0.00 in0.0 mm
11:06 AM 75.6°F24.2°C 45.2°F7.3°C 34% Calm Calm 6.0 mph9.7 kmh 29.32 in992.9 mb 0.00 in0.0 mm 0.00 in0.0 mm 0.00 in0.0 mm
11:07 AM 75.6°F24.2°C 46.0°F7.8°C 35% Calm Calm 6.0 mph9.7 kmh 29.32 in992.9 mb 0.00 in0.0 mm 0.00 in0.0 mm 0.00 in0.0 mm
11:08 AM 75.8°F24.3°C 46.2°F7.9°C 35% Calm Calm 6.0 mph9.7 kmh 29.32 in992.9 mb 0.00 in0.0 mm 0.00 in0.0 mm 0.00 in0.0 mm
11:09 AM 76.0°F24.4°C 45.6°F7.6°C 34% Calm Calm 6.0 mph9.7 kmh 29.32 in992.9 mb 0.00 in0.0 mm 0.00 in0.0 mm 0.00 in0.0 mm
11:10 AM 76.2°F24.6°C 45.8°F7.7°C 34% 3.0 mph SE4.8 kmh SE 6.0 mph9.7 kmh 29.32 in992.9 mb 0.00 in0.0 mm 0.00 in0.0 mm 0.00 in0.0 mm
11:11 AM 76.4°F24.7°C 45.9°F7.7°C 34% 1.0 mph SSW1.6 kmh SSW 6.0 mph9.7 kmh 29.32 in992.9 mb 0.00 in0.0 mm 0.00 in0.0 mm 0.00 in0.0 mm
11:12 AM 76.7°F24.8°C 46.2°F7.9°C 34% 5.0 mph SE8.0 kmh SE 7.0 mph11.3 kmh 29.32 in992.9 mb 0.00 in0.0 mm 0.00 in0.0 mm 0.00 in0.0 mm
11:13 AM 76.8°F24.9°C 47.1°F8.4°C 35% 5.0 mph SSW8.0 kmh SSW 8.0 mph12.9 kmh 29.32 in992.9 mb 0.00 in0.0 mm 0.00 in0.0 mm 0.00 in0.0 mm
11:14 AM 76.9°F24.9°C 45.6°F7.6°C 33% 2.0 mph SSE3.2 kmh SSE 9.0 mph14.5 kmh 29.32 in992.9 mb 0.00 in0.0 mm 0.00 in0.0 mm 0.00 in0.0 mm
11:15 AM 76.9°F24.9°C 45.6°F7.6°C 33% 4.0 mph WSW6.4 kmh WSW 9.0 mph14.5 kmh 29.32 in992.9 mb 0.00 in0.0 mm 0.00 in0.0 mm 0.00 in0.0 mm
11:16 AM 77.0°F25.0°C 44.9°F7.2°C 32% 8.0 mph WSW12.9 kmh WSW 11.0 mph17.7 kmh 29.31 in992.6 mb 0.00 in0.0 mm 0.00 in0.0 mm 0.00 in0.0 mm
11:17 AM 77.1°F25.1°C 45.0°F7.2°C 32% 9.0 mph W14.5 kmh W 11.0 mph17.7 kmh 29.31 in992.6 mb 0.00 in0.0 mm 0.00 in0.0 mm 0.00 in0.0 mm
11:18 AM 77.3°F25.2°C 45.1°F7.3°C 32% 5.0 mph W8.0 kmh W 11.0 mph17.7 kmh 29.32 in992.9 mb 0.00 in0.0 mm 0.00 in0.0 mm 0.00 in0.0 mm
11:19 AM 77.4°F25.2°C 44.4°F6.9°C 31% 5.0 mph NW8.0 kmh NW 11.0 mph17.7 kmh 29.32 in992.9 mb 0.00 in0.0 mm 0.00 in0.0 mm 0.00 in0.0 mm
11:20 AM 77.4°F25.2°C 44.4°F6.9°C 31% 6.0 mph W9.7 kmh W 11.0 mph17.7 kmh 29.31 in992.6 mb 0.00 in0.0 mm 0.00 in0.0 mm 0.00 in0.0 mm
11:21 AM 77.2°F25.1°C 44.2°F6.8°C 31% 5.0 mph WSW8.0 kmh WSW 11.0 mph17.7 kmh 29.31 in992.6 mb 0.00 in0.0 mm 0.00 in0.0 mm 0.00 in0.0 mm
11:22 AM 77.2°F25.1°C 45.0°F7.2°C 32% 3.0 mph N4.8 kmh N 11.0 mph17.7 kmh 29.31 in992.6 mb 0.00 in0.0 mm 0.00 in0.0 mm 0.00 in0.0 mm
11:23 AM 77.2°F25.1°C 45.0°F7.2°C 32% 2.0 mph NNW3.2 kmh NNW 11.0 mph17.7 kmh 29.31 in992.6 mb 0.00 in0.0 mm 0.00 in0.0 mm 0.00 in0.0 mm
11:24 AM 77.2°F25.1°C 45.0°F7.2°C 32% 4.0 mph W6.4 kmh W 11.0 mph17.7 kmh 29.31 in992.6 mb 0.00 in0.0 mm 0.00 in0.0 mm 0.00 in0.0 mm
11:25 AM 77.3°F25.2°C 45.1°F7.3°C 32% Calm Calm 11.0 mph17.7 kmh 29.31 in992.6 mb 0.00 in0.0 mm 0.00 in0.0 mm 0.00 in0.0 mm
11:26 AM 77.4°F25.2°C 44.4°F6.9°C 31% Calm Calm 11.0 mph17.7 kmh 29.31 in992.6 mb 0.00 in0.0 mm 0.00 in0.0 mm 0.00 in0.0 mm
11:27 AM 77.5°F25.3°C 44.5°F6.9°C 31% 2.0 mph NW3.2 kmh NW 10.0 mph16.1 kmh 29.31 in992.6 mb 0.00 in0.0 mm 0.00 in0.0 mm 0.00 in0.0 mm
11:28 AM 77.5°F25.3°C 44.5°F6.9°C 31% 3.0 mph W4.8 kmh W 7.0 mph11.3 kmh 29.31 in992.6 mb 0.00 in0.0 mm 0.00 in0.0 mm 0.00 in0.0 mm
11:29 AM 77.6°F25.3°C 44.6°F7.0°C 31% 5.0 mph W8.0 kmh W 7.0 mph11.3 kmh 29.31 in992.6 mb 0.00 in0.0 mm 0.00 in0.0 mm 0.00 in0.0 mm
11:30 AM 77.7°F25.4°C 44.6°F7.0°C 31% 2.0 mph WNW3.2 kmh WNW 6.0 mph9.7 kmh 29.31 in992.6 mb 0.00 in0.0 mm 0.00 in0.0 mm 0.00 in0.0 mm
11:31 AM 77.8°F25.4°C 43.9°F6.6°C 30% 2.0 mph SW3.2 kmh SW 7.0 mph11.3 kmh 29.31 in992.6 mb 0.00 in0.0 mm 0.00 in0.0 mm 0.00 in0.0 mm
11:32 AM 77.9°F25.5°C 44.8°F7.1°C 31% 1.0 mph NW1.6 kmh NW 7.0 mph11.3 kmh 29.31 in992.6 mb 0.00 in0.0 mm 0.00 in0.0 mm 0.00 in0.0 mm
11:33 AM 78.0°F25.6°C 44.0°F6.7°C 30% Calm Calm 7.0 mph11.3 kmh 29.31 in992.6 mb 0.00 in0.0 mm 0.00 in0.0 mm 0.00 in0.0 mm
11:34 AM 78.1°F25.6°C 44.1°F6.7°C 30% Calm Calm 7.0 mph11.3 kmh 29.31 in992.6 mb 0.00 in0.0 mm 0.00 in0.0 mm 0.00 in0.0 mm
11:35 AM 78.4°F25.8°C 45.2°F7.3°C 31% 2.0 mph E3.2 kmh E 7.0 mph11.3 kmh 29.31 in992.6 mb 0.00 in0.0 mm 0.00 in0.0 mm 0.00 in0.0 mm
11:36 AM 78.6°F25.9°C 45.4°F7.4°C 31% Calm Calm 7.0 mph11.3 kmh 29.31 in992.6 mb 0.00 in0.0 mm 0.00 in0.0 mm 0.00 in0.0 mm
11:37 AM 78.8°F26.0°C 43.8°F6.6°C 29% 1.0 mph S1.6 kmh S 7.0 mph11.3 kmh 29.31 in992.6 mb 0.00 in0.0 mm 0.00 in0.0 mm 0.00 in0.0 mm
11:38 AM 79.0°F26.1°C 43.1°F6.2°C 28% 4.0 mph WSW6.4 kmh WSW 8.0 mph12.9 kmh 29.31 in992.6 mb 0.00 in0.0 mm 0.00 in0.0 mm 0.00 in0.0 mm
11:39 AM 79.3°F26.3°C 43.3°F6.3°C 28% 3.0 mph NW4.8 kmh NW 11.0 mph17.7 kmh 29.31 in992.6 mb 0.00 in0.0 mm 0.00 in0.0 mm 0.00 in0.0 mm
11:40 AM 79.6°F26.4°C 43.6°F6.4°C 28% 4.0 mph SW6.4 kmh SW 11.0 mph17.7 kmh 29.31 in992.6 mb 0.00 in0.0 mm 0.00 in0.0 mm 0.00 in0.0 mm
11:41 AM 79.7°F26.5°C 42.7°F5.9°C 27% 3.0 mph WSW4.8 kmh WSW 11.0 mph17.7 kmh 29.31 in992.6 mb 0.00 in0.0 mm 0.00 in0.0 mm 0.00 in0.0 mm
11:42 AM 79.7°F26.5°C 41.8°F5.4°C 26% 8.0 mph W12.9 kmh W 14.0 mph22.5 kmh 29.31 in992.6 mb 0.00 in0.0 mm 0.00 in0.0 mm 0.00 in0.0 mm
11:43 AM 79.6°F26.4°C 41.7°F5.4°C 26% 10.0 mph WSW16.1 kmh WSW 14.0 mph22.5 kmh 29.31 in992.6 mb 0.00 in0.0 mm 0.00 in0.0 mm 0.00 in0.0 mm
11:44 AM 79.5°F26.4°C 41.6°F5.3°C 26% 9.0 mph WSW14.5 kmh WSW 14.0 mph22.5 kmh 29.31 in992.6 mb 0.00 in0.0 mm 0.00 in0.0 mm 0.00 in0.0 mm
11:45 AM 79.4°F26.3°C 41.5°F5.3°C 26% 11.0 mph WNW17.7 kmh WNW 14.0 mph22.5 kmh 29.31 in992.6 mb 0.00 in0.0 mm 0.00 in0.0 mm 0.00 in0.0 mm
11:46 AM 79.4°F26.3°C 41.5°F5.3°C 26% 9.0 mph W14.5 kmh W 14.0 mph22.5 kmh 29.31 in992.6 mb 0.00 in0.0 mm 0.00 in0.0 mm 0.00 in0.0 mm
11:47 AM 79.4°F26.3°C 41.5°F5.3°C 26% 14.0 mph W22.5 kmh W 16.0 mph25.7 kmh 29.31 in992.6 mb 0.00 in0.0 mm 0.00 in0.0 mm 0.00 in0.0 mm
11:48 AM 79.3°F26.3°C 42.4°F5.8°C 27% 9.0 mph W14.5 kmh W 16.0 mph25.7 kmh 29.31 in992.6 mb 0.00 in0.0 mm 0.00 in0.0 mm 0.00 in0.0 mm
11:49 AM 79.2°F26.2°C 41.3°F5.2°C 26% 8.0 mph W12.9 kmh W 16.0 mph25.7 kmh 29.31 in992.6 mb 0.00 in0.0 mm 0.00 in0.0 mm 0.00 in0.0 mm
11:50 AM 79.1°F26.2°C 41.3°F5.2°C 26% 5.0 mph W8.0 kmh W 16.0 mph25.7 kmh 29.31 in992.6 mb 0.00 in0.0 mm 0.00 in0.0 mm 0.00 in0.0 mm
11:51 AM 79.3°F26.3°C 42.4°F5.8°C 27% 5.0 mph W8.0 kmh W 16.0 mph25.7 kmh 29.31 in992.6 mb 0.00 in0.0 mm 0.00 in0.0 mm 0.00 in0.0 mm
11:52 AM 79.4°F26.3°C 42.5°F5.8°C 27% 8.0 mph W12.9 kmh W 16.0 mph25.7 kmh 29.31 in992.6 mb 0.00 in0.0 mm 0.00 in0.0 mm 0.00 in0.0 mm
11:53 AM 79.5°F26.4°C 41.6°F5.3°C 26% 3.0 mph WSW4.8 kmh WSW 16.0 mph25.7 kmh 29.31 in992.6 mb 0.00 in0.0 mm 0.00 in0.0 mm 0.00 in0.0 mm
11:54 AM 79.4°F26.3°C 41.5°F5.3°C 26% 6.0 mph W9.7 kmh W 16.0 mph25.7 kmh 29.31 in992.6 mb 0.00 in0.0 mm 0.00 in0.0 mm 0.00 in0.0 mm
11:55 AM 79.4°F26.3°C 41.5°F5.3°C 26% 4.0 mph WNW6.4 kmh WNW 16.0 mph25.7 kmh 29.31 in992.6 mb 0.00 in0.0 mm 0.00 in0.0 mm 0.00 in0.0 mm
11:56 AM 79.2°F26.2°C 41.3°F5.2°C 26% 5.0 mph WNW8.0 kmh WNW 14.0 mph22.5 kmh 29.31 in992.6 mb 0.00 in0.0 mm 0.00 in0.0 mm 0.00 in0.0 mm
11:57 AM 79.2°F26.2°C 41.3°F5.2°C 26% 4.0 mph NW6.4 kmh NW 14.0 mph22.5 kmh 29.31 in992.6 mb 0.00 in0.0 mm 0.00 in0.0 mm 0.00 in0.0 mm
11:58 AM 79.2°F26.2°C 40.3°F4.6°C 25% 6.0 mph W9.7 kmh W 14.0 mph22.5 kmh 29.31 in992.6 mb 0.00 in0.0 mm 0.00 in0.0 mm 0.00 in0.0 mm
11:59 AM 79.3°F26.3°C 42.4°F5.8°C 27% 9.0 mph WNW14.5 kmh WNW 14.0 mph22.5 kmh 29.31 in992.6 mb 0.00 in0.0 mm 0.00 in0.0 mm 0.00 in0.0 mm
12:00 PM 79.5°F26.4°C 41.6°F5.3°C 26% 6.0 mph WNW9.7 kmh WNW 14.0 mph22.5 kmh 29.31 in992.6 mb 0.00 in0.0 mm 0.00 in0.0 mm 0.00 in0.0 mm
12:01 PM 79.7°F26.5°C 41.8°F5.4°C 26% 5.0 mph WNW8.0 kmh WNW 14.0 mph22.5 kmh 29.31 in992.6 mb 0.00 in0.0 mm 0.00 in0.0 mm 0.00 in0.0 mm
12:02 PM 79.8°F26.6°C 39.8°F4.3°C 24% 7.0 mph NW11.3 kmh NW 14.0 mph22.5 kmh 29.31 in992.6 mb 0.00 in0.0 mm 0.00 in0.0 mm 0.00 in0.0 mm
12:03 PM 79.6°F26.4°C 39.6°F4.2°C 24% 5.0 mph WNW8.0 kmh WNW 14.0 mph22.5 kmh 29.31 in992.6 mb 0.00 in0.0 mm 0.00 in0.0 mm 0.00 in0.0 mm
12:04 PM 79.5°F26.4°C 40.6°F4.8°C 25% 11.0 mph WNW17.7 kmh WNW 14.0 mph22.5 kmh 29.31 in992.6 mb 0.00 in0.0 mm 0.00 in0.0 mm 0.00 in0.0 mm
12:05 PM 79.5°F26.4°C 41.6°F5.3°C 26% 4.0 mph W6.4 kmh W 14.0 mph22.5 kmh 29.31 in992.6 mb 0.00 in0.0 mm 0.00 in0.0 mm 0.00 in0.0 mm
12:06 PM 79.5°F26.4°C 41.6°F5.3°C 26% 2.0 mph WNW3.2 kmh WNW 12.0 mph19.3 kmh 29.30 in992.2 mb 0.00 in0.0 mm 0.00 in0.0 mm 0.00 in0.0 mm
12:07 PM 79.5°F26.4°C 42.6°F5.9°C 27% 8.0 mph WSW12.9 kmh WSW 12.0 mph19.3 kmh 29.30 in992.2 mb 0.00 in0.0 mm 0.00 in0.0 mm 0.00 in0.0 mm
12:08 PM 79.5°F26.4°C 40.6°F4.8°C 25% 4.0 mph WSW6.4 kmh WSW 12.0 mph19.3 kmh 29.30 in992.2 mb 0.00 in0.0 mm 0.00 in0.0 mm 0.00 in0.0 mm
12:09 PM 79.5°F26.4°C 41.6°F5.3°C 26% 7.0 mph WNW11.3 kmh WNW 12.0 mph19.3 kmh 29.30 in992.2 mb 0.00 in0.0 mm 0.00 in0.0 mm 0.00 in0.0 mm
12:10 PM 79.4°F26.3°C 41.5°F5.3°C 26% 2.0 mph WNW3.2 kmh WNW 12.0 mph19.3 kmh 29.30 in992.2 mb 0.00 in0.0 mm 0.00 in0.0 mm 0.00 in0.0 mm
12:11 PM 79.4°F26.3°C 42.5°F5.8°C 27% 3.0 mph W4.8 kmh W 12.0 mph19.3 kmh 29.30 in992.2 mb 0.00 in0.0 mm 0.00 in0.0 mm 0.00 in0.0 mm
12:12 PM 79.5°F26.4°C 41.6°F5.3°C 26% Calm Calm 12.0 mph19.3 kmh 29.30 in992.2 mb 0.00 in0.0 mm 0.00 in0.0 mm 0.00 in0.0 mm
12:13 PM 79.6°F26.4°C 41.7°F5.4°C 26% 2.0 mph WNW3.2 kmh WNW 12.0 mph19.3 kmh 29.30 in992.2 mb 0.00 in0.0 mm 0.00 in0.0 mm 0.00 in0.0 mm
12:14 PM 79.7°F26.5°C 41.8°F5.4°C 26% 8.0 mph SW12.9 kmh SW 10.0 mph16.1 kmh 29.30 in992.2 mb 0.00 in0.0 mm 0.00 in0.0 mm 0.00 in0.0 mm
12:15 PM 79.8°F26.6°C 41.8°F5.4°C 26% 6.0 mph W9.7 kmh W 12.0 mph19.3 kmh 29.30 in992.2 mb 0.00 in0.0 mm 0.00 in0.0 mm 0.00 in0.0 mm
12:16 PM 79.8°F26.6°C 40.8°F4.9°C 25% 6.0 mph WSW9.7 kmh WSW 12.0 mph19.3 kmh 29.30 in992.2 mb 0.00 in0.0 mm 0.00 in0.0 mm 0.00 in0.0 mm
12:17 PM 79.8°F26.6°C 41.8°F5.4°C 26% 11.0 mph WNW17.7 kmh WNW 16.0 mph25.7 kmh 29.30 in992.2 mb 0.00 in0.0 mm 0.00 in0.0 mm 0.00 in0.0 mm
12:18 PM 79.7°F26.5°C 41.8°F5.4°C 26% 13.0 mph W20.9 kmh W 16.0 mph25.7 kmh 29.30 in992.2 mb 0.00 in0.0 mm 0.00 in0.0 mm 0.00 in0.0 mm
12:19 PM 79.6°F26.4°C 41.7°F5.4°C 26% 6.0 mph WNW9.7 kmh WNW 16.0 mph25.7 kmh 29.30 in992.2 mb 0.00 in0.0 mm 0.00 in0.0 mm 0.00 in0.0 mm
12:20 PM 79.4°F26.3°C 41.5°F5.3°C 26% 2.0 mph NW3.2 kmh NW 16.0 mph25.7 kmh 29.30 in992.2 mb 0.00 in0.0 mm 0.00 in0.0 mm 0.00 in0.0 mm
12:21 PM 79.1°F26.2°C 41.3°F5.2°C 26% 1.0 mph E1.6 kmh E 16.0 mph25.7 kmh 29.30 in992.2 mb 0.00 in0.0 mm 0.00 in0.0 mm 0.00 in0.0 mm
12:22 PM 79.1°F26.2°C 42.2°F5.7°C 27% 2.0 mph N3.2 kmh N 16.0 mph25.7 kmh 29.30 in992.2 mb 0.00 in0.0 mm 0.00 in0.0 mm 0.00 in0.0 mm
12:23 PM 79.3°F26.3°C 41.4°F5.2°C 26% 1.0 mph NE1.6 kmh NE 16.0 mph25.7 kmh 29.30 in992.2 mb 0.00 in0.0 mm 0.00 in0.0 mm 0.00 in0.0 mm
12:24 PM 79.4°F26.3°C 40.5°F4.7°C 25% 1.0 mph N1.6 kmh N 16.0 mph25.7 kmh 29.30 in992.2 mb 0.00 in0.0 mm 0.00 in0.0 mm 0.00 in0.0 mm
12:25 PM 79.5°F26.4°C 42.6°F5.9°C 27% Calm Calm 16.0 mph25.7 kmh 29.30 in992.2 mb 0.00 in0.0 mm 0.00 in0.0 mm 0.00 in0.0 mm
12:26 PM 79.6°F26.4°C 40.7°F4.8°C 25% Calm Calm 14.0 mph22.5 kmh 29.30 in992.2 mb 0.00 in0.0 mm 0.00 in0.0 mm 0.00 in0.0 mm
12:27 PM 79.6°F26.4°C 40.7°F4.8°C 25% 2.0 mph NE3.2 kmh NE 14.0 mph22.5 kmh 29.29 in991.9 mb 0.00 in0.0 mm 0.00 in0.0 mm 0.00 in0.0 mm
12:28 PM 79.8°F26.6°C 40.8°F4.9°C 25% Calm Calm 13.0 mph20.9 kmh 29.29 in991.9 mb 0.00 in0.0 mm 0.00 in0.0 mm 0.00 in0.0 mm
12:29 PM 80.0°F26.7°C 42.0°F5.6°C 26% 2.0 mph NE3.2 kmh NE 5.0 mph8.0 kmh 29.29 in991.9 mb 0.00 in0.0 mm 0.00 in0.0 mm 0.00 in0.0 mm
12:30 PM 80.2°F26.8°C 41.2°F5.1°C 25% Calm Calm 5.0 mph8.0 kmh 29.29 in991.9 mb 0.00 in0.0 mm 0.00 in0.0 mm 0.00 in0.0 mm
12:31 PM 80.3°F26.8°C 41.3°F5.2°C 25% Calm Calm 5.0 mph8.0 kmh 29.29 in991.9 mb 0.00 in0.0 mm 0.00 in0.0 mm 0.00 in0.0 mm
12:32 PM 80.6°F27.0°C 40.5°F4.7°C 24% 8.0 mph WNW12.9 kmh WNW 11.0 mph17.7 kmh 29.29 in991.9 mb 0.00 in0.0 mm 0.00 in0.0 mm 0.00 in0.0 mm
12:33 PM 80.8°F27.1°C 38.4°F3.6°C 22% 9.0 mph WNW14.5 kmh WNW 12.0 mph19.3 kmh 29.29 in991.9 mb 0.00 in0.0 mm 0.00 in0.0 mm 0.00 in0.0 mm
12:34 PM 81.3°F27.4°C 36.4°F2.4°C 20% 9.0 mph W14.5 kmh W 13.0 mph20.9 kmh 29.29 in991.9 mb 0.00 in0.0 mm 0.00 in0.0 mm 0.00 in0.0 mm
12:35 PM 81.4°F27.4°C 36.5°F2.5°C 20% 6.0 mph WNW9.7 kmh WNW 13.0 mph20.9 kmh 29.30 in992.2 mb 0.00 in0.0 mm 0.00 in0.0 mm 0.00 in0.0 mm
12:36 PM 81.3°F27.4°C 35.1°F1.7°C 19% 4.0 mph W6.4 kmh W 13.0 mph20.9 kmh 29.29 in991.9 mb 0.00 in0.0 mm 0.00 in0.0 mm 0.00 in0.0 mm
12:37 PM 81.2°F27.3°C 36.3°F2.4°C 20% 10.0 mph W16.1 kmh W 15.0 mph24.1 kmh 29.29 in991.9 mb 0.00 in0.0 mm 0.00 in0.0 mm 0.00 in0.0 mm
12:38 PM 81.2°F27.3°C 35.0°F1.7°C 19% 7.0 mph NW11.3 kmh NW 15.0 mph24.1 kmh 29.29 in991.9 mb 0.00 in0.0 mm 0.00 in0.0 mm 0.00 in0.0 mm
12:39 PM 81.3°F27.4°C 35.1°F1.7°C 19% 12.0 mph NW19.3 kmh NW 16.0 mph25.7 kmh 29.29 in991.9 mb 0.00 in0.0 mm 0.00 in0.0 mm 0.00 in0.0 mm
12:40 PM 81.4°F27.4°C 35.2°F1.8°C 19% 10.0 mph WNW16.1 kmh WNW 16.0 mph25.7 kmh 29.29 in991.9 mb 0.00 in0.0 mm 0.00 in0.0 mm 0.00 in0.0 mm
12:41 PM 81.3°F27.4°C 35.1°F1.7°C 19% 7.0 mph NW11.3 kmh NW 16.0 mph25.7 kmh 29.29 in991.9 mb 0.00 in0.0 mm 0.00 in0.0 mm 0.00 in0.0 mm
12:42 PM 81.4°F27.4°C 36.5°F2.5°C 20% 7.0 mph NW11.3 kmh NW 16.0 mph25.7 kmh 29.29 in991.9 mb 0.00 in0.0 mm 0.00 in0.0 mm 0.00 in0.0 mm
12:43 PM 81.6°F27.6°C 36.6°F2.6°C 20% 4.0 mph NNW6.4 kmh NNW 16.0 mph25.7 kmh 29.29 in991.9 mb 0.00 in0.0 mm 0.00 in0.0 mm 0.00 in0.0 mm
12:44 PM 81.9°F27.7°C 35.6°F2.0°C 19% 1.0 mph WNW1.6 kmh WNW 16.0 mph25.7 kmh 29.29 in991.9 mb 0.00 in0.0 mm 0.00 in0.0 mm 0.00 in0.0 mm
12:45 PM 82.1°F27.8°C 35.7°F2.1°C 19% Calm Calm 16.0 mph25.7 kmh 29.29 in991.9 mb 0.00 in0.0 mm 0.00 in0.0 mm 0.00 in0.0 mm
12:46 PM 82.2°F27.9°C 35.8°F2.1°C 19% 3.0 mph NW4.8 kmh NW 16.0 mph25.7 kmh 29.29 in991.9 mb 0.00 in0.0 mm 0.00 in0.0 mm 0.00 in0.0 mm
12:47 PM 82.4°F28.0°C 37.3°F2.9°C 20% 8.0 mph W12.9 kmh W 16.0 mph25.7 kmh 29.29 in991.9 mb 0.00 in0.0 mm 0.00 in0.0 mm 0.00 in0.0 mm
12:48 PM 82.4°F28.0°C 37.3°F2.9°C 20% 8.0 mph WSW12.9 kmh WSW 15.0 mph24.1 kmh 29.29 in991.9 mb 0.00 in0.0 mm 0.00 in0.0 mm 0.00 in0.0 mm
12:49 PM 82.2°F27.9°C 35.8°F2.1°C 19% Calm Calm 14.0 mph22.5 kmh 29.29 in991.9 mb 0.00 in0.0 mm 0.00 in0.0 mm 0.00 in0.0 mm
12:50 PM 82.0°F27.8°C 35.7°F2.1°C 19% 4.0 mph SW6.4 kmh SW 14.0 mph22.5 kmh 29.29 in991.9 mb 0.00 in0.0 mm 0.00 in0.0 mm 0.00 in0.0 mm
12:51 PM 81.9°F27.7°C 36.9°F2.7°C 20% 11.0 mph WNW17.7 kmh WNW 14.0 mph22.5 kmh 29.29 in991.9 mb 0.00 in0.0 mm 0.00 in0.0 mm 0.00 in0.0 mm
12:52 PM 81.9°F27.7°C 38.1°F3.4°C 21% 12.0 mph WSW19.3 kmh WSW 14.0 mph22.5 kmh 29.28 in991.5 mb 0.00 in0.0 mm 0.00 in0.0 mm 0.00 in0.0 mm
12:53 PM 82.2°F27.9°C 37.1°F2.8°C 20% 18.0 mph WNW29.0 kmh WNW 18.0 mph29.0 kmh 29.29 in991.9 mb 0.00 in0.0 mm 0.00 in0.0 mm 0.00 in0.0 mm
12:54 PM 82.2°F27.9°C 34.5°F1.4°C 18% 19.0 mph WNW30.6 kmh WNW 19.0 mph30.6 kmh 29.29 in991.9 mb 0.00 in0.0 mm 0.00 in0.0 mm 0.00 in0.0 mm
12:55 PM 82.2°F27.9°C 34.5°F1.4°C 18% 10.0 mph WNW16.1 kmh WNW 19.0 mph30.6 kmh 29.29 in991.9 mb 0.00 in0.0 mm 0.00 in0.0 mm 0.00 in0.0 mm
12:56 PM 82.2°F27.9°C 35.8°F2.1°C 19% 10.0 mph W16.1 kmh W 19.0 mph30.6 kmh 29.29 in991.9 mb 0.00 in0.0 mm 0.00 in0.0 mm 0.00 in0.0 mm
12:57 PM 82.4°F28.0°C 36.0°F2.2°C 19% 13.0 mph NW20.9 kmh NW 19.0 mph30.6 kmh 29.29 in991.9 mb 0.00 in0.0 mm 0.00 in0.0 mm 0.00 in0.0 mm
12:58 PM 82.2°F27.9°C 34.5°F1.4°C 18% Calm Calm 19.0 mph30.6 kmh 29.29 in991.9 mb 0.00 in0.0 mm 0.00 in0.0 mm 0.00 in0.0 mm
12:59 PM 81.9°F27.7°C 34.2°F1.2°C 18% 5.0 mph WNW8.0 kmh WNW 19.0 mph30.6 kmh 29.28 in991.5 mb 0.00 in0.0 mm 0.00 in0.0 mm 0.00 in0.0 mm
01:00 PM 81.9°F27.7°C 35.6°F2.0°C 19% 7.0 mph WNW11.3 kmh WNW 19.0 mph30.6 kmh 29.28 in991.5 mb 0.00 in0.0 mm 0.00 in0.0 mm 0.00 in0.0 mm
01:01 PM 82.0°F27.8°C 35.7°F2.1°C 19% 6.0 mph NW9.7 kmh NW 19.0 mph30.6 kmh 29.28 in991.5 mb 0.00 in0.0 mm 0.00 in0.0 mm 0.00 in0.0 mm
01:02 PM 82.1°F27.8°C 34.4°F1.3°C 18% 5.0 mph WNW8.0 kmh WNW 19.0 mph30.6 kmh 29.28 in991.5 mb 0.00 in0.0 mm 0.00 in0.0 mm 0.00 in0.0 mm
01:03 PM 82.1°F27.8°C 34.4°F1.3°C 18% 4.0 mph NW6.4 kmh NW 18.0 mph29.0 kmh 29.28 in991.5 mb 0.00 in0.0 mm 0.00 in0.0 mm 0.00 in0.0 mm
01:04 PM 82.1°F27.8°C 34.4°F1.3°C 18% 12.0 mph WNW19.3 kmh WNW 15.0 mph24.1 kmh 29.28 in991.5 mb 0.00 in0.0 mm 0.00 in0.0 mm 0.00 in0.0 mm
01:05 PM 82.1°F27.8°C 34.4°F1.3°C 18% 6.0 mph WNW9.7 kmh WNW 15.0 mph24.1 kmh 29.28 in991.5 mb 0.00 in0.0 mm 0.00 in0.0 mm 0.00 in0.0 mm
01:06 PM 82.3°F27.9°C 35.9°F2.2°C 19% 6.0 mph WNW9.7 kmh WNW 15.0 mph24.1 kmh 29.28 in991.5 mb 0.00 in0.0 mm 0.00 in0.0 mm 0.00 in0.0 mm
01:07 PM 82.5°F28.1°C 34.7°F1.5°C 18% 12.0 mph NNW19.3 kmh NNW 13.0 mph20.9 kmh 29.28 in991.5 mb 0.00 in0.0 mm 0.00 in0.0 mm 0.00 in0.0 mm
01:08 PM 82.5°F28.1°C 31.8°F-0.1°C 16% 6.0 mph W9.7 kmh W 17.0 mph27.4 kmh 29.28 in991.5 mb 0.00 in0.0 mm 0.00 in0.0 mm 0.00 in0.0 mm
01:09 PM 82.5°F28.1°C 31.8°F-0.1°C 16% 10.0 mph WNW16.1 kmh WNW 17.0 mph27.4 kmh 29.28 in991.5 mb 0.00 in0.0 mm 0.00 in0.0 mm 0.00 in0.0 mm
01:10 PM 82.6°F28.1°C 33.4°F0.8°C 17% 13.0 mph W20.9 kmh W 17.0 mph27.4 kmh 29.28 in991.5 mb 0.00 in0.0 mm 0.00 in0.0 mm 0.00 in0.0 mm
01:11 PM 82.8°F28.2°C 33.5°F0.8°C 17% 13.0 mph W20.9 kmh W 17.0 mph27.4 kmh 29.28 in991.5 mb 0.00 in0.0 mm 0.00 in0.0 mm 0.00 in0.0 mm
01:12 PM 82.9°F28.3°C 32.1°F0.1°C 16% 13.0 mph WNW20.9 kmh WNW 17.0 mph27.4 kmh 29.28 in991.5 mb 0.00 in0.0 mm 0.00 in0.0 mm 0.00 in0.0 mm
01:13 PM 83.0°F28.3°C 32.2°F0.1°C 16% 10.0 mph W16.1 kmh W 22.0 mph35.4 kmh 29.28 in991.5 mb 0.00 in0.0 mm 0.00 in0.0 mm 0.00 in0.0 mm
01:14 PM 83.1°F28.4°C 33.8°F1.0°C 17% 9.0 mph WNW14.5 kmh WNW 22.0 mph35.4 kmh 29.28 in991.5 mb 0.00 in0.0 mm 0.00 in0.0 mm 0.00 in0.0 mm
01:15 PM 83.0°F28.3°C 30.6°F-0.8°C 15% 7.0 mph NW11.3 kmh NW 22.0 mph35.4 kmh 29.28 in991.5 mb 0.00 in0.0 mm 0.00 in0.0 mm 0.00 in0.0 mm
01:16 PM 82.8°F28.2°C 30.4°F-0.9°C 15% 2.0 mph NW3.2 kmh NW 22.0 mph35.4 kmh 29.28 in991.5 mb 0.00 in0.0 mm 0.00 in0.0 mm 0.00 in0.0 mm
01:17 PM 82.7°F28.2°C 33.4°F0.8°C 17% 10.0 mph WNW16.1 kmh WNW 22.0 mph35.4 kmh 29.28 in991.5 mb 0.00 in0.0 mm 0.00 in0.0 mm 0.00 in0.0 mm
01:18 PM 82.7°F28.2°C 30.3°F-0.9°C 15% 9.0 mph NW14.5 kmh NW 22.0 mph35.4 kmh 29.28 in991.5 mb 0.00 in0.0 mm 0.00 in0.0 mm 0.00 in0.0 mm
01:19 PM 82.9°F28.3°C 30.5°F-0.8°C 15% 13.0 mph NW20.9 kmh NW 22.0 mph35.4 kmh 29.28 in991.5 mb 0.00 in0.0 mm 0.00 in0.0 mm 0.00 in0.0 mm
01:20 PM 82.9°F28.3°C 30.5°F-0.8°C 15% 9.0 mph WNW14.5 kmh WNW 22.0 mph35.4 kmh 29.28 in991.5 mb 0.00 in0.0 mm 0.00 in0.0 mm 0.00 in0.0 mm
01:21 PM 82.8°F28.2°C 30.4°F-0.9°C 15% 10.0 mph W16.1 kmh W 22.0 mph35.4 kmh 29.28 in991.5 mb 0.00 in0.0 mm 0.00 in0.0 mm 0.00 in0.0 mm
01:22 PM 82.7°F28.2°C 30.3°F-0.9°C 15% 10.0 mph NW16.1 kmh NW 20.0 mph32.2 kmh 29.28 in991.5 mb 0.00 in0.0 mm 0.00 in0.0 mm 0.00 in0.0 mm
01:23 PM 82.6°F28.1°C 30.3°F-0.9°C 15% 7.0 mph WNW11.3 kmh WNW 20.0 mph32.2 kmh 29.28 in991.5 mb 0.00 in0.0 mm 0.00 in0.0 mm 0.00 in0.0 mm
01:24 PM 82.6°F28.1°C 31.8°F-0.1°C 16% 14.0 mph W22.5 kmh W 20.0 mph32.2 kmh 29.28 in991.5 mb 0.00 in0.0 mm 0.00 in0.0 mm 0.00 in0.0 mm
01:25 PM 82.7°F28.2°C 30.3°F-0.9°C 15% 16.0 mph W25.7 kmh W 20.0 mph32.2 kmh 29.28 in991.5 mb 0.00 in0.0 mm 0.00 in0.0 mm 0.00 in0.0 mm
01:26 PM 82.7°F28.2°C 30.3°F-0.9°C 15% 17.0 mph W27.4 kmh W 20.0 mph32.2 kmh 29.28 in991.5 mb 0.00 in0.0 mm 0.00 in0.0 mm 0.00 in0.0 mm
01:27 PM 82.8°F28.2°C 32.0°F0.0°C 16% 8.0 mph W12.9 kmh W 19.0 mph30.6 kmh 29.28 in991.5 mb 0.00 in0.0 mm 0.00 in0.0 mm 0.00 in0.0 mm
01:28 PM 82.9°F28.3°C 30.5°F-0.8°C 15% 13.0 mph W20.9 kmh W 22.0 mph35.4 kmh 29.27 in991.2 mb 0.00 in0.0 mm 0.00 in0.0 mm 0.00 in0.0 mm
01:29 PM 82.9°F28.3°C 30.5°F-0.8°C 15% 13.0 mph WSW20.9 kmh WSW 23.0 mph37.0 kmh 29.27 in991.2 mb 0.00 in0.0 mm 0.00 in0.0 mm 0.00 in0.0 mm
01:30 PM 82.8°F28.2°C 30.4°F-0.9°C 15% 15.0 mph NW24.1 kmh NW 23.0 mph37.0 kmh 29.28 in991.5 mb 0.00 in0.0 mm 0.00 in0.0 mm 0.00 in0.0 mm
01:31 PM 82.7°F28.2°C 31.9°F-0.1°C 16% 13.0 mph WNW20.9 kmh WNW 23.0 mph37.0 kmh 29.28 in991.5 mb 0.00 in0.0 mm 0.00 in0.0 mm 0.00 in0.0 mm
01:32 PM 82.8°F28.2°C 32.0°F0.0°C 16% 7.0 mph WSW11.3 kmh WSW 23.0 mph37.0 kmh 29.27 in991.2 mb 0.00 in0.0 mm 0.00 in0.0 mm 0.00 in0.0 mm
01:33 PM 82.8°F28.2°C 32.0°F0.0°C 16% 5.0 mph W8.0 kmh W 23.0 mph37.0 kmh 29.27 in991.2 mb 0.00 in0.0 mm 0.00 in0.0 mm 0.00 in0.0 mm
01:34 PM 83.0°F28.3°C 32.2°F0.1°C 16% 8.0 mph WSW12.9 kmh WSW 23.0 mph37.0 kmh 29.27 in991.2 mb 0.00 in0.0 mm 0.00 in0.0 mm 0.00 in0.0 mm
01:35 PM 83.2°F28.4°C 32.3°F0.2°C 16% 17.0 mph WNW27.4 kmh WNW 23.0 mph37.0 kmh 29.28 in991.5 mb 0.00 in0.0 mm 0.00 in0.0 mm 0.00 in0.0 mm
01:36 PM 83.2°F28.4°C 32.3°F0.2°C 16% 12.0 mph WSW19.3 kmh WSW 23.0 mph37.0 kmh 29.27 in991.2 mb 0.00 in0.0 mm 0.00 in0.0 mm 0.00 in0.0 mm
01:37 PM 83.1°F28.4°C 32.2°F0.1°C 16% 12.0 mph W19.3 kmh W 23.0 mph37.0 kmh 29.27 in991.2 mb 0.00 in0.0 mm 0.00 in0.0 mm 0.00 in0.0 mm
01:38 PM 83.1°F28.4°C 32.2°F0.1°C 16% 8.0 mph WNW12.9 kmh WNW 23.0 mph37.0 kmh 29.27 in991.2 mb 0.00 in0.0 mm 0.00 in0.0 mm 0.00 in0.0 mm
01:39 PM 83.2°F28.4°C 32.3°F0.2°C 16% 11.0 mph W17.7 kmh W 22.0 mph35.4 kmh 29.27 in991.2 mb 0.00 in0.0 mm 0.00 in0.0 mm 0.00 in0.0 mm
01:40 PM 83.1°F28.4°C 32.2°F0.1°C 16% 10.0 mph W16.1 kmh W 22.0 mph35.4 kmh 29.27 in991.2 mb 0.00 in0.0 mm 0.00 in0.0 mm 0.00 in0.0 mm
01:41 PM 83.0°F28.3°C 32.2°F0.1°C 16% 5.0 mph WNW8.0 kmh WNW 22.0 mph35.4 kmh 29.27 in991.2 mb 0.00 in0.0 mm 0.00 in0.0 mm 0.00 in0.0 mm
01:42 PM 83.1°F28.4°C 33.8°F1.0°C 17% 7.0 mph WSW11.3 kmh WSW 22.0 mph35.4 kmh 29.27 in991.2 mb 0.00 in0.0 mm 0.00 in0.0 mm 0.00 in0.0 mm
01:43 PM 83.3°F28.5°C 32.4°F0.2°C 16% 7.0 mph WNW11.3 kmh WNW 22.0 mph35.4 kmh 29.27 in991.2 mb 0.00 in0.0 mm 0.00 in0.0 mm 0.00 in0.0 mm
01:44 PM 83.3°F28.5°C 30.8°F-0.7°C 15% 9.0 mph WNW14.5 kmh WNW 17.0 mph27.4 kmh 29.27 in991.2 mb 0.00 in0.0 mm 0.00 in0.0 mm 0.00 in0.0 mm
01:45 PM 83.3°F28.5°C 32.4°F0.2°C 16% 16.0 mph WSW25.7 kmh WSW 17.0 mph27.4 kmh 29.27 in991.2 mb 0.00 in0.0 mm 0.00 in0.0 mm 0.00 in0.0 mm
01:46 PM 83.3°F28.5°C 32.4°F0.2°C 16% 12.0 mph W19.3 kmh W 17.0 mph27.4 kmh 29.27 in991.2 mb 0.00 in0.0 mm 0.00 in0.0 mm 0.00 in0.0 mm
01:47 PM 83.3°F28.5°C 32.4°F0.2°C 16% 11.0 mph WSW17.7 kmh WSW 17.0 mph27.4 kmh 29.27 in991.2 mb 0.00 in0.0 mm 0.00 in0.0 mm 0.00 in0.0 mm
01:48 PM 83.4°F28.6°C 32.5°F0.3°C 16% 18.0 mph W29.0 kmh W 21.0 mph33.8 kmh 29.27 in991.2 mb 0.00 in0.0 mm 0.00 in0.0 mm 0.00 in0.0 mm
01:49 PM 83.6°F28.7°C 32.6°F0.3°C 16% 15.0 mph WNW24.1 kmh WNW 21.0 mph33.8 kmh 29.27 in991.2 mb 0.00 in0.0 mm 0.00 in0.0 mm 0.00 in0.0 mm
01:50 PM 83.6°F28.7°C 32.6°F0.3°C 16% 8.0 mph WNW12.9 kmh WNW 21.0 mph33.8 kmh 29.27 in991.2 mb 0.00 in0.0 mm 0.00 in0.0 mm 0.00 in0.0 mm
01:51 PM 83.5°F28.6°C 32.6°F0.3°C 16% 10.0 mph NW16.1 kmh NW 21.0 mph33.8 kmh 29.27 in991.2 mb 0.00 in0.0 mm 0.00 in0.0 mm 0.00 in0.0 mm
01:52 PM 83.3°F28.5°C 32.4°F0.2°C 16% 5.0 mph W8.0 kmh W 21.0 mph33.8 kmh 29.27 in991.2 mb 0.00 in0.0 mm 0.00 in0.0 mm 0.00 in0.0 mm
01:53 PM 83.2°F28.4°C 32.3°F0.2°C 16% 7.0 mph W11.3 kmh W 21.0 mph33.8 kmh 29.27 in991.2 mb 0.00 in0.0 mm 0.00 in0.0 mm 0.00 in0.0 mm
01:54 PM 83.2°F28.4°C 33.8°F1.0°C 17% 9.0 mph WSW14.5 kmh WSW 21.0 mph33.8 kmh 29.27 in991.2 mb 0.00 in0.0 mm 0.00 in0.0 mm 0.00 in0.0 mm
01:55 PM 83.2°F28.4°C 32.3°F0.2°C 16% 8.0 mph WNW12.9 kmh WNW 21.0 mph33.8 kmh 29.27 in991.2 mb 0.00 in0.0 mm 0.00 in0.0 mm 0.00 in0.0 mm
01:56 PM 83.3°F28.5°C 33.9°F1.1°C 17% 11.0 mph WNW17.7 kmh WNW 21.0 mph33.8 kmh 29.27 in991.2 mb 0.00 in0.0 mm 0.00 in0.0 mm 0.00 in0.0 mm
01:57 PM 83.4°F28.6°C 34.0°F1.1°C 17% 7.0 mph NW11.3 kmh NW 21.0 mph33.8 kmh 29.27 in991.2 mb 0.00 in0.0 mm 0.00 in0.0 mm 0.00 in0.0 mm
01:58 PM 83.8°F28.8°C 34.3°F1.3°C 17% 14.0 mph W22.5 kmh W 17.0 mph27.4 kmh 29.27 in991.2 mb 0.00 in0.0 mm 0.00 in0.0 mm 0.00 in0.0 mm
01:59 PM 83.8°F28.8°C 32.8°F0.4°C 16% 13.0 mph NNW20.9 kmh NNW 16.0 mph25.7 kmh 29.27 in991.2 mb 0.00 in0.0 mm 0.00 in0.0 mm 0.00 in0.0 mm
02:00 PM 83.7°F28.7°C 32.7°F0.4°C 16% 14.0 mph NW22.5 kmh NW 19.0 mph30.6 kmh 29.27 in991.2 mb 0.00 in0.0 mm 0.00 in0.0 mm 0.00 in0.0 mm
02:01 PM 83.5°F28.6°C 34.1°F1.2°C 17% 9.0 mph NW14.5 kmh NW 19.0 mph30.6 kmh 29.27 in991.2 mb 0.00 in0.0 mm 0.00 in0.0 mm 0.00 in0.0 mm
02:02 PM 83.5°F28.6°C 32.6°F0.3°C 16% 10.0 mph NW16.1 kmh NW 21.0 mph33.8 kmh 29.27 in991.2 mb 0.00 in0.0 mm 0.00 in0.0 mm 0.00 in0.0 mm
02:03 PM 83.4°F28.6°C 32.5°F0.3°C 16% 13.0 mph W20.9 kmh W 21.0 mph33.8 kmh 29.26 in990.9 mb 0.00 in0.0 mm 0.00 in0.0 mm 0.00 in0.0 mm
02:04 PM 83.2°F28.4°C 32.3°F0.2°C 16% 10.0 mph NW16.1 kmh NW 21.0 mph33.8 kmh 29.26 in990.9 mb 0.00 in0.0 mm 0.00 in0.0 mm 0.00 in0.0 mm
02:05 PM 83.0°F28.3°C 32.2°F0.1°C 16% 11.0 mph W17.7 kmh W 21.0 mph33.8 kmh 29.26 in990.9 mb 0.00 in0.0 mm 0.00 in0.0 mm 0.00 in0.0 mm
02:06 PM 83.1°F28.4°C 33.8°F1.0°C 17% 10.0 mph WSW16.1 kmh WSW 21.0 mph33.8 kmh 29.26 in990.9 mb 0.00 in0.0 mm 0.00 in0.0 mm 0.00 in0.0 mm
02:07 PM 83.4°F28.6°C 34.0°F1.1°C 17% 17.0 mph SW27.4 kmh SW 21.0 mph33.8 kmh 29.27 in991.2 mb 0.00 in0.0 mm 0.00 in0.0 mm 0.00 in0.0 mm
02:08 PM 83.5°F28.6°C 32.6°F0.3°C 16% 11.0 mph WNW17.7 kmh WNW 21.0 mph33.8 kmh 29.26 in990.9 mb 0.00 in0.0 mm 0.00 in0.0 mm 0.00 in0.0 mm
02:09 PM 83.3°F28.5°C 32.4°F0.2°C 16% 7.0 mph NW11.3 kmh NW 21.0 mph33.8 kmh 29.26 in990.9 mb 0.00 in0.0 mm 0.00 in0.0 mm 0.00 in0.0 mm
02:10 PM 83.2°F28.4°C 32.3°F0.2°C 16% 11.0 mph WNW17.7 kmh WNW 21.0 mph33.8 kmh 29.26 in990.9 mb 0.00 in0.0 mm 0.00 in0.0 mm 0.00 in0.0 mm
02:11 PM 83.2°F28.4°C 32.3°F0.2°C 16% 11.0 mph WSW17.7 kmh WSW 21.0 mph33.8 kmh 29.26 in990.9 mb 0.00 in0.0 mm 0.00 in0.0 mm 0.00 in0.0 mm
02:12 PM 83.3°F28.5°C 32.4°F0.2°C 16% 5.0 mph W8.0 kmh W 21.0 mph33.8 kmh 29.26 in990.9 mb 0.00 in0.0 mm 0.00 in0.0 mm 0.00 in0.0 mm
02:13 PM 83.6°F28.7°C 32.6°F0.3°C 16% 7.0 mph WNW11.3 kmh WNW 21.0 mph33.8 kmh 29.26 in990.9 mb 0.00 in0.0 mm 0.00 in0.0 mm 0.00 in0.0 mm
02:14 PM 83.7°F28.7°C 32.7°F0.4°C 16% 15.0 mph W24.1 kmh W 21.0 mph33.8 kmh 29.26 in990.9 mb 0.00 in0.0 mm 0.00 in0.0 mm 0.00 in0.0 mm
02:15 PM 83.5°F28.6°C 32.6°F0.3°C 16% 4.0 mph WNW6.4 kmh WNW 21.0 mph33.8 kmh 29.26 in990.9 mb 0.00 in0.0 mm 0.00 in0.0 mm 0.00 in0.0 mm
02:16 PM 83.5°F28.6°C 34.1°F1.2°C 17% 5.0 mph WNW8.0 kmh WNW 21.0 mph33.8 kmh 29.26 in990.9 mb 0.00 in0.0 mm 0.00 in0.0 mm 0.00 in0.0 mm
02:17 PM 83.6°F28.7°C 34.2°F1.2°C 17% 7.0 mph WSW11.3 kmh WSW 21.0 mph33.8 kmh 29.26 in990.9 mb 0.00 in0.0 mm 0.00 in0.0 mm 0.00 in0.0 mm
02:18 PM 83.7°F28.7°C 32.7°F0.4°C 16% 12.0 mph W19.3 kmh W 16.0 mph25.7 kmh 29.26 in990.9 mb 0.00 in0.0 mm 0.00 in0.0 mm 0.00 in0.0 mm
02:19 PM 83.9°F28.8°C 31.3°F-0.4°C 15% 15.0 mph WSW24.1 kmh WSW 22.0 mph35.4 kmh 29.26 in990.9 mb 0.00 in0.0 mm 0.00 in0.0 mm 0.00 in0.0 mm
02:20 PM 83.9°F28.8°C 31.3°F-0.4°C 15% 13.0 mph WSW20.9 kmh WSW 22.0 mph35.4 kmh 29.26 in990.9 mb 0.00 in0.0 mm 0.00 in0.0 mm 0.00 in0.0 mm
02:21 PM 83.8°F28.8°C 31.2°F-0.4°C 15% 7.0 mph S11.3 kmh S 22.0 mph35.4 kmh 29.26 in990.9 mb 0.00 in0.0 mm 0.00 in0.0 mm 0.00 in0.0 mm
02:22 PM 83.7°F28.7°C 31.1°F-0.5°C 15% 16.0 mph WSW25.7 kmh WSW 22.0 mph35.4 kmh 29.26 in990.9 mb 0.00 in0.0 mm 0.00 in0.0 mm 0.00 in0.0 mm
02:23 PM 83.6°F28.7°C 31.1°F-0.5°C 15% 14.0 mph W22.5 kmh W 22.0 mph35.4 kmh 29.26 in990.9 mb 0.00 in0.0 mm 0.00 in0.0 mm 0.00 in0.0 mm
02:24 PM 83.6°F28.7°C 31.1°F-0.5°C 15% 8.0 mph W12.9 kmh W 22.0 mph35.4 kmh 29.25 in990.5 mb 0.00 in0.0 mm 0.00 in0.0 mm 0.00 in0.0 mm
02:25 PM 83.5°F28.6°C 31.0°F-0.6°C 15% 10.0 mph WSW16.1 kmh WSW 22.0 mph35.4 kmh 29.25 in990.5 mb 0.00 in0.0 mm 0.00 in0.0 mm 0.00 in0.0 mm
02:26 PM 83.6°F28.7°C 32.6°F0.3°C 16% 6.0 mph WSW9.7 kmh WSW 22.0 mph35.4 kmh 29.25 in990.5 mb 0.00 in0.0 mm 0.00 in0.0 mm 0.00 in0.0 mm
02:27 PM 83.8°F28.8°C 31.2°F-0.4°C 15% 9.0 mph WSW14.5 kmh WSW 22.0 mph35.4 kmh 29.25 in990.5 mb 0.00 in0.0 mm 0.00 in0.0 mm 0.00 in0.0 mm
02:28 PM 84.0°F28.9°C 31.4°F-0.3°C 15% 16.0 mph W25.7 kmh W 20.0 mph32.2 kmh 29.25 in990.5 mb 0.00 in0.0 mm 0.00 in0.0 mm 0.00 in0.0 mm
02:29 PM 84.2°F29.0°C 31.5°F-0.3°C 15% 9.0 mph W14.5 kmh W 18.0 mph29.0 kmh 29.25 in990.5 mb 0.00 in0.0 mm 0.00 in0.0 mm 0.00 in0.0 mm
02:30 PM 84.6°F29.2°C 31.8°F-0.1°C 15% 14.0 mph W22.5 kmh W 18.0 mph29.0 kmh 29.25 in990.5 mb 0.00 in0.0 mm 0.00 in0.0 mm 0.00 in0.0 mm
02:31 PM 84.7°F29.3°C 31.9°F-0.1°C 15% 9.0 mph WSW14.5 kmh WSW 18.0 mph29.0 kmh 29.25 in990.5 mb 0.00 in0.0 mm 0.00 in0.0 mm 0.00 in0.0 mm
02:32 PM 84.7°F29.3°C 31.9°F-0.1°C 15% 12.0 mph WNW19.3 kmh WNW 18.0 mph29.0 kmh 29.25 in990.5 mb 0.00 in0.0 mm 0.00 in0.0 mm 0.00 in0.0 mm
02:33 PM 84.5°F29.2°C 31.8°F-0.1°C 15% 23.0 mph WNW37.0 kmh WNW 23.0 mph37.0 kmh 29.25 in990.5 mb 0.00 in0.0 mm 0.00 in0.0 mm 0.00 in0.0 mm
02:34 PM 84.1°F28.9°C 31.4°F-0.3°C 15% 9.0 mph WNW14.5 kmh WNW 23.0 mph37.0 kmh 29.25 in990.5 mb 0.00 in0.0 mm 0.00 in0.0 mm 0.00 in0.0 mm
02:35 PM 84.0°F28.9°C 31.4°F-0.3°C 15% 10.0 mph W16.1 kmh W 23.0 mph37.0 kmh 29.25 in990.5 mb 0.00 in0.0 mm 0.00 in0.0 mm 0.00 in0.0 mm
02:36 PM 83.8°F28.8°C 31.2°F-0.4°C 15% 11.0 mph W17.7 kmh W 23.0 mph37.0 kmh 29.25 in990.5 mb 0.00 in0.0 mm 0.00 in0.0 mm 0.00 in0.0 mm
02:37 PM 83.7°F28.7°C 32.7°F0.4°C 16% 9.0 mph W14.5 kmh W 23.0 mph37.0 kmh 29.25 in990.5 mb 0.00 in0.0 mm 0.00 in0.0 mm 0.00 in0.0 mm
02:38 PM 83.6°F28.7°C 31.1°F-0.5°C 15% 11.0 mph WNW17.7 kmh WNW 23.0 mph37.0 kmh 29.25 in990.5 mb 0.00 in0.0 mm 0.00 in0.0 mm 0.00 in0.0 mm
02:39 PM 83.5°F28.6°C 32.6°F0.3°C 16% 12.0 mph NW19.3 kmh NW 23.0 mph37.0 kmh 29.25 in990.5 mb 0.00 in0.0 mm 0.00 in0.0 mm 0.00 in0.0 mm
02:40 PM 83.4°F28.6°C 32.5°F0.3°C 16% 10.0 mph NNW16.1 kmh NNW 23.0 mph37.0 kmh 29.25 in990.5 mb 0.00 in0.0 mm 0.00 in0.0 mm 0.00 in0.0 mm
02:41 PM 83.4°F28.6°C 30.9°F-0.6°C 15% 6.0 mph WNW9.7 kmh WNW 23.0 mph37.0 kmh 29.25 in990.5 mb 0.00 in0.0 mm 0.00 in0.0 mm 0.00 in0.0 mm
02:42 PM 83.6°F28.7°C 31.1°F-0.5°C 15% 11.0 mph WSW17.7 kmh WSW 20.0 mph32.2 kmh 29.25 in990.5 mb 0.00 in0.0 mm 0.00 in0.0 mm 0.00 in0.0 mm
02:43 PM 83.6°F28.7°C 31.1°F-0.5°C 15% 2.0 mph WNW3.2 kmh WNW 20.0 mph32.2 kmh 29.25 in990.5 mb 0.00 in0.0 mm 0.00 in0.0 mm 0.00 in0.0 mm
02:44 PM 83.8°F28.8°C 32.8°F0.4°C 16% 5.0 mph WNW8.0 kmh WNW 20.0 mph32.2 kmh 29.25 in990.5 mb 0.00 in0.0 mm 0.00 in0.0 mm 0.00 in0.0 mm
02:45 PM 84.0°F28.9°C 33.0°F0.6°C 16% 5.0 mph SW8.0 kmh SW 18.0 mph29.0 kmh 29.25 in990.5 mb 0.00 in0.0 mm 0.00 in0.0 mm 0.00 in0.0 mm
02:46 PM 84.1°F28.9°C 33.0°F0.6°C 16% 5.0 mph SW8.0 kmh SW 18.0 mph29.0 kmh 29.25 in990.5 mb 0.00 in0.0 mm 0.00 in0.0 mm 0.00 in0.0 mm
02:47 PM 84.3°F29.1°C 33.2°F0.7°C 16% 8.0 mph WNW12.9 kmh WNW 18.0 mph29.0 kmh 29.25 in990.5 mb 0.00 in0.0 mm 0.00 in0.0 mm 0.00 in0.0 mm
02:48 PM 84.6°F29.2°C 33.4°F0.8°C 16% 8.0 mph NW12.9 kmh NW 16.0 mph25.7 kmh 29.25 in990.5 mb 0.00 in0.0 mm 0.00 in0.0 mm 0.00 in0.0 mm
02:49 PM 84.7°F29.3°C 31.9°F-0.1°C 15% 12.0 mph WNW19.3 kmh WNW 16.0 mph25.7 kmh 29.25 in990.5 mb 0.00 in0.0 mm 0.00 in0.0 mm 0.00 in0.0 mm
02:50 PM 84.6°F29.2°C 31.8°F-0.1°C 15% 7.0 mph NW11.3 kmh NW 16.0 mph25.7 kmh 29.25 in990.5 mb 0.00 in0.0 mm 0.00 in0.0 mm 0.00 in0.0 mm
02:51 PM 84.3°F29.1°C 29.9°F-1.2°C 14% 7.0 mph W11.3 kmh W 15.0 mph24.1 kmh 29.25 in990.5 mb 0.00 in0.0 mm 0.00 in0.0 mm 0.00 in0.0 mm
02:52 PM 84.2°F29.0°C 29.8°F-1.2°C 14% 12.0 mph W19.3 kmh W 15.0 mph24.1 kmh 29.25 in990.5 mb 0.00 in0.0 mm 0.00 in0.0 mm 0.00 in0.0 mm
02:53 PM 84.1°F28.9°C 31.4°F-0.3°C 15% 3.0 mph W4.8 kmh W 15.0 mph24.1 kmh 29.25 in990.5 mb 0.00 in0.0 mm 0.00 in0.0 mm 0.00 in0.0 mm
02:54 PM 84.1°F28.9°C 31.4°F-0.3°C 15% 5.0 mph W8.0 kmh W 15.0 mph24.1 kmh 29.25 in990.5 mb 0.00 in0.0 mm 0.00 in0.0 mm 0.00 in0.0 mm
02:55 PM 84.2°F29.0°C 31.5°F-0.3°C 15% 7.0 mph WSW11.3 kmh WSW 15.0 mph24.1 kmh 29.25 in990.5 mb 0.00 in0.0 mm 0.00 in0.0 mm 0.00 in0.0 mm
02:56 PM 84.4°F29.1°C 33.3°F0.7°C 16% 3.0 mph WSW4.8 kmh WSW 15.0 mph24.1 kmh 29.25 in990.5 mb 0.00 in0.0 mm 0.00 in0.0 mm 0.00 in0.0 mm
02:57 PM 84.5°F29.2°C 31.8°F-0.1°C 15% 5.0 mph NW8.0 kmh NW 15.0 mph24.1 kmh 29.25 in990.5 mb 0.00 in0.0 mm 0.00 in0.0 mm 0.00 in0.0 mm
02:58 PM 84.7°F29.3°C 31.9°F-0.1°C 15% 4.0 mph NNW6.4 kmh NNW 15.0 mph24.1 kmh 29.25 in990.5 mb 0.00 in0.0 mm 0.00 in0.0 mm 0.00 in0.0 mm
02:59 PM 84.9°F29.4°C 32.1°F0.1°C 15% 13.0 mph NW20.9 kmh NW 14.0 mph22.5 kmh 29.25 in990.5 mb 0.00 in0.0 mm 0.00 in0.0 mm 0.00 in0.0 mm
03:00 PM 84.9°F29.4°C 30.4°F-0.9°C 14% 10.0 mph NW16.1 kmh NW 16.0 mph25.7 kmh 29.25 in990.5 mb 0.00 in0.0 mm 0.00 in0.0 mm 0.00 in0.0 mm
03:01 PM 84.9°F29.4°C 30.4°F-0.9°C 14% 11.0 mph WNW17.7 kmh WNW 16.0 mph25.7 kmh 29.25 in990.5 mb 0.00 in0.0 mm 0.00 in0.0 mm 0.00 in0.0 mm
03:02 PM 84.7°F29.3°C 30.2°F-1.0°C 14% 8.0 mph WNW12.9 kmh WNW 16.0 mph25.7 kmh 29.25 in990.5 mb 0.00 in0.0 mm 0.00 in0.0 mm 0.00 in0.0 mm
03:03 PM 84.7°F29.3°C 30.2°F-1.0°C 14% 8.0 mph W12.9 kmh W 16.0 mph25.7 kmh 29.25 in990.5 mb 0.00 in0.0 mm 0.00 in0.0 mm 0.00 in0.0 mm
03:04 PM 84.7°F29.3°C 30.2°F-1.0°C 14% 10.0 mph W16.1 kmh W 16.0 mph25.7 kmh 29.25 in990.5 mb 0.00 in0.0 mm 0.00 in0.0 mm 0.00 in0.0 mm
03:05 PM 84.6°F29.2°C 28.3°F-2.1°C 13% 8.0 mph NW12.9 kmh NW 16.0 mph25.7 kmh 29.25 in990.5 mb 0.00 in0.0 mm 0.00 in0.0 mm 0.00 in0.0 mm
03:06 PM 84.4°F29.1°C 30.0°F-1.1°C 14% 3.0 mph WNW4.8 kmh WNW 16.0 mph25.7 kmh 29.25 in990.5 mb 0.00 in0.0 mm 0.00 in0.0 mm 0.00 in0.0 mm
03:07 PM 84.4°F29.1°C 30.0°F-1.1°C 14% 5.0 mph NW8.0 kmh NW 16.0 mph25.7 kmh 29.24 in990.2 mb 0.00 in0.0 mm 0.00 in0.0 mm 0.00 in0.0 mm
03:08 PM 84.5°F29.2°C 30.1°F-1.1°C 14% Calm Calm 16.0 mph25.7 kmh 29.24 in990.2 mb 0.00 in0.0 mm 0.00 in0.0 mm 0.00 in0.0 mm
03:09 PM 84.6°F29.2°C 28.3°F-2.1°C 13% 2.0 mph WSW3.2 kmh WSW 16.0 mph25.7 kmh 29.24 in990.2 mb 0.00 in0.0 mm 0.00 in0.0 mm 0.00 in0.0 mm
03:10 PM 84.8°F29.3°C 30.3°F-0.9°C 14% 7.0 mph WSW11.3 kmh WSW 16.0 mph25.7 kmh 29.24 in990.2 mb 0.00 in0.0 mm 0.00 in0.0 mm 0.00 in0.0 mm
03:11 PM 85.0°F29.4°C 28.6°F-1.9°C 13% 6.0 mph W9.7 kmh W 16.0 mph25.7 kmh 29.24 in990.2 mb 0.00 in0.0 mm 0.00 in0.0 mm 0.00 in0.0 mm
03:12 PM 85.1°F29.5°C 28.7°F-1.8°C 13% 12.0 mph WNW19.3 kmh WNW 16.0 mph25.7 kmh 29.24 in990.2 mb 0.00 in0.0 mm 0.00 in0.0 mm 0.00 in0.0 mm
03:13 PM 85.2°F29.6°C 30.6°F-0.8°C 14% 12.0 mph W19.3 kmh W 19.0 mph30.6 kmh 29.24 in990.2 mb 0.00 in0.0 mm 0.00 in0.0 mm 0.00 in0.0 mm
03:14 PM 85.2°F29.6°C 28.8°F-1.8°C 13% 9.0 mph WSW14.5 kmh WSW 20.0 mph32.2 kmh 29.24 in990.2 mb 0.00 in0.0 mm 0.00 in0.0 mm 0.00 in0.0 mm
03:15 PM 85.2°F29.6°C 28.8°F-1.8°C 13% 12.0 mph SW19.3 kmh SW 20.0 mph32.2 kmh 29.24 in990.2 mb 0.00 in0.0 mm 0.00 in0.0 mm 0.00 in0.0 mm
03:16 PM 85.3°F29.6°C 30.7°F-0.7°C 14% 13.0 mph W20.9 kmh W 20.0 mph32.2 kmh 29.24 in990.2 mb 0.00 in0.0 mm 0.00 in0.0 mm 0.00 in0.0 mm
03:17 PM 85.2°F29.6°C 28.8°F-1.8°C 13% 6.0 mph NW9.7 kmh NW 20.0 mph32.2 kmh 29.24 in990.2 mb 0.00 in0.0 mm 0.00 in0.0 mm 0.00 in0.0 mm
03:18 PM 85.1°F29.5°C 28.7°F-1.8°C 13% 10.0 mph W16.1 kmh W 20.0 mph32.2 kmh 29.24 in990.2 mb 0.00 in0.0 mm 0.00 in0.0 mm 0.00 in0.0 mm
03:19 PM 85.1°F29.5°C 30.5°F-0.8°C 14% 12.0 mph NW19.3 kmh NW 20.0 mph32.2 kmh 29.24 in990.2 mb 0.00 in0.0 mm 0.00 in0.0 mm 0.00 in0.0 mm
03:20 PM 85.1°F29.5°C 28.7°F-1.8°C 13% 18.0 mph WNW29.0 kmh WNW 22.0 mph35.4 kmh 29.24 in990.2 mb 0.00 in0.0 mm 0.00 in0.0 mm 0.00 in0.0 mm
03:21 PM 84.8°F29.3°C 28.5°F-1.9°C 13% 7.0 mph NW11.3 kmh NW 22.0 mph35.4 kmh 29.24 in990.2 mb 0.00 in0.0 mm 0.00 in0.0 mm 0.00 in0.0 mm
03:22 PM 84.8°F29.3°C 28.5°F-1.9°C 13% 7.0 mph WNW11.3 kmh WNW 22.0 mph35.4 kmh 29.24 in990.2 mb 0.00 in0.0 mm 0.00 in0.0 mm 0.00 in0.0 mm
03:23 PM 84.9°F29.4°C 28.6°F-1.9°C 13% 6.0 mph WNW9.7 kmh WNW 22.0 mph35.4 kmh 29.24 in990.2 mb 0.00 in0.0 mm 0.00 in0.0 mm 0.00 in0.0 mm
03:24 PM 85.0°F29.4°C 28.6°F-1.9°C 13% 4.0 mph W6.4 kmh W 22.0 mph35.4 kmh 29.24 in990.2 mb 0.00 in0.0 mm 0.00 in0.0 mm 0.00 in0.0 mm
03:25 PM 85.0°F29.4°C 30.5°F-0.8°C 14% 11.0 mph WNW17.7 kmh WNW 22.0 mph35.4 kmh 29.24 in990.2 mb 0.00 in0.0 mm 0.00 in0.0 mm 0.00 in0.0 mm
03:26 PM 85.0°F29.4°C 30.5°F-0.8°C 14% 11.0 mph W17.7 kmh W 22.0 mph35.4 kmh 29.23 in989.8 mb 0.00 in0.0 mm 0.00 in0.0 mm 0.00 in0.0 mm
03:27 PM 85.0°F29.4°C 30.5°F-0.8°C 14% 13.0 mph W20.9 kmh W 22.0 mph35.4 kmh 29.23 in989.8 mb 0.00 in0.0 mm 0.00 in0.0 mm 0.00 in0.0 mm
03:28 PM 85.1°F29.5°C 30.5°F-0.8°C 14% 10.0 mph W16.1 kmh W 22.0 mph35.4 kmh 29.23 in989.8 mb 0.00 in0.0 mm 0.00 in0.0 mm 0.00 in0.0 mm
03:29 PM 85.4°F29.7°C 30.8°F-0.7°C 14% 17.0 mph WSW27.4 kmh WSW 17.0 mph27.4 kmh 29.23 in989.8 mb 0.00 in0.0 mm 0.00 in0.0 mm 0.00 in0.0 mm
03:30 PM 85.5°F29.7°C 29.0°F-1.7°C 13% 10.0 mph WNW16.1 kmh WNW 19.0 mph30.6 kmh 29.23 in989.8 mb 0.00 in0.0 mm 0.00 in0.0 mm 0.00 in0.0 mm
03:31 PM 85.3°F29.6°C 28.9°F-1.7°C 13% 8.0 mph WSW12.9 kmh WSW 19.0 mph30.6 kmh 29.23 in989.8 mb 0.00 in0.0 mm 0.00 in0.0 mm 0.00 in0.0 mm
03:32 PM 85.4°F29.7°C 30.8°F-0.7°C 14% 14.0 mph W22.5 kmh W 21.0 mph33.8 kmh 29.23 in989.8 mb 0.00 in0.0 mm 0.00 in0.0 mm 0.00 in0.0 mm
03:33 PM 85.3°F29.6°C 28.9°F-1.7°C 13% 20.0 mph WSW32.2 kmh WSW 21.0 mph33.8 kmh 29.23 in989.8 mb 0.00 in0.0 mm 0.00 in0.0 mm 0.00 in0.0 mm
03:34 PM 85.2°F29.6°C 30.6°F-0.8°C 14% 15.0 mph W24.1 kmh W 21.0 mph33.8 kmh 29.23 in989.8 mb 0.00 in0.0 mm 0.00 in0.0 mm 0.00 in0.0 mm
03:35 PM 85.4°F29.7°C 30.8°F-0.7°C 14% 19.0 mph W30.6 kmh W 22.0 mph35.4 kmh 29.23 in989.8 mb 0.00 in0.0 mm 0.00 in0.0 mm 0.00 in0.0 mm
03:36 PM 85.4°F29.7°C 29.0°F-1.7°C 13% 16.0 mph WNW25.7 kmh WNW 22.0 mph35.4 kmh 29.23 in989.8 mb 0.00 in0.0 mm 0.00 in0.0 mm 0.00 in0.0 mm
03:37 PM 85.4°F29.7°C 29.0°F-1.7°C 13% 14.0 mph WSW22.5 kmh WSW 22.0 mph35.4 kmh 29.23 in989.8 mb 0.00 in0.0 mm 0.00 in0.0 mm 0.00 in0.0 mm
03:38 PM 85.4°F29.7°C 29.0°F-1.7°C 13% 15.0 mph W24.1 kmh W 22.0 mph35.4 kmh 29.23 in989.8 mb 0.00 in0.0 mm 0.00 in0.0 mm 0.00 in0.0 mm
03:39 PM 85.3°F29.6°C 28.9°F-1.7°C 13% 11.0 mph W17.7 kmh W 22.0 mph35.4 kmh 29.23 in989.8 mb 0.00 in0.0 mm 0.00 in0.0 mm 0.00 in0.0 mm
03:40 PM 85.2°F29.6°C 30.6°F-0.8°C 14% 11.0 mph WSW17.7 kmh WSW 22.0 mph35.4 kmh 29.23 in989.8 mb 0.00 in0.0 mm 0.00 in0.0 mm 0.00 in0.0 mm
03:41 PM 85.1°F29.5°C 28.7°F-1.8°C 13% 11.0 mph WSW17.7 kmh WSW 22.0 mph35.4 kmh 29.23 in989.8 mb 0.00 in0.0 mm 0.00 in0.0 mm 0.00 in0.0 mm
03:42 PM 85.1°F29.5°C 28.7°F-1.8°C 13% 9.0 mph W14.5 kmh W 22.0 mph35.4 kmh 29.23 in989.8 mb 0.00 in0.0 mm 0.00 in0.0 mm 0.00 in0.0 mm
03:43 PM 85.2°F29.6°C 28.8°F-1.8°C 13% 4.0 mph WNW6.4 kmh WNW 22.0 mph35.4 kmh 29.23 in989.8 mb 0.00 in0.0 mm 0.00 in0.0 mm 0.00 in0.0 mm
03:44 PM 85.3°F29.6°C 30.7°F-0.7°C 14% 5.0 mph S8.0 kmh S 20.0 mph32.2 kmh 29.23 in989.8 mb 0.00 in0.0 mm 0.00 in0.0 mm 0.00 in0.0 mm
03:45 PM 85.4°F29.7°C 30.8°F-0.7°C 14% 3.0 mph SSE4.8 kmh SSE 20.0 mph32.2 kmh 29.23 in989.8 mb 0.00 in0.0 mm 0.00 in0.0 mm 0.00 in0.0 mm
03:46 PM 85.4°F29.7°C 29.0°F-1.7°C 13% 4.0 mph SW6.4 kmh SW 18.0 mph29.0 kmh 29.23 in989.8 mb 0.00 in0.0 mm 0.00 in0.0 mm 0.00 in0.0 mm
03:47 PM 85.3°F29.6°C 28.9°F-1.7°C 13% 5.0 mph WSW8.0 kmh WSW 16.0 mph25.7 kmh 29.23 in989.8 mb 0.00 in0.0 mm 0.00 in0.0 mm 0.00 in0.0 mm
03:48 PM 85.3°F29.6°C 28.9°F-1.7°C 13% Calm Calm 15.0 mph24.1 kmh 29.23 in989.8 mb 0.00 in0.0 mm 0.00 in0.0 mm 0.00 in0.0 mm
03:49 PM 85.3°F29.6°C 28.9°F-1.7°C 13% Calm Calm 15.0 mph24.1 kmh 29.23 in989.8 mb 0.00 in0.0 mm 0.00 in0.0 mm 0.00 in0.0 mm
03:50 PM 85.4°F29.7°C 30.8°F-0.7°C 14% 20.0 mph NNW32.2 kmh NNW 20.0 mph32.2 kmh 29.22 in989.5 mb 0.00 in0.0 mm 0.00 in0.0 mm 0.00 in0.0 mm
03:51 PM 85.6°F29.8°C 30.9°F-0.6°C 14% 8.0 mph WNW12.9 kmh WNW 20.0 mph32.2 kmh 29.23 in989.8 mb 0.00 in0.0 mm 0.00 in0.0 mm 0.00 in0.0 mm
03:52 PM 85.6°F29.8°C 30.9°F-0.6°C 14% 8.0 mph WNW12.9 kmh WNW 20.0 mph32.2 kmh 29.23 in989.8 mb 0.00 in0.0 mm 0.00 in0.0 mm 0.00 in0.0 mm
03:53 PM 85.7°F29.8°C 31.0°F-0.6°C 14% 11.0 mph WSW17.7 kmh WSW 20.0 mph32.2 kmh 29.23 in989.8 mb 0.00 in0.0 mm 0.00 in0.0 mm 0.00 in0.0 mm
03:54 PM 85.7°F29.8°C 29.2°F-1.6°C 13% 11.0 mph W17.7 kmh W 20.0 mph32.2 kmh 29.23 in989.8 mb 0.00 in0.0 mm 0.00 in0.0 mm 0.00 in0.0 mm
03:55 PM 85.6°F29.8°C 29.1°F-1.6°C 13% 10.0 mph WNW16.1 kmh WNW 20.0 mph32.2 kmh 29.23 in989.8 mb 0.00 in0.0 mm 0.00 in0.0 mm 0.00 in0.0 mm
03:56 PM 85.4°F29.7°C 29.0°F-1.7°C 13% 13.0 mph NW20.9 kmh NW 20.0 mph32.2 kmh 29.23 in989.8 mb 0.00 in0.0 mm 0.00 in0.0 mm 0.00 in0.0 mm
03:57 PM 85.3°F29.6°C 28.9°F-1.7°C 13% 11.0 mph WNW17.7 kmh WNW 20.0 mph32.2 kmh 29.23 in989.8 mb 0.00 in0.0 mm 0.00 in0.0 mm 0.00 in0.0 mm
03:58 PM 85.2°F29.6°C 30.6°F-0.8°C 14% 7.0 mph W11.3 kmh W 20.0 mph32.2 kmh 29.23 in989.8 mb 0.00 in0.0 mm 0.00 in0.0 mm 0.00 in0.0 mm
03:59 PM 85.3°F29.6°C 28.9°F-1.7°C 13% 15.0 mph W24.1 kmh W 22.0 mph35.4 kmh 29.23 in989.8 mb 0.00 in0.0 mm 0.00 in0.0 mm 0.00 in0.0 mm
04:00 PM 85.4°F29.7°C 30.8°F-0.7°C 14% 10.0 mph WSW16.1 kmh WSW 22.0 mph35.4 kmh 29.23 in989.8 mb 0.00 in0.0 mm 0.00 in0.0 mm 0.00 in0.0 mm
04:01 PM 85.4°F29.7°C 30.8°F-0.7°C 14% 12.0 mph NW19.3 kmh NW 22.0 mph35.4 kmh 29.23 in989.8 mb 0.00 in0.0 mm 0.00 in0.0 mm 0.00 in0.0 mm
04:02 PM 85.4°F29.7°C 29.0°F-1.7°C 13% 13.0 mph W20.9 kmh W 22.0 mph35.4 kmh 29.23 in989.8 mb 0.00 in0.0 mm 0.00 in0.0 mm 0.00 in0.0 mm
04:03 PM 85.4°F29.7°C 29.0°F-1.7°C 13% 13.0 mph W20.9 kmh W 22.0 mph35.4 kmh 29.22 in989.5 mb 0.00 in0.0 mm 0.00 in0.0 mm 0.00 in0.0 mm
04:04 PM 85.3°F29.6°C 28.9°F-1.7°C 13% 12.0 mph WSW19.3 kmh WSW 22.0 mph35.4 kmh 29.22 in989.5 mb 0.00 in0.0 mm 0.00 in0.0 mm 0.00 in0.0 mm
04:05 PM 85.3°F29.6°C 30.7°F-0.7°C 14% 14.0 mph WNW22.5 kmh WNW 22.0 mph35.4 kmh 29.22 in989.5 mb 0.00 in0.0 mm 0.00 in0.0 mm 0.00 in0.0 mm
04:06 PM 85.3°F29.6°C 28.9°F-1.7°C 13% 12.0 mph W19.3 kmh W 22.0 mph35.4 kmh 29.23 in989.8 mb 0.00 in0.0 mm 0.00 in0.0 mm 0.00 in0.0 mm
04:07 PM 85.3°F29.6°C 30.7°F-0.7°C 14% 9.0 mph NW14.5 kmh NW 22.0 mph35.4 kmh 29.22 in989.5 mb 0.00 in0.0 mm 0.00 in0.0 mm 0.00 in0.0 mm
04:08 PM 85.2°F29.6°C 30.6°F-0.8°C 14% 10.0 mph WNW16.1 kmh WNW 19.0 mph30.6 kmh 29.22 in989.5 mb 0.00 in0.0 mm 0.00 in0.0 mm 0.00 in0.0 mm
04:09 PM 85.0°F29.4°C 30.5°F-0.8°C 14% 8.0 mph NW12.9 kmh NW 19.0 mph30.6 kmh 29.22 in989.5 mb 0.00 in0.0 mm 0.00 in0.0 mm 0.00 in0.0 mm
04:10 PM 85.1°F29.5°C 30.5°F-0.8°C 14% 16.0 mph WNW25.7 kmh WNW 18.0 mph29.0 kmh 29.23 in989.8 mb 0.00 in0.0 mm 0.00 in0.0 mm 0.00 in0.0 mm
04:11 PM 85.0°F29.4°C 28.6°F-1.9°C 13% 5.0 mph W8.0 kmh W 18.0 mph29.0 kmh 29.22 in989.5 mb 0.00 in0.0 mm 0.00 in0.0 mm 0.00 in0.0 mm
04:12 PM 84.8°F29.3°C 30.3°F-0.9°C 14% 5.0 mph WSW8.0 kmh WSW 17.0 mph27.4 kmh 29.22 in989.5 mb 0.00 in0.0 mm 0.00 in0.0 mm 0.00 in0.0 mm
04:13 PM 84.9°F29.4°C 30.4°F-0.9°C 14% 7.0 mph W11.3 kmh W 17.0 mph27.4 kmh 29.22 in989.5 mb 0.00 in0.0 mm 0.00 in0.0 mm 0.00 in0.0 mm
04:14 PM 85.1°F29.5°C 30.5°F-0.8°C 14% 12.0 mph SW19.3 kmh SW 17.0 mph27.4 kmh 29.22 in989.5 mb 0.00 in0.0 mm 0.00 in0.0 mm 0.00 in0.0 mm
04:15 PM 85.3°F29.6°C 30.7°F-0.7°C 14% 11.0 mph W17.7 kmh W 16.0 mph25.7 kmh 29.22 in989.5 mb 0.00 in0.0 mm 0.00 in0.0 mm 0.00 in0.0 mm
04:16 PM 85.2°F29.6°C 28.8°F-1.8°C 13% 1.0 mph NW1.6 kmh NW 16.0 mph25.7 kmh 29.22 in989.5 mb 0.00 in0.0 mm 0.00 in0.0 mm 0.00 in0.0 mm
04:17 PM 85.0°F29.4°C 30.5°F-0.8°C 14% Calm Calm 16.0 mph25.7 kmh 29.22 in989.5 mb 0.00 in0.0 mm 0.00 in0.0 mm 0.00 in0.0 mm
04:18 PM 84.9°F29.4°C 30.4°F-0.9°C 14% 2.0 mph WSW3.2 kmh WSW 16.0 mph25.7 kmh 29.22 in989.5 mb 0.00 in0.0 mm 0.00 in0.0 mm 0.00 in0.0 mm
04:19 PM 85.0°F29.4°C 30.5°F-0.8°C 14% 3.0 mph SW4.8 kmh SW 16.0 mph25.7 kmh 29.22 in989.5 mb 0.00 in0.0 mm 0.00 in0.0 mm 0.00 in0.0 mm
04:20 PM 85.1°F29.5°C 30.5°F-0.8°C 14% 5.0 mph SW8.0 kmh SW 14.0 mph22.5 kmh 29.22 in989.5 mb 0.00 in0.0 mm 0.00 in0.0 mm 0.00 in0.0 mm
04:21 PM 85.1°F29.5°C 30.5°F-0.8°C 14% 3.0 mph SE4.8 kmh SE 14.0 mph22.5 kmh 29.22 in989.5 mb 0.00 in0.0 mm 0.00 in0.0 mm 0.00 in0.0 mm
04:22 PM 85.1°F29.5°C 28.7°F-1.8°C 13% 6.0 mph WSW9.7 kmh WSW 14.0 mph22.5 kmh 29.22 in989.5 mb 0.00 in0.0 mm 0.00 in0.0 mm 0.00 in0.0 mm
04:23 PM 85.1°F29.5°C 30.5°F-0.8°C 14% 12.0 mph WSW19.3 kmh WSW 14.0 mph22.5 kmh 29.22 in989.5 mb 0.00 in0.0 mm 0.00 in0.0 mm 0.00 in0.0 mm
04:24 PM 85.0°F29.4°C 28.6°F-1.9°C 13% 18.0 mph WSW29.0 kmh WSW 18.0 mph29.0 kmh 29.22 in989.5 mb 0.00 in0.0 mm 0.00 in0.0 mm 0.00 in0.0 mm
04:25 PM 85.0°F29.4°C 28.6°F-1.9°C 13% 12.0 mph SW19.3 kmh SW 18.0 mph29.0 kmh 29.22 in989.5 mb 0.00 in0.0 mm 0.00 in0.0 mm 0.00 in0.0 mm
04:26 PM 84.9°F29.4°C 30.4°F-0.9°C 14% 8.0 mph W12.9 kmh W 18.0 mph29.0 kmh 29.22 in989.5 mb 0.00 in0.0 mm 0.00 in0.0 mm 0.00 in0.0 mm
04:27 PM 85.0°F29.4°C 28.6°F-1.9°C 13% 12.0 mph WNW19.3 kmh WNW 18.0 mph29.0 kmh 29.22 in989.5 mb 0.00 in0.0 mm 0.00 in0.0 mm 0.00 in0.0 mm
04:28 PM 84.9°F29.4°C 28.6°F-1.9°C 13% 5.0 mph W8.0 kmh W 18.0 mph29.0 kmh 29.22 in989.5 mb 0.00 in0.0 mm 0.00 in0.0 mm 0.00 in0.0 mm
04:29 PM 84.9°F29.4°C 30.4°F-0.9°C 14% 7.0 mph W11.3 kmh W 18.0 mph29.0 kmh 29.22 in989.5 mb 0.00 in0.0 mm 0.00 in0.0 mm 0.00 in0.0 mm
04:30 PM 85.2°F29.6°C 30.6°F-0.8°C 14% 19.0 mph W30.6 kmh W 20.0 mph32.2 kmh 29.22 in989.5 mb 0.00 in0.0 mm 0.00 in0.0 mm 0.00 in0.0 mm
04:31 PM 85.2°F29.6°C 28.8°F-1.8°C 13% 11.0 mph W17.7 kmh W 20.0 mph32.2 kmh 29.22 in989.5 mb 0.00 in0.0 mm 0.00 in0.0 mm 0.00 in0.0 mm
04:32 PM 85.2°F29.6°C 28.8°F-1.8°C 13% 9.0 mph WNW14.5 kmh WNW 20.0 mph32.2 kmh 29.22 in989.5 mb 0.00 in0.0 mm 0.00 in0.0 mm 0.00 in0.0 mm
04:33 PM 85.2°F29.6°C 28.8°F-1.8°C 13% 14.0 mph NW22.5 kmh NW 20.0 mph32.2 kmh 29.22 in989.5 mb 0.00 in0.0 mm 0.00 in0.0 mm 0.00 in0.0 mm
04:34 PM 85.0°F29.4°C 30.5°F-0.8°C 14% 6.0 mph NW9.7 kmh NW 20.0 mph32.2 kmh 29.22 in989.5 mb 0.00 in0.0 mm 0.00 in0.0 mm 0.00 in0.0 mm
04:35 PM 85.1°F29.5°C 30.5°F-0.8°C 14% 12.0 mph WNW19.3 kmh WNW 20.0 mph32.2 kmh 29.22 in989.5 mb 0.00 in0.0 mm 0.00 in0.0 mm 0.00 in0.0 mm
04:36 PM 85.2°F29.6°C 30.6°F-0.8°C 14% 15.0 mph W24.1 kmh W 20.0 mph32.2 kmh 29.22 in989.5 mb 0.00 in0.0 mm 0.00 in0.0 mm 0.00 in0.0 mm
04:37 PM 85.2°F29.6°C 28.8°F-1.8°C 13% 12.0 mph W19.3 kmh W 23.0 mph37.0 kmh 29.22 in989.5 mb 0.00 in0.0 mm 0.00 in0.0 mm 0.00 in0.0 mm
04:38 PM 85.2°F29.6°C 28.8°F-1.8°C 13% 12.0 mph WNW19.3 kmh WNW 23.0 mph37.0 kmh 29.22 in989.5 mb 0.00 in0.0 mm 0.00 in0.0 mm 0.00 in0.0 mm
04:39 PM 85.2°F29.6°C 28.8°F-1.8°C 13% 13.0 mph WNW20.9 kmh WNW 23.0 mph37.0 kmh 29.22 in989.5 mb 0.00 in0.0 mm 0.00 in0.0 mm 0.00 in0.0 mm
04:40 PM 85.1°F29.5°C 30.5°F-0.8°C 14% 15.0 mph WNW24.1 kmh WNW 23.0 mph37.0 kmh 29.23 in989.8 mb 0.00 in0.0 mm 0.00 in0.0 mm 0.00 in0.0 mm
04:41 PM 84.8°F29.3°C 28.5°F-1.9°C 13% 12.0 mph WNW19.3 kmh WNW 23.0 mph37.0 kmh 29.22 in989.5 mb 0.00 in0.0 mm 0.00 in0.0 mm 0.00 in0.0 mm
04:42 PM 84.6°F29.2°C 28.3°F-2.1°C 13% 7.0 mph NW11.3 kmh NW 23.0 mph37.0 kmh 29.22 in989.5 mb 0.00 in0.0 mm 0.00 in0.0 mm 0.00 in0.0 mm
04:43 PM 84.5°F29.2°C 28.3°F-2.1°C 13% 11.0 mph W17.7 kmh W 23.0 mph37.0 kmh 29.22 in989.5 mb 0.00 in0.0 mm 0.00 in0.0 mm 0.00 in0.0 mm
04:44 PM 84.5°F29.2°C 30.1°F-1.1°C 14% 10.0 mph WNW16.1 kmh WNW 23.0 mph37.0 kmh 29.22 in989.5 mb 0.00 in0.0 mm 0.00 in0.0 mm 0.00 in0.0 mm
04:45 PM 84.5°F29.2°C 30.1°F-1.1°C 14% 5.0 mph WSW8.0 kmh WSW 20.0 mph32.2 kmh 29.22 in989.5 mb 0.00 in0.0 mm 0.00 in0.0 mm 0.00 in0.0 mm
04:46 PM 84.6°F29.2°C 30.1°F-1.1°C 14% 9.0 mph WSW14.5 kmh WSW 18.0 mph29.0 kmh 29.22 in989.5 mb 0.00 in0.0 mm 0.00 in0.0 mm 0.00 in0.0 mm
04:47 PM 84.8°F29.3°C 32.0°F0.0°C 15% 12.0 mph WSW19.3 kmh WSW 18.0 mph29.0 kmh 29.22 in989.5 mb 0.00 in0.0 mm 0.00 in0.0 mm 0.00 in0.0 mm
04:48 PM 84.9°F29.4°C 30.4°F-0.9°C 14% 7.0 mph WNW11.3 kmh WNW 18.0 mph29.0 kmh 29.22 in989.5 mb 0.00 in0.0 mm 0.00 in0.0 mm 0.00 in0.0 mm
04:49 PM 84.8°F29.3°C 28.5°F-1.9°C 13% 7.0 mph W11.3 kmh W 16.0 mph25.7 kmh 29.22 in989.5 mb 0.00 in0.0 mm 0.00 in0.0 mm 0.00 in0.0 mm
04:50 PM 84.7°F29.3°C 28.4°F-2.0°C 13% 2.0 mph NW3.2 kmh NW 15.0 mph24.1 kmh 29.22 in989.5 mb 0.00 in0.0 mm 0.00 in0.0 mm 0.00 in0.0 mm
04:51 PM 84.7°F29.3°C 30.2°F-1.0°C 14% 9.0 mph WNW14.5 kmh WNW 15.0 mph24.1 kmh 29.22 in989.5 mb 0.00 in0.0 mm 0.00 in0.0 mm 0.00 in0.0 mm
04:52 PM 84.7°F29.3°C 30.2°F-1.0°C 14% 7.0 mph W11.3 kmh W 15.0 mph24.1 kmh 29.22 in989.5 mb 0.00 in0.0 mm 0.00 in0.0 mm 0.00 in0.0 mm
04:53 PM 84.8°F29.3°C 30.3°F-0.9°C 14% 14.0 mph W22.5 kmh W 14.0 mph22.5 kmh 29.22 in989.5 mb 0.00 in0.0 mm 0.00 in0.0 mm 0.00 in0.0 mm
04:54 PM 84.8°F29.3°C 30.3°F-0.9°C 14% 16.0 mph WNW25.7 kmh WNW 18.0 mph29.0 kmh 29.22 in989.5 mb 0.00 in0.0 mm 0.00 in0.0 mm 0.00 in0.0 mm
04:55 PM 84.9°F29.4°C 30.4°F-0.9°C 14% 16.0 mph WSW25.7 kmh WSW 19.0 mph30.6 kmh 29.22 in989.5 mb 0.00 in0.0 mm 0.00 in0.0 mm 0.00 in0.0 mm
04:56 PM 85.1°F29.5°C 30.5°F-0.8°C 14% 8.0 mph WSW12.9 kmh WSW 19.0 mph30.6 kmh 29.22 in989.5 mb 0.00 in0.0 mm 0.00 in0.0 mm 0.00 in0.0 mm
04:57 PM 85.3°F29.6°C 28.9°F-1.7°C 13% 11.0 mph NW17.7 kmh NW 19.0 mph30.6 kmh 29.22 in989.5 mb 0.00 in0.0 mm 0.00 in0.0 mm 0.00 in0.0 mm
04:58 PM 85.2°F29.6°C 28.8°F-1.8°C 13% 9.0 mph WNW14.5 kmh WNW 19.0 mph30.6 kmh 29.22 in989.5 mb 0.00 in0.0 mm 0.00 in0.0 mm 0.00 in0.0 mm
04:59 PM 85.1°F29.5°C 28.7°F-1.8°C 13% 6.0 mph NW9.7 kmh NW 19.0 mph30.6 kmh 29.22 in989.5 mb 0.00 in0.0 mm 0.00 in0.0 mm 0.00 in0.0 mm
05:00 PM 85.1°F29.5°C 28.7°F-1.8°C 13% 6.0 mph WSW9.7 kmh WSW 19.0 mph30.6 kmh 29.22 in989.5 mb 0.00 in0.0 mm 0.00 in0.0 mm 0.00 in0.0 mm
05:01 PM 85.1°F29.5°C 28.7°F-1.8°C 13% 5.0 mph SW8.0 kmh SW 19.0 mph30.6 kmh 29.22 in989.5 mb 0.00 in0.0 mm 0.00 in0.0 mm 0.00 in0.0 mm
05:02 PM 85.3°F29.6°C 30.7°F-0.7°C 14% 9.0 mph WNW14.5 kmh WNW 19.0 mph30.6 kmh 29.22 in989.5 mb 0.00 in0.0 mm 0.00 in0.0 mm 0.00 in0.0 mm
05:03 PM 85.4°F29.7°C 29.0°F-1.7°C 13% 10.0 mph W16.1 kmh W 19.0 mph30.6 kmh 29.22 in989.5 mb 0.00 in0.0 mm 0.00 in0.0 mm 0.00 in0.0 mm
05:04 PM 85.3°F29.6°C 28.9°F-1.7°C 13% 8.0 mph W12.9 kmh W 18.0 mph29.0 kmh 29.22 in989.5 mb 0.00 in0.0 mm 0.00 in0.0 mm 0.00 in0.0 mm
05:05 PM 85.4°F29.7°C 29.0°F-1.7°C 13% 7.0 mph WNW11.3 kmh WNW 16.0 mph25.7 kmh 29.22 in989.5 mb 0.00 in0.0 mm 0.00 in0.0 mm 0.00 in0.0 mm
05:06 PM 85.4°F29.7°C 29.0°F-1.7°C 13% 10.0 mph WSW16.1 kmh WSW 16.0 mph25.7 kmh 29.21 in989.2 mb 0.00 in0.0 mm 0.00 in0.0 mm 0.00 in0.0 mm
05:07 PM 85.4°F29.7°C 29.0°F-1.7°C 13% 13.0 mph WSW20.9 kmh WSW 17.0 mph27.4 kmh 29.22 in989.5 mb 0.00 in0.0 mm 0.00 in0.0 mm 0.00 in0.0 mm
05:08 PM 85.4°F29.7°C 30.8°F-0.7°C 14% 8.0 mph W12.9 kmh W 17.0 mph27.4 kmh 29.22 in989.5 mb 0.00 in0.0 mm 0.00 in0.0 mm 0.00 in0.0 mm
05:09 PM 85.5°F29.7°C 29.0°F-1.7°C 13% 11.0 mph NW17.7 kmh NW 17.0 mph27.4 kmh 29.22 in989.5 mb 0.00 in0.0 mm 0.00 in0.0 mm 0.00 in0.0 mm
05:10 PM 85.3°F29.6°C 28.9°F-1.7°C 13% 8.0 mph NW12.9 kmh NW 17.0 mph27.4 kmh 29.22 in989.5 mb 0.00 in0.0 mm 0.00 in0.0 mm 0.00 in0.0 mm
05:11 PM 85.2°F29.6°C 30.6°F-0.8°C 14% 8.0 mph W12.9 kmh W 17.0 mph27.4 kmh 29.22 in989.5 mb 0.00 in0.0 mm 0.00 in0.0 mm 0.00 in0.0 mm
05:12 PM 85.1°F29.5°C 28.7°F-1.8°C 13% 10.0 mph W16.1 kmh W 17.0 mph27.4 kmh 29.22 in989.5 mb 0.00 in0.0 mm 0.00 in0.0 mm 0.00 in0.0 mm
05:13 PM 85.1°F29.5°C 28.7°F-1.8°C 13% 3.0 mph W4.8 kmh W 17.0 mph27.4 kmh 29.22 in989.5 mb 0.00 in0.0 mm 0.00 in0.0 mm 0.00 in0.0 mm
05:14 PM 85.2°F29.6°C 32.3°F0.2°C 15% 5.0 mph W8.0 kmh W 17.0 mph27.4 kmh 29.21 in989.2 mb 0.00 in0.0 mm 0.00 in0.0 mm 0.00 in0.0 mm
05:15 PM 85.5°F29.7°C 30.8°F-0.7°C 14% 1.0 mph NW1.6 kmh NW 17.0 mph27.4 kmh 29.21 in989.2 mb 0.00 in0.0 mm 0.00 in0.0 mm 0.00 in0.0 mm
05:16 PM 85.7°F29.8°C 31.0°F-0.6°C 14% 10.0 mph WNW16.1 kmh WNW 15.0 mph24.1 kmh 29.22 in989.5 mb 0.00 in0.0 mm 0.00 in0.0 mm 0.00 in0.0 mm
05:17 PM 85.9°F29.9°C 31.2°F-0.4°C 14% 8.0 mph WNW12.9 kmh WNW 15.0 mph24.1 kmh 29.21 in989.2 mb 0.00 in0.0 mm 0.00 in0.0 mm 0.00 in0.0 mm
05:18 PM 85.9°F29.9°C 31.2°F-0.4°C 14% 12.0 mph NW19.3 kmh NW 19.0 mph30.6 kmh 29.22 in989.5 mb 0.00 in0.0 mm 0.00 in0.0 mm 0.00 in0.0 mm
05:19 PM 85.9°F29.9°C 29.3°F-1.5°C 13% 8.0 mph NW12.9 kmh NW 19.0 mph30.6 kmh 29.21 in989.2 mb 0.00 in0.0 mm 0.00 in0.0 mm 0.00 in0.0 mm
05:20 PM 85.7°F29.8°C 29.2°F-1.6°C 13% 7.0 mph WNW11.3 kmh WNW 19.0 mph30.6 kmh 29.21 in989.2 mb 0.00 in0.0 mm 0.00 in0.0 mm 0.00 in0.0 mm
05:21 PM 85.7°F29.8°C 29.2°F-1.6°C 13% 6.0 mph NW9.7 kmh NW 19.0 mph30.6 kmh 29.21 in989.2 mb 0.00 in0.0 mm 0.00 in0.0 mm 0.00 in0.0 mm
05:22 PM 85.6°F29.8°C 29.1°F-1.6°C 13% 6.0 mph NW9.7 kmh NW 19.0 mph30.6 kmh 29.21 in989.2 mb 0.00 in0.0 mm 0.00 in0.0 mm 0.00 in0.0 mm
05:23 PM 85.5°F29.7°C 29.0°F-1.7°C 13% 8.0 mph WNW12.9 kmh WNW 19.0 mph30.6 kmh 29.21 in989.2 mb 0.00 in0.0 mm 0.00 in0.0 mm 0.00 in0.0 mm
05:24 PM 85.5°F29.7°C 30.8°F-0.7°C 14% 12.0 mph NW19.3 kmh NW 19.0 mph30.6 kmh 29.21 in989.2 mb 0.00 in0.0 mm 0.00 in0.0 mm 0.00 in0.0 mm
05:25 PM 85.6°F29.8°C 29.1°F-1.6°C 13% 14.0 mph W22.5 kmh W 19.0 mph30.6 kmh 29.21 in989.2 mb 0.00 in0.0 mm 0.00 in0.0 mm 0.00 in0.0 mm
05:26 PM 85.6°F29.8°C 29.1°F-1.6°C 13% 8.0 mph W12.9 kmh W 19.0 mph30.6 kmh 29.21 in989.2 mb 0.00 in0.0 mm 0.00 in0.0 mm 0.00 in0.0 mm
05:27 PM 85.6°F29.8°C 30.9°F-0.6°C 14% 9.0 mph W14.5 kmh W 15.0 mph24.1 kmh 29.22 in989.5 mb 0.00 in0.0 mm 0.00 in0.0 mm 0.00 in0.0 mm
05:28 PM 85.7°F29.8°C 31.0°F-0.6°C 14% 9.0 mph W14.5 kmh W 15.0 mph24.1 kmh 29.22 in989.5 mb 0.00 in0.0 mm 0.00 in0.0 mm 0.00 in0.0 mm
05:29 PM 85.7°F29.8°C 29.2°F-1.6°C 13% 7.0 mph W11.3 kmh W 15.0 mph24.1 kmh 29.22 in989.5 mb 0.00 in0.0 mm 0.00 in0.0 mm 0.00 in0.0 mm
05:30 PM 85.7°F29.8°C 29.2°F-1.6°C 13% 9.0 mph WSW14.5 kmh WSW 15.0 mph24.1 kmh 29.21 in989.2 mb 0.00 in0.0 mm 0.00 in0.0 mm 0.00 in0.0 mm
05:31 PM 85.7°F29.8°C 31.0°F-0.6°C 14% 12.0 mph W19.3 kmh W 15.0 mph24.1 kmh 29.21 in989.2 mb 0.00 in0.0 mm 0.00 in0.0 mm 0.00 in0.0 mm
05:32 PM 85.7°F29.8°C 29.2°F-1.6°C 13% 5.0 mph W8.0 kmh W 15.0 mph24.1 kmh 29.21 in989.2 mb 0.00 in0.0 mm 0.00 in0.0 mm 0.00 in0.0 mm
05:33 PM 85.7°F29.8°C 29.2°F-1.6°C 13% 8.0 mph W12.9 kmh W 15.0 mph24.1 kmh 29.21 in989.2 mb 0.00 in0.0 mm 0.00 in0.0 mm 0.00 in0.0 mm
05:34 PM 85.7°F29.8°C 29.2°F-1.6°C 13% 12.0 mph NW19.3 kmh NW 15.0 mph24.1 kmh 29.21 in989.2 mb 0.00 in0.0 mm 0.00 in0.0 mm 0.00 in0.0 mm
05:35 PM 85.8°F29.9°C 31.1°F-0.5°C 14% 6.0 mph WNW9.7 kmh WNW 15.0 mph24.1 kmh 29.21 in989.2 mb 0.00 in0.0 mm 0.00 in0.0 mm 0.00 in0.0 mm
05:36 PM 85.8°F29.9°C 29.3°F-1.5°C 13% 11.0 mph W17.7 kmh W 17.0 mph27.4 kmh 29.21 in989.2 mb 0.00 in0.0 mm 0.00 in0.0 mm 0.00 in0.0 mm
05:37 PM 85.7°F29.8°C 29.2°F-1.6°C 13% 10.0 mph WNW16.1 kmh WNW 17.0 mph27.4 kmh 29.21 in989.2 mb 0.00 in0.0 mm 0.00 in0.0 mm 0.00 in0.0 mm
05:38 PM 85.5°F29.7°C 30.8°F-0.7°C 14% 12.0 mph WNW19.3 kmh WNW 17.0 mph27.4 kmh 29.21 in989.2 mb 0.00 in0.0 mm 0.00 in0.0 mm 0.00 in0.0 mm
05:39 PM 85.5°F29.7°C 29.0°F-1.7°C 13% 8.0 mph WSW12.9 kmh WSW 17.0 mph27.4 kmh 29.21 in989.2 mb 0.00 in0.0 mm 0.00 in0.0 mm 0.00 in0.0 mm
05:40 PM 85.4°F29.7°C 29.0°F-1.7°C 13% 8.0 mph W12.9 kmh W 17.0 mph27.4 kmh 29.21 in989.2 mb 0.00 in0.0 mm 0.00 in0.0 mm 0.00 in0.0 mm
05:41 PM 85.2°F29.6°C 30.6°F-0.8°C 14% 9.0 mph WSW14.5 kmh WSW 17.0 mph27.4 kmh 29.21 in989.2 mb 0.00 in0.0 mm 0.00 in0.0 mm 0.00 in0.0 mm
05:42 PM 85.2°F29.6°C 30.6°F-0.8°C 14% 9.0 mph WSW14.5 kmh WSW 17.0 mph27.4 kmh 29.21 in989.2 mb 0.00 in0.0 mm 0.00 in0.0 mm 0.00 in0.0 mm
05:43 PM 85.1°F29.5°C 30.5°F-0.8°C 14% 6.0 mph SW9.7 kmh SW 17.0 mph27.4 kmh 29.21 in989.2 mb 0.00 in0.0 mm 0.00 in0.0 mm 0.00 in0.0 mm
05:44 PM 85.1°F29.5°C 30.5°F-0.8°C 14% 10.0 mph WNW16.1 kmh WNW 17.0 mph27.4 kmh 29.21 in989.2 mb 0.00 in0.0 mm 0.00 in0.0 mm 0.00 in0.0 mm
05:45 PM 85.2°F29.6°C 30.6°F-0.8°C 14% 7.0 mph W11.3 kmh W 16.0 mph25.7 kmh 29.21 in989.2 mb 0.00 in0.0 mm 0.00 in0.0 mm 0.00 in0.0 mm
05:46 PM 85.4°F29.7°C 32.5°F0.3°C 15% 11.0 mph W17.7 kmh W 16.0 mph25.7 kmh 29.21 in989.2 mb 0.00 in0.0 mm 0.00 in0.0 mm 0.00 in0.0 mm
05:47 PM 85.6°F29.8°C 30.9°F-0.6°C 14% 14.0 mph NW22.5 kmh NW 15.0 mph24.1 kmh 29.21 in989.2 mb 0.00 in0.0 mm 0.00 in0.0 mm 0.00 in0.0 mm
05:48 PM 85.7°F29.8°C 29.2°F-1.6°C 13% 11.0 mph NW17.7 kmh NW 14.0 mph22.5 kmh 29.20 in988.8 mb 0.00 in0.0 mm 0.00 in0.0 mm 0.00 in0.0 mm
05:49 PM 85.6°F29.8°C 30.9°F-0.6°C 14% 14.0 mph WNW22.5 kmh WNW 17.0 mph27.4 kmh 29.21 in989.2 mb 0.00 in0.0 mm 0.00 in0.0 mm 0.00 in0.0 mm
05:50 PM 85.5°F29.7°C 30.8°F-0.7°C 14% 16.0 mph WNW25.7 kmh WNW 17.0 mph27.4 kmh 29.21 in989.2 mb 0.00 in0.0 mm 0.00 in0.0 mm 0.00 in0.0 mm
05:51 PM 85.5°F29.7°C 30.8°F-0.7°C 14% 13.0 mph NW20.9 kmh NW 17.0 mph27.4 kmh 29.21 in989.2 mb 0.00 in0.0 mm 0.00 in0.0 mm 0.00 in0.0 mm
05:52 PM 85.3°F29.6°C 28.9°F-1.7°C 13% 9.0 mph WNW14.5 kmh WNW 17.0 mph27.4 kmh 29.21 in989.2 mb 0.00 in0.0 mm 0.00 in0.0 mm 0.00 in0.0 mm
05:53 PM 85.2°F29.6°C 28.8°F-1.8°C 13% 12.0 mph NW19.3 kmh NW 17.0 mph27.4 kmh 29.21 in989.2 mb 0.00 in0.0 mm 0.00 in0.0 mm 0.00 in0.0 mm
05:54 PM 85.1°F29.5°C 30.5°F-0.8°C 14% 7.0 mph WNW11.3 kmh WNW 17.0 mph27.4 kmh 29.21 in989.2 mb 0.00 in0.0 mm 0.00 in0.0 mm 0.00 in0.0 mm
05:55 PM 85.0°F29.4°C 28.6°F-1.9°C 13% 12.0 mph WNW19.3 kmh WNW 17.0 mph27.4 kmh 29.21 in989.2 mb 0.00 in0.0 mm 0.00 in0.0 mm 0.00 in0.0 mm
05:56 PM 84.9°F29.4°C 30.4°F-0.9°C 14% 5.0 mph NW8.0 kmh NW 17.0 mph27.4 kmh 29.21 in989.2 mb 0.00 in0.0 mm 0.00 in0.0 mm 0.00 in0.0 mm
05:57 PM 84.9°F29.4°C 30.4°F-0.9°C 14% 8.0 mph WSW12.9 kmh WSW 17.0 mph27.4 kmh 29.20 in988.8 mb 0.00 in0.0 mm 0.00 in0.0 mm 0.00 in0.0 mm
05:58 PM 84.9°F29.4°C 30.4°F-0.9°C 14% 14.0 mph WNW22.5 kmh WNW 17.0 mph27.4 kmh 29.21 in989.2 mb 0.00 in0.0 mm 0.00 in0.0 mm 0.00 in0.0 mm
05:59 PM 84.9°F29.4°C 30.4°F-0.9°C 14% 6.0 mph NW9.7 kmh NW 17.0 mph27.4 kmh 29.20 in988.8 mb 0.00 in0.0 mm 0.00 in0.0 mm 0.00 in0.0 mm
06:00 PM 84.9°F29.4°C 28.6°F-1.9°C 13% 8.0 mph W12.9 kmh W 16.0 mph25.7 kmh 29.20 in988.8 mb 0.00 in0.0 mm 0.00 in0.0 mm 0.00 in0.0 mm
06:01 PM 84.9°F29.4°C 28.6°F-1.9°C 13% 13.0 mph W20.9 kmh W 16.0 mph25.7 kmh 29.20 in988.8 mb 0.00 in0.0 mm 0.00 in0.0 mm 0.00 in0.0 mm
06:02 PM 84.8°F29.3°C 30.3°F-0.9°C 14% 13.0 mph W20.9 kmh W 16.0 mph25.7 kmh 29.20 in988.8 mb 0.00 in0.0 mm 0.00 in0.0 mm 0.00 in0.0 mm
06:03 PM 84.8°F29.3°C 30.3°F-0.9°C 14% 14.0 mph WNW22.5 kmh WNW 16.0 mph25.7 kmh 29.20 in988.8 mb 0.00 in0.0 mm 0.00 in0.0 mm 0.00 in0.0 mm
06:04 PM 84.8°F29.3°C 30.3°F-0.9°C 14% 13.0 mph WNW20.9 kmh WNW 16.0 mph25.7 kmh 29.20 in988.8 mb 0.00 in0.0 mm 0.00 in0.0 mm 0.00 in0.0 mm
06:05 PM 84.7°F29.3°C 30.2°F-1.0°C 14% 12.0 mph W19.3 kmh W 16.0 mph25.7 kmh 29.20 in988.8 mb 0.00 in0.0 mm 0.00 in0.0 mm 0.00 in0.0 mm
06:06 PM 84.7°F29.3°C 30.2°F-1.0°C 14% 18.0 mph WSW29.0 kmh WSW 18.0 mph29.0 kmh 29.20 in988.8 mb 0.00 in0.0 mm 0.00 in0.0 mm 0.00 in0.0 mm
06:07 PM 84.6°F29.2°C 28.3°F-2.1°C 13% 10.0 mph WNW16.1 kmh WNW 18.0 mph29.0 kmh 29.20 in988.8 mb 0.00 in0.0 mm 0.00 in0.0 mm 0.00 in0.0 mm
06:08 PM 84.6°F29.2°C 30.1°F-1.1°C 14% 12.0 mph W19.3 kmh W 18.0 mph29.0 kmh 29.20 in988.8 mb 0.00 in0.0 mm 0.00 in0.0 mm 0.00 in0.0 mm
06:09 PM 84.6°F29.2°C 30.1°F-1.1°C 14% 8.0 mph W12.9 kmh W 18.0 mph29.0 kmh 29.20 in988.8 mb 0.00 in0.0 mm 0.00 in0.0 mm 0.00 in0.0 mm
06:10 PM 84.6°F29.2°C 30.1°F-1.1°C 14% 10.0 mph W16.1 kmh W 18.0 mph29.0 kmh 29.20 in988.8 mb 0.00 in0.0 mm 0.00 in0.0 mm 0.00 in0.0 mm
06:11 PM 84.7°F29.3°C 30.2°F-1.0°C 14% 9.0 mph WNW14.5 kmh WNW 18.0 mph29.0 kmh 29.20 in988.8 mb 0.00 in0.0 mm 0.00 in0.0 mm 0.00 in0.0 mm
06:12 PM 84.7°F29.3°C 28.4°F-2.0°C 13% 11.0 mph W17.7 kmh W 18.0 mph29.0 kmh 29.20 in988.8 mb 0.00 in0.0 mm 0.00 in0.0 mm 0.00 in0.0 mm
06:13 PM 84.6°F29.2°C 30.1°F-1.1°C 14% 3.0 mph NW4.8 kmh NW 18.0 mph29.0 kmh 29.20 in988.8 mb 0.00 in0.0 mm 0.00 in0.0 mm 0.00 in0.0 mm
06:14 PM 84.7°F29.3°C 30.2°F-1.0°C 14% 11.0 mph WNW17.7 kmh WNW 18.0 mph29.0 kmh 29.20 in988.8 mb 0.00 in0.0 mm 0.00 in0.0 mm 0.00 in0.0 mm
06:15 PM 84.8°F29.3°C 30.3°F-0.9°C 14% 9.0 mph W14.5 kmh W 18.0 mph29.0 kmh 29.20 in988.8 mb 0.00 in0.0 mm 0.00 in0.0 mm 0.00 in0.0 mm
06:16 PM 84.8°F29.3°C 30.3°F-0.9°C 14% 7.0 mph WNW11.3 kmh WNW 14.0 mph22.5 kmh 29.20 in988.8 mb 0.00 in0.0 mm 0.00 in0.0 mm 0.00 in0.0 mm
06:17 PM 84.9°F29.4°C 30.4°F-0.9°C 14% 11.0 mph WSW17.7 kmh WSW 14.0 mph22.5 kmh 29.20 in988.8 mb 0.00 in0.0 mm 0.00 in0.0 mm 0.00 in0.0 mm
06:18 PM 84.9°F29.4°C 28.6°F-1.9°C 13% 10.0 mph WSW16.1 kmh WSW 14.0 mph22.5 kmh 29.20 in988.8 mb 0.00 in0.0 mm 0.00 in0.0 mm 0.00 in0.0 mm
06:19 PM 84.9°F29.4°C 28.6°F-1.9°C 13% 13.0 mph W20.9 kmh W 16.0 mph25.7 kmh 29.20 in988.8 mb 0.00 in0.0 mm 0.00 in0.0 mm 0.00 in0.0 mm
06:20 PM 84.8°F29.3°C 28.5°F-1.9°C 13% 6.0 mph W9.7 kmh W 16.0 mph25.7 kmh 29.20 in988.8 mb 0.00 in0.0 mm 0.00 in0.0 mm 0.00 in0.0 mm
06:21 PM 84.8°F29.3°C 30.3°F-0.9°C 14% 15.0 mph WNW24.1 kmh WNW 16.0 mph25.7 kmh 29.20 in988.8 mb 0.00 in0.0 mm 0.00 in0.0 mm 0.00 in0.0 mm
06:22 PM 84.8°F29.3°C 28.5°F-1.9°C 13% 7.0 mph WSW11.3 kmh WSW 16.0 mph25.7 kmh 29.20 in988.8 mb 0.00 in0.0 mm 0.00 in0.0 mm 0.00 in0.0 mm
06:23 PM 84.8°F29.3°C 30.3°F-0.9°C 14% 11.0 mph WSW17.7 kmh WSW 16.0 mph25.7 kmh 29.20 in988.8 mb 0.00 in0.0 mm 0.00 in0.0 mm 0.00 in0.0 mm
06:24 PM 84.7°F29.3°C 30.2°F-1.0°C 14% 14.0 mph WSW22.5 kmh WSW 18.0 mph29.0 kmh 29.20 in988.8 mb 0.00 in0.0 mm 0.00 in0.0 mm 0.00 in0.0 mm
06:25 PM 84.7°F29.3°C 28.4°F-2.0°C 13% 18.0 mph W29.0 kmh W 19.0 mph30.6 kmh 29.20 in988.8 mb 0.00 in0.0 mm 0.00 in0.0 mm 0.00 in0.0 mm
06:26 PM 84.7°F29.3°C 30.2°F-1.0°C 14% 9.0 mph WNW14.5 kmh WNW 19.0 mph30.6 kmh 29.20 in988.8 mb 0.00 in0.0 mm 0.00 in0.0 mm 0.00 in0.0 mm
06:27 PM 84.6°F29.2°C 30.1°F-1.1°C 14% 13.0 mph W20.9 kmh W 19.0 mph30.6 kmh 29.20 in988.8 mb 0.00 in0.0 mm 0.00 in0.0 mm 0.00 in0.0 mm
06:28 PM 84.5°F29.2°C 28.3°F-2.1°C 13% 10.0 mph W16.1 kmh W 19.0 mph30.6 kmh 29.20 in988.8 mb 0.00 in0.0 mm 0.00 in0.0 mm 0.00 in0.0 mm
06:29 PM 84.5°F29.2°C 30.1°F-1.1°C 14% 12.0 mph W19.3 kmh W 19.0 mph30.6 kmh 29.20 in988.8 mb 0.00 in0.0 mm 0.00 in0.0 mm 0.00 in0.0 mm
06:30 PM 84.4°F29.1°C 30.0°F-1.1°C 14% 11.0 mph W17.7 kmh W 19.0 mph30.6 kmh 29.20 in988.8 mb 0.00 in0.0 mm 0.00 in0.0 mm 0.00 in0.0 mm
06:31 PM 84.4°F29.1°C 30.0°F-1.1°C 14% 8.0 mph WNW12.9 kmh WNW 19.0 mph30.6 kmh 29.20 in988.8 mb 0.00 in0.0 mm 0.00 in0.0 mm 0.00 in0.0 mm
06:32 PM 84.3°F29.1°C 29.9°F-1.2°C 14% 13.0 mph W20.9 kmh W 19.0 mph30.6 kmh 29.20 in988.8 mb 0.00 in0.0 mm 0.00 in0.0 mm 0.00 in0.0 mm
06:33 PM 84.3°F29.1°C 29.9°F-1.2°C 14% 4.0 mph WSW6.4 kmh WSW 19.0 mph30.6 kmh 29.20 in988.8 mb 0.00 in0.0 mm 0.00 in0.0 mm 0.00 in0.0 mm
06:34 PM 84.3°F29.1°C 29.9°F-1.2°C 14% 12.0 mph SW19.3 kmh SW 19.0 mph30.6 kmh 29.20 in988.8 mb 0.00 in0.0 mm 0.00 in0.0 mm 0.00 in0.0 mm
06:35 PM 84.3°F29.1°C 29.9°F-1.2°C 14% 9.0 mph WSW14.5 kmh WSW 18.0 mph29.0 kmh 29.20 in988.8 mb 0.00 in0.0 mm 0.00 in0.0 mm 0.00 in0.0 mm
06:36 PM 84.3°F29.1°C 29.9°F-1.2°C 14% 8.0 mph WSW12.9 kmh WSW 18.0 mph29.0 kmh 29.19 in988.5 mb 0.00 in0.0 mm 0.00 in0.0 mm 0.00 in0.0 mm
06:37 PM 84.4°F29.1°C 30.0°F-1.1°C 14% 9.0 mph SW14.5 kmh SW 18.0 mph29.0 kmh 29.20 in988.8 mb 0.00 in0.0 mm 0.00 in0.0 mm 0.00 in0.0 mm
06:38 PM 84.5°F29.2°C 30.1°F-1.1°C 14% 8.0 mph W12.9 kmh W 18.0 mph29.0 kmh 29.20 in988.8 mb 0.00 in0.0 mm 0.00 in0.0 mm 0.00 in0.0 mm
06:39 PM 84.6°F29.2°C 30.1°F-1.1°C 14% 9.0 mph WNW14.5 kmh WNW 15.0 mph24.1 kmh 29.20 in988.8 mb 0.00 in0.0 mm 0.00 in0.0 mm 0.00 in0.0 mm
06:40 PM 84.6°F29.2°C 30.1°F-1.1°C 14% 15.0 mph WNW24.1 kmh WNW 15.0 mph24.1 kmh 29.20 in988.8 mb 0.00 in0.0 mm 0.00 in0.0 mm 0.00 in0.0 mm
06:41 PM 84.6°F29.2°C 30.1°F-1.1°C 14% 9.0 mph NW14.5 kmh NW 17.0 mph27.4 kmh 29.20 in988.8 mb 0.00 in0.0 mm 0.00 in0.0 mm 0.00 in0.0 mm
06:42 PM 84.5°F29.2°C 30.1°F-1.1°C 14% 6.0 mph W9.7 kmh W 17.0 mph27.4 kmh 29.20 in988.8 mb 0.00 in0.0 mm 0.00 in0.0 mm 0.00 in0.0 mm
06:43 PM 84.6°F29.2°C 30.1°F-1.1°C 14% 10.0 mph WSW16.1 kmh WSW 17.0 mph27.4 kmh 29.20 in988.8 mb 0.00 in0.0 mm 0.00 in0.0 mm 0.00 in0.0 mm
06:44 PM 84.6°F29.2°C 30.1°F-1.1°C 14% 11.0 mph W17.7 kmh W 17.0 mph27.4 kmh 29.20 in988.8 mb 0.00 in0.0 mm 0.00 in0.0 mm 0.00 in0.0 mm
06:45 PM 84.5°F29.2°C 30.1°F-1.1°C 14% 6.0 mph WSW9.7 kmh WSW 17.0 mph27.4 kmh 29.19 in988.5 mb 0.00 in0.0 mm 0.00 in0.0 mm 0.00 in0.0 mm
06:46 PM 84.6°F29.2°C 30.1°F-1.1°C 14% 15.0 mph WSW24.1 kmh WSW 17.0 mph27.4 kmh 29.20 in988.8 mb 0.00 in0.0 mm 0.00 in0.0 mm 0.00 in0.0 mm
06:47 PM 84.5°F29.2°C 30.1°F-1.1°C 14% 11.0 mph W17.7 kmh W 17.0 mph27.4 kmh 29.19 in988.5 mb 0.00 in0.0 mm 0.00 in0.0 mm 0.00 in0.0 mm
06:48 PM 84.5°F29.2°C 30.1°F-1.1°C 14% 8.0 mph W12.9 kmh W 17.0 mph27.4 kmh 29.20 in988.8 mb 0.00 in0.0 mm 0.00 in0.0 mm 0.00 in0.0 mm
06:49 PM 84.5°F29.2°C 30.1°F-1.1°C 14% 8.0 mph W12.9 kmh W 17.0 mph27.4 kmh 29.20 in988.8 mb 0.00 in0.0 mm 0.00 in0.0 mm 0.00 in0.0 mm
06:50 PM 84.5°F29.2°C 30.1°F-1.1°C 14% 13.0 mph WNW20.9 kmh WNW 16.0 mph25.7 kmh 29.19 in988.5 mb 0.00 in0.0 mm 0.00 in0.0 mm 0.00 in0.0 mm
06:51 PM 84.4°F29.1°C 30.0°F-1.1°C 14% 9.0 mph WNW14.5 kmh WNW 18.0 mph29.0 kmh 29.20 in988.8 mb 0.00 in0.0 mm 0.00 in0.0 mm 0.00 in0.0 mm
06:52 PM 84.4°F29.1°C 30.0°F-1.1°C 14% 13.0 mph W20.9 kmh W 18.0 mph29.0 kmh 29.20 in988.8 mb 0.00 in0.0 mm 0.00 in0.0 mm 0.00 in0.0 mm
06:53 PM 84.4°F29.1°C 30.0°F-1.1°C 14% 9.0 mph NW14.5 kmh NW 18.0 mph29.0 kmh 29.20 in988.8 mb 0.00 in0.0 mm 0.00 in0.0 mm 0.00 in0.0 mm
06:54 PM 84.3°F29.1°C 29.9°F-1.2°C 14% 13.0 mph NW20.9 kmh NW 18.0 mph29.0 kmh 29.20 in988.8 mb 0.00 in0.0 mm 0.00 in0.0 mm 0.00 in0.0 mm
06:55 PM 84.3°F29.1°C 29.9°F-1.2°C 14% 8.0 mph NW12.9 kmh NW 18.0 mph29.0 kmh 29.20 in988.8 mb 0.00 in0.0 mm 0.00 in0.0 mm 0.00 in0.0 mm
06:56 PM 84.2°F29.0°C 29.8°F-1.2°C 14% 6.0 mph WNW9.7 kmh WNW 18.0 mph29.0 kmh 29.20 in988.8 mb 0.00 in0.0 mm 0.00 in0.0 mm 0.00 in0.0 mm
06:57 PM 84.2°F29.0°C 29.8°F-1.2°C 14% 6.0 mph NW9.7 kmh NW 18.0 mph29.0 kmh 29.20 in988.8 mb 0.00 in0.0 mm 0.00 in0.0 mm 0.00 in0.0 mm
06:58 PM 84.2°F29.0°C 29.8°F-1.2°C 14% 7.0 mph NW11.3 kmh NW 18.0 mph29.0 kmh 29.20 in988.8 mb 0.00 in0.0 mm 0.00 in0.0 mm 0.00 in0.0 mm
06:59 PM 84.2°F29.0°C 29.8°F-1.2°C 14% 13.0 mph WNW20.9 kmh WNW 18.0 mph29.0 kmh 29.20 in988.8 mb 0.00 in0.0 mm 0.00 in0.0 mm 0.00 in0.0 mm
07:00 PM 84.2°F29.0°C 29.8°F-1.2°C 14% 11.0 mph WSW17.7 kmh WSW 18.0 mph29.0 kmh 29.20 in988.8 mb 0.00 in0.0 mm 0.00 in0.0 mm 0.00 in0.0 mm
07:01 PM 84.1°F28.9°C 29.7°F-1.3°C 14% 7.0 mph W11.3 kmh W 18.0 mph29.0 kmh 29.20 in988.8 mb 0.00 in0.0 mm 0.00 in0.0 mm 0.00 in0.0 mm
07:02 PM 84.2°F29.0°C 31.5°F-0.3°C 15% 12.0 mph WNW19.3 kmh WNW 18.0 mph29.0 kmh 29.20 in988.8 mb 0.00 in0.0 mm 0.00 in0.0 mm 0.00 in0.0 mm
07:03 PM 84.1°F28.9°C 29.7°F-1.3°C 14% 6.0 mph WNW9.7 kmh WNW 16.0 mph25.7 kmh 29.20 in988.8 mb 0.00 in0.0 mm 0.00 in0.0 mm 0.00 in0.0 mm
07:04 PM 84.2°F29.0°C 29.8°F-1.2°C 14% 6.0 mph W9.7 kmh W 15.0 mph24.1 kmh 29.20 in988.8 mb 0.00 in0.0 mm 0.00 in0.0 mm 0.00 in0.0 mm
07:05 PM 84.2°F29.0°C 29.8°F-1.2°C 14% 5.0 mph WNW8.0 kmh WNW 13.0 mph20.9 kmh 29.20 in988.8 mb 0.00 in0.0 mm 0.00 in0.0 mm 0.00 in0.0 mm
07:06 PM 84.2°F29.0°C 31.5°F-0.3°C 15% 9.0 mph W14.5 kmh W 13.0 mph20.9 kmh 29.20 in988.8 mb 0.00 in0.0 mm 0.00 in0.0 mm 0.00 in0.0 mm
07:07 PM 84.1°F28.9°C 29.7°F-1.3°C 14% 12.0 mph WNW19.3 kmh WNW 13.0 mph20.9 kmh 29.20 in988.8 mb 0.00 in0.0 mm 0.00 in0.0 mm 0.00 in0.0 mm
07:08 PM 84.1°F28.9°C 29.7°F-1.3°C 14% 7.0 mph W11.3 kmh W 13.0 mph20.9 kmh 29.20 in988.8 mb 0.00 in0.0 mm 0.00 in0.0 mm 0.00 in0.0 mm
07:09 PM 84.0°F28.9°C 29.7°F-1.3°C 14% 6.0 mph NW9.7 kmh NW 13.0 mph20.9 kmh 29.20 in988.8 mb 0.00 in0.0 mm 0.00 in0.0 mm 0.00 in0.0 mm
07:10 PM 83.8°F28.8°C 29.5°F-1.4°C 14% 8.0 mph W12.9 kmh W 13.0 mph20.9 kmh 29.20 in988.8 mb 0.00 in0.0 mm 0.00 in0.0 mm 0.00 in0.0 mm
07:11 PM 83.7°F28.7°C 29.4°F-1.4°C 14% 5.0 mph W8.0 kmh W 13.0 mph20.9 kmh 29.20 in988.8 mb 0.00 in0.0 mm 0.00 in0.0 mm 0.00 in0.0 mm
07:12 PM 83.6°F28.7°C 29.4°F-1.4°C 14% 1.0 mph W1.6 kmh W 13.0 mph20.9 kmh 29.20 in988.8 mb 0.00 in0.0 mm 0.00 in0.0 mm 0.00 in0.0 mm
07:13 PM 83.6°F28.7°C 31.1°F-0.5°C 15% 7.0 mph WSW11.3 kmh WSW 13.0 mph20.9 kmh 29.20 in988.8 mb 0.00 in0.0 mm 0.00 in0.0 mm 0.00 in0.0 mm
07:14 PM 83.6°F28.7°C 29.4°F-1.4°C 14% 9.0 mph WSW14.5 kmh WSW 13.0 mph20.9 kmh 29.20 in988.8 mb 0.00 in0.0 mm 0.00 in0.0 mm 0.00 in0.0 mm
07:15 PM 83.6°F28.7°C 29.4°F-1.4°C 14% 9.0 mph W14.5 kmh W 16.0 mph25.7 kmh 29.20 in988.8 mb 0.00 in0.0 mm 0.00 in0.0 mm 0.00 in0.0 mm
07:16 PM 83.6°F28.7°C 29.4°F-1.4°C 14% 8.0 mph W12.9 kmh W 16.0 mph25.7 kmh 29.20 in988.8 mb 0.00 in0.0 mm 0.00 in0.0 mm 0.00 in0.0 mm
07:17 PM 83.6°F28.7°C 29.4°F-1.4°C 14% 8.0 mph WNW12.9 kmh WNW 16.0 mph25.7 kmh 29.20 in988.8 mb 0.00 in0.0 mm 0.00 in0.0 mm 0.00 in0.0 mm
07:18 PM 83.6°F28.7°C 29.4°F-1.4°C 14% 4.0 mph WNW6.4 kmh WNW 16.0 mph25.7 kmh 29.20 in988.8 mb 0.00 in0.0 mm 0.00 in0.0 mm 0.00 in0.0 mm
07:19 PM 83.6°F28.7°C 31.1°F-0.5°C 15% 2.0 mph WSW3.2 kmh WSW 16.0 mph25.7 kmh 29.20 in988.8 mb 0.00 in0.0 mm 0.00 in0.0 mm 0.00 in0.0 mm
07:20 PM 83.7°F28.7°C 31.1°F-0.5°C 15% 6.0 mph SW9.7 kmh SW 16.0 mph25.7 kmh 29.20 in988.8 mb 0.00 in0.0 mm 0.00 in0.0 mm 0.00 in0.0 mm
07:21 PM 83.7°F28.7°C 29.4°F-1.4°C 14% 6.0 mph W9.7 kmh W 16.0 mph25.7 kmh 29.20 in988.8 mb 0.00 in0.0 mm 0.00 in0.0 mm 0.00 in0.0 mm
07:22 PM 83.7°F28.7°C 29.4°F-1.4°C 14% 5.0 mph WNW8.0 kmh WNW 16.0 mph25.7 kmh 29.20 in988.8 mb 0.00 in0.0 mm 0.00 in0.0 mm 0.00 in0.0 mm
07:23 PM 83.8°F28.8°C 31.2°F-0.4°C 15% 5.0 mph WSW8.0 kmh WSW 16.0 mph25.7 kmh 29.20 in988.8 mb 0.00 in0.0 mm 0.00 in0.0 mm 0.00 in0.0 mm
07:24 PM 83.8°F28.8°C 29.5°F-1.4°C 14% 8.0 mph W12.9 kmh W 13.0 mph20.9 kmh 29.20 in988.8 mb 0.00 in0.0 mm 0.00 in0.0 mm 0.00 in0.0 mm
07:25 PM 83.7°F28.7°C 29.4°F-1.4°C 14% 8.0 mph NW12.9 kmh NW 9.0 mph14.5 kmh 29.20 in988.8 mb 0.00 in0.0 mm 0.00 in0.0 mm 0.00 in0.0 mm
07:26 PM 83.7°F28.7°C 29.4°F-1.4°C 14% 8.0 mph W12.9 kmh W 9.0 mph14.5 kmh 29.20 in988.8 mb 0.00 in0.0 mm 0.00 in0.0 mm 0.00 in0.0 mm
07:27 PM 83.7°F28.7°C 29.4°F-1.4°C 14% 6.0 mph W9.7 kmh W 10.0 mph16.1 kmh 29.20 in988.8 mb 0.00 in0.0 mm 0.00 in0.0 mm 0.00 in0.0 mm
07:28 PM 83.6°F28.7°C 29.4°F-1.4°C 14% 12.0 mph WNW19.3 kmh WNW 15.0 mph24.1 kmh 29.20 in988.8 mb 0.00 in0.0 mm 0.00 in0.0 mm 0.00 in0.0 mm
07:29 PM 83.6°F28.7°C 29.4°F-1.4°C 14% 6.0 mph W9.7 kmh W 15.0 mph24.1 kmh 29.20 in988.8 mb 0.00 in0.0 mm 0.00 in0.0 mm 0.00 in0.0 mm
07:30 PM 83.6°F28.7°C 31.1°F-0.5°C 15% 7.0 mph W11.3 kmh W 15.0 mph24.1 kmh 29.20 in988.8 mb 0.00 in0.0 mm 0.00 in0.0 mm 0.00 in0.0 mm
07:31 PM 83.6°F28.7°C 31.1°F-0.5°C 15% 7.0 mph W11.3 kmh W 15.0 mph24.1 kmh 29.20 in988.8 mb 0.00 in0.0 mm 0.00 in0.0 mm 0.00 in0.0 mm
07:32 PM 83.5°F28.6°C 29.3°F-1.5°C 14% 3.0 mph WNW4.8 kmh WNW 15.0 mph24.1 kmh 29.20 in988.8 mb 0.00 in0.0 mm 0.00 in0.0 mm 0.00 in0.0 mm
07:33 PM 83.5°F28.6°C 31.0°F-0.6°C 15% 5.0 mph NW8.0 kmh NW 15.0 mph24.1 kmh 29.20 in988.8 mb 0.00 in0.0 mm 0.00 in0.0 mm 0.00 in0.0 mm
07:34 PM 83.4°F28.6°C 30.9°F-0.6°C 15% 9.0 mph NW14.5 kmh NW 15.0 mph24.1 kmh 29.20 in988.8 mb 0.00 in0.0 mm 0.00 in0.0 mm 0.00 in0.0 mm
07:35 PM 83.4°F28.6°C 29.2°F-1.6°C 14% 10.0 mph WNW16.1 kmh WNW 15.0 mph24.1 kmh 29.20 in988.8 mb 0.00 in0.0 mm 0.00 in0.0 mm 0.00 in0.0 mm
07:36 PM 83.4°F28.6°C 29.2°F-1.6°C 14% 6.0 mph WNW9.7 kmh WNW 15.0 mph24.1 kmh 29.20 in988.8 mb 0.00 in0.0 mm 0.00 in0.0 mm 0.00 in0.0 mm